Darstellungsparameter: Aktuell verwendete Einstellungen:
Skalierung der Graphiken ... ?
xyx+y,   Skalierungsfaktor:      Skalierung: Modus: x, Faktor: 1
Darstellungszeitraum ... ?
Vom - - bis: - -   Zeitraum: 29.05.2017 - 04.06.2017
Min/Max/Avg-Anzeige ... ?
Zeige MMA aktuell
Zeige MMA Monat
Zeige MMA alles
Zeige --A aktuell
Zeige --A Monat
Zeige --A alles
Keine MMA-Anzeige
MMA:
Keine MMA-Graphiken
MMA-Basis: 29.05.2017 - 04.06.2017
Quicknavigation für Darstellung... ?
Tage:      1T, 2T, 3T, 5T -1T -2T -3T -5T +1T +2T +3T +5T
Wochen: 1W, 2W, 3W -1W -2W -3W +1W +2W +3W
Monate: 1M, 3M, 6M -1M -3M -6M +1M +3M +6M
Jahre:    1J, 3J, 5J, 10J -1J -3J -5J -10J +1J +3J +5J +10J
Nutze für die Darstellung ... ?
Originaldaten oder Mittelwerte auf ...
Stundenbasis Tagesbasis Wochenbasis
Monatsbasis Jahresbasis      Datenbasis: Original-Daten
Darstellen als:
Statistik (Auto) Statistik J:M      Darstellung:
Zur Graphik,    zurück zur Übersicht aller Sensoren.
 
Tabellarische Datenbersicht: ?
 
Sensor: Nr:Datum:Temp:Abs-Feuchte:Windchill:Wind:
Aussen-T/F 1 29-05-2017 00:00:00 18.4 C 14.78 g/m*3 18.4 C 0 km/h
2 29-05-2017 00:05:00 18.3 C 14.85 g/m*3 18.3 C 0 km/h
3 29-05-2017 00:10:00 18.3 C 14.85 g/m*3 18.3 C 0 km/h
4 29-05-2017 00:15:00 18.2 C 14.77 g/m*3 18.2 C 0 km/h
5 29-05-2017 00:20:00 18.2 C 14.77 g/m*3 18.2 C 0 km/h
6 29-05-2017 00:25:00 18.2 C 14.77 g/m*3 18.2 C 0 km/h
7 29-05-2017 00:30:00 18.1 C 14.68 g/m*3 18.1 C 0 km/h
8 29-05-2017 00:35:00 18.1 C 14.68 g/m*3 18.1 C 0 km/h
9 29-05-2017 00:40:00 18 C 14.59 g/m*3 18 C 0 km/h
10 29-05-2017 00:45:00 17.9 C 14.5 g/m*3 17.9 C 0 km/h
11 29-05-2017 00:50:00 17.8 C 14.42 g/m*3 17.8 C 0 km/h
12 29-05-2017 00:55:00 17.8 C 14.42 g/m*3 17.8 C 0 km/h
13 29-05-2017 01:00:00 17.8 C 14.42 g/m*3 17.8 C 0 km/h
14 29-05-2017 01:05:00 17.7 C 14.33 g/m*3 17.7 C 0 km/h
15 29-05-2017 01:10:00 17.6 C 14.25 g/m*3 17.6 C 0 km/h
16 29-05-2017 01:15:00 17.6 C 14.25 g/m*3 17.6 C 0 km/h
17 29-05-2017 01:20:00 17.6 C 14.25 g/m*3 17.6 C 0 km/h
18 29-05-2017 01:25:00 17.6 C 14.25 g/m*3 17.6 C 0 km/h
19 29-05-2017 01:30:00 17.5 C 14.16 g/m*3 17.5 C 0 km/h
20 29-05-2017 01:35:00 17.5 C 14.16 g/m*3 17.5 C 0 km/h
21 29-05-2017 01:40:00 17.4 C 14.08 g/m*3 17.4 C 0 km/h
22 29-05-2017 01:45:00 17.3 C 14 g/m*3 17.3 C 0 km/h
23 29-05-2017 01:50:00 17.3 C 14 g/m*3 17.3 C 0 km/h
24 29-05-2017 01:55:00 17.3 C 14 g/m*3 17.3 C 0 km/h
25 29-05-2017 02:00:00 17.3 C 14 g/m*3 17.3 C 0 km/h
Sensor: Nr:Datum:Temp:Abs-Feuchte:Windchill:Wind:
Aussen-T/F 26 29-05-2017 02:05:00 17.2 C 13.91 g/m*3 17.2 C 0 km/h
27 29-05-2017 02:10:00 17.1 C 13.83 g/m*3 17.1 C 0 km/h
28 29-05-2017 02:15:00 17.1 C 13.83 g/m*3 17.1 C 0 km/h
29 29-05-2017 02:20:00 16.9 C 13.66 g/m*3 16.9 C 0 km/h
30 29-05-2017 02:25:00 16.9 C 13.66 g/m*3 16.9 C 0 km/h
31 29-05-2017 02:30:00 16.9 C 13.81 g/m*3 16.9 C 0 km/h
32 29-05-2017 02:35:00 17 C 13.89 g/m*3 17 C 0 km/h
33 29-05-2017 02:40:00 16.9 C 13.81 g/m*3 16.9 C 0 km/h
34 29-05-2017 02:45:00 16.8 C 13.73 g/m*3 16.8 C 0 km/h
35 29-05-2017 02:50:00 16.8 C 13.58 g/m*3 16.8 C 0 km/h
36 29-05-2017 02:55:00 16.7 C 13.5 g/m*3 16.7 C 0 km/h
37 29-05-2017 03:00:00 16.7 C 13.64 g/m*3 16.7 C 0 km/h
38 29-05-2017 03:05:00 16.7 C 13.64 g/m*3 16.7 C 0 km/h
39 29-05-2017 03:10:00 16.7 C 13.64 g/m*3 16.7 C 0 km/h
40 29-05-2017 03:15:00 16.6 C 13.56 g/m*3 16.6 C 0 km/h
41 29-05-2017 03:20:00 16.4 C 13.4 g/m*3 16.4 C 0 km/h
42 29-05-2017 03:25:00 16.4 C 13.4 g/m*3 16.4 C 0 km/h
43 29-05-2017 03:30:00 16.4 C 13.4 g/m*3 16.4 C 0 km/h
44 29-05-2017 03:35:00 16.4 C 13.4 g/m*3 16.4 C 0 km/h
45 29-05-2017 03:40:00 16.5 C 13.48 g/m*3 16.5 C 0 km/h
46 29-05-2017 03:45:00 16.5 C 13.48 g/m*3 16.5 C 0 km/h
47 29-05-2017 03:50:00 16.5 C 13.48 g/m*3 16.5 C 0 km/h
48 29-05-2017 03:55:00 16.5 C 13.48 g/m*3 16.5 C 0 km/h
49 29-05-2017 04:00:00 16.5 C 13.48 g/m*3 16.5 C 0 km/h
50 29-05-2017 04:05:00 16.6 C 13.56 g/m*3 16.6 C 0 km/h
Sensor: Nr:Datum:Temp:Abs-Feuchte:Windchill:Wind:
Aussen-T/F 51 29-05-2017 04:10:00 16.6 C 13.56 g/m*3 16.6 C 0 km/h
52 29-05-2017 04:15:00 16.7 C 13.64 g/m*3 16.7 C 0 km/h
53 29-05-2017 04:20:00 16.7 C 13.64 g/m*3 16.7 C 0 km/h
54 29-05-2017 04:25:00 16.8 C 13.73 g/m*3 16.8 C 0 km/h
55 29-05-2017 04:30:00 16.8 C 13.73 g/m*3 16.8 C 0 km/h
56 29-05-2017 04:35:00 16.9 C 13.81 g/m*3 16.9 C 0 km/h
57 29-05-2017 04:40:00 17 C 14.04 g/m*3 17 C 0 km/h
58 29-05-2017 04:45:00 17.1 C 14.12 g/m*3 17.1 C 0 km/h
59 29-05-2017 04:50:00 17.1 C 13.97 g/m*3 17.1 C 0 km/h
60 29-05-2017 04:55:00 17 C 13.89 g/m*3 17 C 0 km/h
61 29-05-2017 05:00:00 17 C 13.89 g/m*3 17 C 0 km/h
62 29-05-2017 05:05:00 17 C 13.89 g/m*3 17 C 0 km/h
63 29-05-2017 05:10:00 16.9 C 13.81 g/m*3 16.9 C 0 km/h
64 29-05-2017 05:15:00 17 C 14.04 g/m*3 17 C 0 km/h
65 29-05-2017 05:20:00 17 C 14.04 g/m*3 17 C 0 km/h
66 29-05-2017 05:25:00 17.1 C 14.12 g/m*3 17.1 C 0 km/h
67 29-05-2017 05:30:00 17.1 C 14.12 g/m*3 17.1 C 0 km/h
68 29-05-2017 05:35:00 17.1 C 14.12 g/m*3 17.1 C 0 km/h
69 29-05-2017 05:40:00 17.1 C 13.97 g/m*3 17.1 C 0 km/h
70 29-05-2017 05:45:00 17 C 13.89 g/m*3 17 C 0 km/h
71 29-05-2017 05:50:00 17 C 14.04 g/m*3 17 C 0 km/h
72 29-05-2017 05:55:00 17.1 C 14.12 g/m*3 17.1 C 0 km/h
73 29-05-2017 06:00:00 17.1 C 14.12 g/m*3 17.1 C 0 km/h
74 29-05-2017 06:05:00 17.1 C 14.12 g/m*3 17.1 C 0 km/h
75 29-05-2017 06:10:00 17.1 C 14.12 g/m*3 17.1 C 0 km/h
Sensor: Nr:Datum:Temp:Abs-Feuchte:Windchill:Wind:
Aussen-T/F 76 29-05-2017 06:15:00 17.1 C 14.12 g/m*3 17.1 C 0 km/h
77 29-05-2017 06:20:00 17 C 14.04 g/m*3 17 C 0 km/h
78 29-05-2017 06:25:00 17.1 C 14.12 g/m*3 17.1 C 0 km/h
79 29-05-2017 06:30:00 17.2 C 14.2 g/m*3 17.2 C 0 km/h
80 29-05-2017 06:35:00 17.2 C 14.2 g/m*3 17.2 C 0 km/h
81 29-05-2017 06:40:00 17.3 C 14.29 g/m*3 17.3 C 3.2 km/h
82 29-05-2017 06:45:00 17.4 C 14.38 g/m*3 17.4 C 3.2 km/h
83 29-05-2017 06:50:00 17.4 C 14.38 g/m*3 17.4 C 0 km/h
84 29-05-2017 06:55:00 17.4 C 14.38 g/m*3 17.4 C 0 km/h
85 29-05-2017 07:00:00 17.4 C 14.38 g/m*3 17.4 C 0 km/h
86 29-05-2017 07:05:00 17.4 C 14.38 g/m*3 17.4 C 0 km/h
87 29-05-2017 07:10:00 17.4 C 14.38 g/m*3 17.4 C 0 km/h
88 29-05-2017 07:15:00 17.4 C 14.38 g/m*3 17.4 C 0 km/h
89 29-05-2017 07:20:00 17.4 C 14.38 g/m*3 17.4 C 0 km/h
90 29-05-2017 07:25:00 17.4 C 14.38 g/m*3 17.4 C 0 km/h
91 29-05-2017 07:30:00 17.4 C 14.38 g/m*3 17.4 C 0 km/h
92 29-05-2017 07:35:00 17.3 C 14.29 g/m*3 17.3 C 0 km/h
93 29-05-2017 07:40:00 17.3 C 14.29 g/m*3 17.3 C 0 km/h
94 29-05-2017 07:45:00 17.3 C 14.29 g/m*3 17.3 C 0 km/h
95 29-05-2017 07:50:00 17.4 C 14.38 g/m*3 17.4 C 0 km/h
96 29-05-2017 07:55:00 17.4 C 14.38 g/m*3 17.4 C 0 km/h
97 29-05-2017 08:00:00 17.4 C 14.38 g/m*3 17.4 C 0 km/h
98 29-05-2017 08:05:00 17.4 C 14.38 g/m*3 17.4 C 0 km/h
99 29-05-2017 08:10:00 17.5 C 14.46 g/m*3 17.5 C 0 km/h
100 29-05-2017 08:15:00 17.6 C 14.55 g/m*3 17.6 C 3.2 km/h
Sensor: Nr:Datum:Temp:Abs-Feuchte:Windchill:Wind:
Aussen-T/F 101 29-05-2017 08:20:00 17.7 C 14.64 g/m*3 17.7 C 0 km/h
102 29-05-2017 08:25:00 17.7 C 14.64 g/m*3 17.7 C 0 km/h
103 29-05-2017 08:30:00 17.7 C 14.64 g/m*3 17.7 C 0 km/h
104 29-05-2017 08:35:00 17.8 C 14.72 g/m*3 17.8 C 0 km/h
105 29-05-2017 08:40:00 17.8 C 14.72 g/m*3 17.8 C 0 km/h
106 29-05-2017 08:45:00 17.9 C 14.81 g/m*3 17.9 C 0 km/h
107 29-05-2017 08:50:00 18 C 14.9 g/m*3 18 C 0 km/h
108 29-05-2017 08:55:00 18.1 C 14.99 g/m*3 18.1 C 0 km/h
109 29-05-2017 09:00:00 18.2 C 15.08 g/m*3 18.2 C 0 km/h
110 29-05-2017 09:05:00 18.3 C 15.17 g/m*3 18.3 C 0 km/h
111 29-05-2017 09:10:00 18.4 C 15.26 g/m*3 18.4 C 0 km/h
112 29-05-2017 09:15:00 18.5 C 15.35 g/m*3 18.5 C 0 km/h
113 29-05-2017 09:20:00 18.6 C 15.44 g/m*3 18.6 C 0 km/h
114 29-05-2017 09:25:00 18.7 C 15.53 g/m*3 18.7 C 0 km/h
115 29-05-2017 09:30:00 18.9 C 15.71 g/m*3 18.9 C 0 km/h
116 29-05-2017 09:35:00 19 C 15.81 g/m*3 19 C 0 km/h
117 29-05-2017 09:40:00 19.2 C 15.99 g/m*3 19.2 C 0 km/h
118 29-05-2017 09:45:00 19.3 C 16.09 g/m*3 19.3 C 0 km/h
119 29-05-2017 09:50:00 19.5 C 16.28 g/m*3 19.5 C 0 km/h
120 29-05-2017 09:55:00 19.7 C 16.47 g/m*3 19.7 C 0 km/h
121 29-05-2017 10:00:00 19.7 C 16.47 g/m*3 19.7 C 0 km/h
122 29-05-2017 10:05:00 19.9 C 16.67 g/m*3 19.9 C 0 km/h
123 29-05-2017 10:10:00 19.9 C 16.67 g/m*3 19.9 C 0 km/h
124 29-05-2017 10:15:00 20.1 C 16.86 g/m*3 20.1 C 0 km/h
125 29-05-2017 10:20:00 20.3 C 17.06 g/m*3 20.3 C 0 km/h
Sensor: Nr:Datum:Temp:Abs-Feuchte:Windchill:Wind:
Aussen-T/F 126 29-05-2017 10:25:00 20.6 C 17.36 g/m*3 20.6 C 0 km/h
127 29-05-2017 10:30:00 20.8 C 17.56 g/m*3 20.8 C 0 km/h
128 29-05-2017 10:35:00 21.1 C 17.87 g/m*3 21.1 C 0 km/h
129 29-05-2017 10:40:00 21.2 C 17.98 g/m*3 21.2 C 0 km/h
130 29-05-2017 10:45:00 21.3 C 18.08 g/m*3 21.3 C 0 km/h
131 29-05-2017 10:50:00 21.3 C 18.08 g/m*3 21.3 C 0 km/h
132 29-05-2017 10:55:00 21.6 C 18.21 g/m*3 21.6 C 0 km/h
133 29-05-2017 11:00:00 21.7 C 18.31 g/m*3 21.7 C 0 km/h
134 29-05-2017 11:05:00 21.8 C 18.42 g/m*3 21.8 C 0 km/h
135 29-05-2017 11:10:00 22.1 C 18.74 g/m*3 22.1 C 0 km/h
136 29-05-2017 11:15:00 22.3 C 18.96 g/m*3 22.3 C 0 km/h
137 29-05-2017 11:20:00 22.4 C 19.07 g/m*3 22.4 C 0 km/h
138 29-05-2017 11:25:00 22.7 C 19.19 g/m*3 22.7 C 0 km/h
139 29-05-2017 11:30:00 22.8 C 19.3 g/m*3 22.8 C 0 km/h
140 29-05-2017 11:35:00 23 C 19.11 g/m*3 23 C 4.8 km/h
141 29-05-2017 11:40:00 23.2 C 19.13 g/m*3 23.2 C 4.8 km/h
142 29-05-2017 11:45:00 23.4 C 18.71 g/m*3 23.4 C 3.2 km/h
143 29-05-2017 11:50:00 23.8 C 18.71 g/m*3 23.8 C 4.8 km/h
144 29-05-2017 11:55:00 24.1 C 19.04 g/m*3 24.1 C 8.1 km/h
145 29-05-2017 12:00:00 24.6 C 18.46 g/m*3 24.6 C 8.1 km/h
146 29-05-2017 12:05:00 25.1 C 18.98 g/m*3 25.1 C 8.1 km/h
147 29-05-2017 12:10:00 25.4 C 18.13 g/m*3 25.4 C 1.6 km/h
148 29-05-2017 12:15:00 25.6 C 18.09 g/m*3 25.6 C 1.6 km/h
149 29-05-2017 12:20:00 25.8 C 19.26 g/m*3 25.8 C 3.2 km/h
150 29-05-2017 12:25:00 25.9 C 17.43 g/m*3 25.9 C 4.8 km/h
Sensor: Nr:Datum:Temp:Abs-Feuchte:Windchill:Wind:
Aussen-T/F 151 29-05-2017 12:30:00 26.2 C 16.99 g/m*3 26.2 C 9.7 km/h
152 29-05-2017 12:35:00 26.6 C 17.62 g/m*3 26.6 C 9.7 km/h
153 29-05-2017 12:40:00 26.7 C 17.97 g/m*3 26.7 C 3.2 km/h
154 29-05-2017 12:45:00 26.9 C 17.4 g/m*3 26.9 C 4.8 km/h
155 29-05-2017 12:50:00 27.2 C 17.96 g/m*3 27.2 C 4.8 km/h
156 29-05-2017 12:55:00 27.3 C 17.27 g/m*3 27.3 C 9.7 km/h
157 29-05-2017 13:00:00 27.6 C 15.96 g/m*3 27.6 C 3.2 km/h
158 29-05-2017 13:05:00 27.8 C 17.21 g/m*3 27.8 C 8.1 km/h
159 29-05-2017 13:10:00 27.9 C 15.69 g/m*3 27.9 C 4.8 km/h
160 29-05-2017 13:15:00 28.1 C 18.32 g/m*3 28.1 C 3.2 km/h
161 29-05-2017 13:20:00 27.9 C 15.15 g/m*3 27.9 C 11.3 km/h
162 29-05-2017 13:25:00 28.1 C 14.22 g/m*3 28.1 C 6.4 km/h
163 29-05-2017 13:30:00 28.3 C 16.59 g/m*3 28.3 C 3.2 km/h
164 29-05-2017 13:35:00 28.3 C 14.93 g/m*3 28.3 C 6.4 km/h
165 29-05-2017 13:40:00 28.3 C 14.1 g/m*3 28.3 C 4.8 km/h
166 29-05-2017 13:45:00 28.5 C 13.97 g/m*3 28.5 C 8.1 km/h
167 29-05-2017 13:50:00 28.8 C 13.64 g/m*3 28.8 C 4.8 km/h
168 29-05-2017 13:55:00 29.1 C 15.31 g/m*3 29.1 C 6.4 km/h
169 29-05-2017 14:00:00 29.3 C 14.89 g/m*3 29.3 C 8.1 km/h
170 29-05-2017 14:05:00 29.6 C 15.13 g/m*3 29.6 C 8.1 km/h
171 29-05-2017 14:10:00 29.7 C 14.62 g/m*3 29.7 C 14.5 km/h
172 29-05-2017 14:15:00 29.7 C 13.72 g/m*3 29.7 C 3.2 km/h
173 29-05-2017 14:20:00 29.8 C 15 g/m*3 29.8 C 6.4 km/h
174 29-05-2017 14:25:00 29.8 C 14.4 g/m*3 29.8 C 8.1 km/h
175 29-05-2017 14:30:00 30 C 14.25 g/m*3 30 C 11.3 km/h
Sensor: Nr:Datum:Temp:Abs-Feuchte:Windchill:Wind:
Aussen-T/F 176 29-05-2017 14:35:00 30.2 C 14.41 g/m*3 30.2 C 9.7 km/h
177 29-05-2017 14:40:00 30.2 C 15.02 g/m*3 30.2 C 4.8 km/h
178 29-05-2017 14:45:00 30.2 C 13.49 g/m*3 30.2 C 6.4 km/h
179 29-05-2017 14:50:00 30.3 C 13.87 g/m*3 30.3 C 14.5 km/h
180 29-05-2017 14:55:00 30.7 C 14.17 g/m*3 30.7 C 4.8 km/h
181 29-05-2017 15:00:00 30.7 C 13.86 g/m*3 30.7 C 3.2 km/h
182 29-05-2017 15:05:00 30.8 C 14.56 g/m*3 30.8 C 6.4 km/h
183 29-05-2017 15:10:00 31 C 14.4 g/m*3 31 C 12.9 km/h
184 29-05-2017 15:15:00 31.3 C 15.61 g/m*3 31.3 C 4.8 km/h
185 29-05-2017 15:20:00 31.6 C 14.54 g/m*3 31.6 C 12.9 km/h
186 29-05-2017 15:25:00 31.9 C 15.78 g/m*3 31.9 C 9.7 km/h
187 29-05-2017 15:30:00 32.1 C 14.93 g/m*3 32.1 C 3.2 km/h
188 29-05-2017 15:35:00 32.3 C 17.84 g/m*3 32.3 C 1.6 km/h
189 29-05-2017 15:40:00 32.8 C 16.2 g/m*3 32.8 C 4.8 km/h
190 29-05-2017 15:45:00 33.2 C 16.19 g/m*3 33.2 C 9.7 km/h
191 29-05-2017 15:50:00 33.4 C 12.72 g/m*3 33.4 C 4.8 km/h
192 29-05-2017 15:55:00 33.6 C 13.23 g/m*3 33.6 C 6.4 km/h
193 29-05-2017 16:00:00 33.8 C 13.37 g/m*3 33.8 C 11.3 km/h
194 29-05-2017 16:05:00 34.1 C 14.71 g/m*3 34.1 C 4.8 km/h
195 29-05-2017 16:10:00 34.1 C 14.33 g/m*3 34.1 C 12.9 km/h
196 29-05-2017 16:15:00 34.1 C 12.82 g/m*3 34.1 C 11.3 km/h
197 29-05-2017 16:20:00 34 C 13.51 g/m*3 34 C 3.2 km/h
198 29-05-2017 16:25:00 34.2 C 17.06 g/m*3 34.2 C 1.6 km/h
199 29-05-2017 16:30:00 34.4 C 15.71 g/m*3 34.4 C 11.3 km/h
200 29-05-2017 16:35:00 34.6 C 13.55 g/m*3 34.6 C 4.8 km/h
Sensor: Nr:Datum:Temp:Abs-Feuchte:Windchill:Wind:
Aussen-T/F 201 29-05-2017 16:40:00 34.8 C 12.91 g/m*3 34.8 C 6.4 km/h
202 29-05-2017 16:45:00 34.9 C 15.73 g/m*3 34.9 C 6.4 km/h
203 29-05-2017 16:50:00 35 C 14.63 g/m*3 35 C 12.9 km/h
204 29-05-2017 16:55:00 35 C 13.05 g/m*3 35 C 3.2 km/h
205 29-05-2017 17:00:00 35.1 C 12.72 g/m*3 35.1 C 11.3 km/h
206 29-05-2017 17:05:00 35.2 C 11.58 g/m*3 35.2 C 14.5 km/h
207 29-05-2017 17:10:00 35.2 C 13.18 g/m*3 35.2 C 11.3 km/h
208 29-05-2017 17:15:00 35.2 C 15.58 g/m*3 35.2 C 6.4 km/h
209 29-05-2017 17:20:00 35.3 C 14.86 g/m*3 35.3 C 9.7 km/h
210 29-05-2017 17:25:00 35.5 C 14.61 g/m*3 35.5 C 4.8 km/h
211 29-05-2017 17:30:00 35.6 C 13.46 g/m*3 35.6 C 11.3 km/h
212 29-05-2017 17:35:00 35.5 C 15.82 g/m*3 35.5 C 8.1 km/h
213 29-05-2017 17:40:00 35.6 C 15.09 g/m*3 35.6 C 6.4 km/h
214 29-05-2017 17:45:00 35.6 C 13.46 g/m*3 35.6 C 4.8 km/h
215 29-05-2017 17:50:00 35.6 C 13.05 g/m*3 35.6 C 16.1 km/h
216 29-05-2017 17:55:00 35.3 C 13.25 g/m*3 35.3 C 16.1 km/h
217 29-05-2017 18:00:00 35.3 C 15.66 g/m*3 35.3 C 0 km/h
218 29-05-2017 18:05:00 35.4 C 14.93 g/m*3 35.4 C 3.2 km/h
219 29-05-2017 18:10:00 35.4 C 16.14 g/m*3 35.4 C 8.1 km/h
220 29-05-2017 18:15:00 34.9 C 16.52 g/m*3 34.9 C 4.8 km/h
221 29-05-2017 18:20:00 34.6 C 15.1 g/m*3 34.6 C 3.2 km/h
222 29-05-2017 18:25:00 34.4 C 14.94 g/m*3 34.4 C 1.6 km/h
223 29-05-2017 18:30:00 34.4 C 17.24 g/m*3 34.4 C 3.2 km/h
224 29-05-2017 18:35:00 34.4 C 16.86 g/m*3 34.4 C 0 km/h
225 29-05-2017 18:40:00 34.3 C 16.77 g/m*3 34.3 C 4.8 km/h
Sensor: Nr:Datum:Temp:Abs-Feuchte:Windchill:Wind:
Aussen-T/F 226 29-05-2017 18:45:00 33.8 C 15.97 g/m*3 33.8 C 9.7 km/h
227 29-05-2017 18:50:00 33.7 C 16.99 g/m*3 33.7 C 0 km/h
228 29-05-2017 18:55:00 33.8 C 17.82 g/m*3 33.8 C 0 km/h
229 29-05-2017 19:00:00 33.8 C 17.08 g/m*3 33.8 C 1.6 km/h
230 29-05-2017 19:05:00 33.8 C 15.59 g/m*3 33.8 C 6.4 km/h
231 29-05-2017 19:10:00 33.7 C 16.99 g/m*3 33.7 C 9.7 km/h
232 29-05-2017 19:15:00 33.4 C 15.63 g/m*3 33.4 C 3.2 km/h
233 29-05-2017 19:20:00 33.1 C 16.82 g/m*3 33.1 C 1.6 km/h
234 29-05-2017 19:25:00 32.5 C 15.95 g/m*3 32.5 C 1.6 km/h
235 29-05-2017 19:30:00 31.9 C 15.78 g/m*3 31.9 C 0 km/h
236 29-05-2017 19:35:00 31.3 C 15.61 g/m*3 31.3 C 1.6 km/h
237 29-05-2017 19:40:00 30.7 C 15.43 g/m*3 30.7 C 1.6 km/h
238 29-05-2017 19:45:00 29.9 C 15.08 g/m*3 29.9 C 0 km/h
239 29-05-2017 19:50:00 29.3 C 15.47 g/m*3 29.3 C 1.6 km/h
240 29-05-2017 19:55:00 28.7 C 15.26 g/m*3 28.7 C 1.6 km/h
241 29-05-2017 20:00:00 28.2 C 15.4 g/m*3 28.2 C 1.6 km/h
242 29-05-2017 20:05:00 27.7 C 15.25 g/m*3 27.7 C 1.6 km/h
243 29-05-2017 20:10:00 27.3 C 15.18 g/m*3 27.3 C 1.6 km/h
244 29-05-2017 20:15:00 27 C 14.93 g/m*3 27 C 0 km/h
245 29-05-2017 20:20:00 26.8 C 15.27 g/m*3 26.8 C 0 km/h
246 29-05-2017 20:25:00 26.5 C 15.02 g/m*3 26.5 C 1.6 km/h
247 29-05-2017 20:30:00 26.2 C 15.02 g/m*3 26.2 C 1.6 km/h
248 29-05-2017 20:35:00 26 C 14.85 g/m*3 26 C 0 km/h
249 29-05-2017 20:40:00 25.8 C 14.93 g/m*3 25.8 C 0 km/h
250 29-05-2017 20:45:00 25.6 C 15 g/m*3 25.6 C 0 km/h
Sensor: Nr:Datum:Temp:Abs-Feuchte:Windchill:Wind:
Aussen-T/F 251 29-05-2017 20:50:00 25.3 C 14.98 g/m*3 25.3 C 0 km/h
252 29-05-2017 20:55:00 25.2 C 15.13 g/m*3 25.2 C 0 km/h
253 29-05-2017 21:00:00 24.9 C 14.88 g/m*3 24.9 C 1.6 km/h
254 29-05-2017 21:05:00 24.8 C 15.02 g/m*3 24.8 C 1.6 km/h
255 29-05-2017 21:10:00 24.7 C 15.16 g/m*3 24.7 C 0 km/h
256 29-05-2017 21:15:00 24.5 C 14.99 g/m*3 24.5 C 0 km/h
257 29-05-2017 21:20:00 24.3 C 15.05 g/m*3 24.3 C 0 km/h
258 29-05-2017 21:25:00 24.2 C 14.96 g/m*3 24.2 C 0 km/h
259 29-05-2017 21:30:00 24.1 C 15.1 g/m*3 24.1 C 0 km/h
260 29-05-2017 21:35:00 23.9 C 14.93 g/m*3 23.9 C 0 km/h
261 29-05-2017 21:40:00 23.8 C 15.06 g/m*3 23.8 C 0 km/h
262 29-05-2017 21:45:00 23.7 C 14.97 g/m*3 23.7 C 0 km/h
263 29-05-2017 21:50:00 23.5 C 15.01 g/m*3 23.5 C 1.6 km/h
264 29-05-2017 21:55:00 23.4 C 14.93 g/m*3 23.4 C 0 km/h
265 29-05-2017 22:00:00 23.2 C 14.76 g/m*3 23.2 C 0 km/h
266 29-05-2017 22:05:00 23.1 C 14.88 g/m*3 23.1 C 0 km/h
267 29-05-2017 22:10:00 23 C 14.8 g/m*3 23 C 0 km/h
268 29-05-2017 22:15:00 22.9 C 14.92 g/m*3 22.9 C 0 km/h
269 29-05-2017 22:20:00 22.7 C 14.75 g/m*3 22.7 C 0 km/h
270 29-05-2017 22:25:00 22.6 C 14.66 g/m*3 22.6 C 0 km/h
271 29-05-2017 22:30:00 22.6 C 14.87 g/m*3 22.6 C 1.6 km/h
272 29-05-2017 22:35:00 22.5 C 14.78 g/m*3 22.5 C 0 km/h
273 29-05-2017 22:40:00 22.4 C 14.7 g/m*3 22.4 C 0 km/h
274 29-05-2017 22:45:00 22.3 C 14.61 g/m*3 22.3 C 0 km/h
275 29-05-2017 22:50:00 22.3 C 14.61 g/m*3 22.3 C 1.6 km/h
Sensor: Nr:Datum:Temp:Abs-Feuchte:Windchill:Wind:
Aussen-T/F 276 29-05-2017 22:55:00 22.4 C 14.7 g/m*3 22.4 C 4.8 km/h
277 29-05-2017 23:00:00 22.4 C 14.5 g/m*3 22.4 C 1.6 km/h
278 29-05-2017 23:05:00 22.4 C 14.89 g/m*3 22.4 C 0 km/h
279 29-05-2017 23:10:00 22.3 C 14.61 g/m*3 22.3 C 0 km/h
280 29-05-2017 23:15:00 22.2 C 14.72 g/m*3 22.2 C 0 km/h
281 29-05-2017 23:20:00 22 C 14.75 g/m*3 22 C 0 km/h
282 29-05-2017 23:25:00 21.8 C 14.58 g/m*3 21.8 C 0 km/h
283 29-05-2017 23:30:00 21.6 C 14.6 g/m*3 21.6 C 0 km/h
284 29-05-2017 23:35:00 21.4 C 14.44 g/m*3 21.4 C 0 km/h
285 29-05-2017 23:40:00 21.3 C 14.54 g/m*3 21.3 C 0 km/h
286 29-05-2017 23:45:00 21.1 C 14.37 g/m*3 21.1 C 0 km/h
287 29-05-2017 23:50:00 20.8 C 14.3 g/m*3 20.8 C 0 km/h
288 29-05-2017 23:55:00 20.7 C 14.4 g/m*3 20.7 C 0 km/h
289 30-05-2017 00:00:00 20.6 C 14.32 g/m*3 20.6 C 0 km/h
290 30-05-2017 00:05:00 20.6 C 14.32 g/m*3 20.6 C 0 km/h
291 30-05-2017 00:10:00 20.5 C 14.23 g/m*3 20.5 C 0 km/h
292 30-05-2017 00:15:00 20.4 C 14.33 g/m*3 20.4 C 0 km/h
293 30-05-2017 00:20:00 20.3 C 14.25 g/m*3 20.3 C 0 km/h
294 30-05-2017 00:25:00 20.3 C 14.07 g/m*3 20.3 C 0 km/h
295 30-05-2017 00:30:00 20.2 C 14.16 g/m*3 20.2 C 0 km/h
296 30-05-2017 00:35:00 20.1 C 14.08 g/m*3 20.1 C 0 km/h
297 30-05-2017 00:40:00 19.9 C 13.92 g/m*3 19.9 C 0 km/h
298 30-05-2017 00:45:00 19.8 C 14.01 g/m*3 19.8 C 0 km/h
299 30-05-2017 00:50:00 19.8 C 14.01 g/m*3 19.8 C 0 km/h
300 30-05-2017 00:55:00 19.8 C 14.01 g/m*3 19.8 C 0 km/h
Sensor: Nr:Datum:Temp:Abs-Feuchte:Windchill:Wind:
Aussen-T/F 301 30-05-2017 01:00:00 19.7 C 13.92 g/m*3 19.7 C 0 km/h
302 30-05-2017 01:05:00 19.6 C 13.84 g/m*3 19.6 C 0 km/h
303 30-05-2017 01:10:00 19.4 C 13.85 g/m*3 19.4 C 0 km/h
304 30-05-2017 01:15:00 19.3 C 13.77 g/m*3 19.3 C 0 km/h
305 30-05-2017 01:20:00 19.2 C 13.85 g/m*3 19.2 C 0 km/h
306 30-05-2017 01:25:00 19.2 C 13.69 g/m*3 19.2 C 0 km/h
307 30-05-2017 01:30:00 19.1 C 13.61 g/m*3 19.1 C 0 km/h
308 30-05-2017 01:35:00 18.9 C 13.61 g/m*3 18.9 C 0 km/h
309 30-05-2017 01:40:00 18.8 C 13.53 g/m*3 18.8 C 0 km/h
310 30-05-2017 01:45:00 18.7 C 13.29 g/m*3 18.7 C 0 km/h
311 30-05-2017 01:50:00 18.6 C 13.53 g/m*3 18.6 C 1.6 km/h
312 30-05-2017 01:55:00 18.7 C 13.61 g/m*3 18.7 C 0 km/h
313 30-05-2017 02:00:00 18.7 C 13.61 g/m*3 18.7 C 0 km/h
314 30-05-2017 02:05:00 18.8 C 13.69 g/m*3 18.8 C 0 km/h
315 30-05-2017 02:10:00 18.8 C 13.85 g/m*3 18.8 C 4.8 km/h
316 30-05-2017 02:15:00 18.7 C 13.77 g/m*3 18.7 C 0 km/h
317 30-05-2017 02:20:00 18.7 C 13.77 g/m*3 18.7 C 0 km/h
318 30-05-2017 02:25:00 18.6 C 13.53 g/m*3 18.6 C 0 km/h
319 30-05-2017 02:30:00 18.4 C 13.37 g/m*3 18.4 C 0 km/h
320 30-05-2017 02:35:00 18.4 C 13.53 g/m*3 18.4 C 6.4 km/h
321 30-05-2017 02:40:00 18.5 C 13.77 g/m*3 18.5 C 6.4 km/h
322 30-05-2017 02:45:00 18.5 C 13.61 g/m*3 18.5 C 0 km/h
323 30-05-2017 02:50:00 18.5 C 13.77 g/m*3 18.5 C 0 km/h
324 30-05-2017 02:55:00 18.4 C 13.68 g/m*3 18.4 C 0 km/h
325 30-05-2017 03:00:00 18.3 C 13.6 g/m*3 18.3 C 3.2 km/h
Sensor: Nr:Datum:Temp:Abs-Feuchte:Windchill:Wind:
Aussen-T/F 326 30-05-2017 03:05:00 18.3 C 13.6 g/m*3 18.3 C 3.2 km/h
327 30-05-2017 03:10:00 18.3 C 13.6 g/m*3 18.3 C 0 km/h
328 30-05-2017 03:15:00 18.3 C 13.6 g/m*3 18.3 C 0 km/h
329 30-05-2017 03:20:00 18.2 C 13.68 g/m*3 18.2 C 0 km/h
330 30-05-2017 03:25:00 18.2 C 13.68 g/m*3 18.2 C 0 km/h
331 30-05-2017 03:30:00 18.2 C 13.68 g/m*3 18.2 C 1.6 km/h
332 30-05-2017 03:35:00 18.1 C 13.6 g/m*3 18.1 C 0 km/h
333 30-05-2017 03:40:00 18.1 C 13.6 g/m*3 18.1 C 0 km/h
334 30-05-2017 03:45:00 18 C 13.52 g/m*3 18 C 1.6 km/h
335 30-05-2017 03:50:00 18 C 13.52 g/m*3 18 C 1.6 km/h
336 30-05-2017 03:55:00 17.9 C 13.59 g/m*3 17.9 C 0 km/h
337 30-05-2017 04:00:00 17.9 C 13.59 g/m*3 17.9 C 0 km/h
338 30-05-2017 04:05:00 18 C 13.67 g/m*3 18 C 0 km/h
339 30-05-2017 04:10:00 18 C 13.67 g/m*3 18 C 0 km/h
340 30-05-2017 04:15:00 18.1 C 13.75 g/m*3 18.1 C 0 km/h
341 30-05-2017 04:20:00 18.1 C 13.75 g/m*3 18.1 C 0 km/h
342 30-05-2017 04:25:00 18.1 C 13.75 g/m*3 18.1 C 0 km/h
343 30-05-2017 04:30:00 18.1 C 13.75 g/m*3 18.1 C 3.2 km/h
344 30-05-2017 04:35:00 18.1 C 13.75 g/m*3 18.1 C 1.6 km/h
345 30-05-2017 04:40:00 18.1 C 13.75 g/m*3 18.1 C 0 km/h
346 30-05-2017 04:45:00 18.2 C 13.83 g/m*3 18.2 C 0 km/h
347 30-05-2017 04:50:00 18.2 C 13.83 g/m*3 18.2 C 3.2 km/h
348 30-05-2017 04:55:00 18.2 C 13.68 g/m*3 18.2 C 1.6 km/h
349 30-05-2017 05:00:00 18.2 C 13.68 g/m*3 18.2 C 0 km/h
350 30-05-2017 05:05:00 18.2 C 13.68 g/m*3 18.2 C 0 km/h
Sensor: Nr:Datum:Temp:Abs-Feuchte:Windchill:Wind:
Aussen-T/F 351 30-05-2017 05:10:00 18.2 C 13.68 g/m*3 18.2 C 0 km/h
352 30-05-2017 05:15:00 18.2 C 13.83 g/m*3 18.2 C 0 km/h
353 30-05-2017 05:20:00 18.2 C 13.83 g/m*3 18.2 C 0 km/h
354 30-05-2017 05:25:00 18.2 C 13.83 g/m*3 18.2 C 0 km/h
355 30-05-2017 05:30:00 18.2 C 13.83 g/m*3 18.2 C 0 km/h
356 30-05-2017 05:35:00 18.2 C 13.83 g/m*3 18.2 C 0 km/h
357 30-05-2017 05:40:00 18.2 C 13.99 g/m*3 18.2 C 0 km/h
358 30-05-2017 05:45:00 18.2 C 13.99 g/m*3 18.2 C 0 km/h
359 30-05-2017 05:50:00 18.2 C 13.99 g/m*3 18.2 C 0 km/h
360 30-05-2017 05:55:00 18.2 C 13.99 g/m*3 18.2 C 0 km/h
361 30-05-2017 06:00:00 18.2 C 13.99 g/m*3 18.2 C 0 km/h
362 30-05-2017 06:05:00 18.1 C 13.91 g/m*3 18.1 C 0 km/h
363 30-05-2017 06:10:00 18.1 C 13.91 g/m*3 18.1 C 0 km/h
364 30-05-2017 06:15:00 18.1 C 13.91 g/m*3 18.1 C 0 km/h
365 30-05-2017 06:20:00 18.1 C 13.91 g/m*3 18.1 C 0 km/h
366 30-05-2017 06:25:00 18 C 13.82 g/m*3 18 C 0 km/h
367 30-05-2017 06:30:00 17.9 C 13.74 g/m*3 17.9 C 0 km/h
368 30-05-2017 06:35:00 17.9 C 13.74 g/m*3 17.9 C 0 km/h
369 30-05-2017 06:40:00 17.8 C 13.81 g/m*3 17.8 C 0 km/h
370 30-05-2017 06:45:00 17.8 C 13.81 g/m*3 17.8 C 0 km/h
371 30-05-2017 06:50:00 17.7 C 13.73 g/m*3 17.7 C 0 km/h
372 30-05-2017 06:55:00 17.7 C 13.73 g/m*3 17.7 C 0 km/h
373 30-05-2017 07:00:00 17.8 C 13.96 g/m*3 17.8 C 0 km/h
374 30-05-2017 07:05:00 17.9 C 14.05 g/m*3 17.9 C 0 km/h
375 30-05-2017 07:10:00 18.1 C 14.21 g/m*3 18.1 C 0 km/h
Sensor: Nr:Datum:Temp:Abs-Feuchte:Windchill:Wind:
Aussen-T/F 376 30-05-2017 07:15:00 18.2 C 14.3 g/m*3 18.2 C 0 km/h
377 30-05-2017 07:20:00 18.2 C 14.3 g/m*3 18.2 C 0 km/h
378 30-05-2017 07:25:00 18.3 C 14.38 g/m*3 18.3 C 0 km/h
379 30-05-2017 07:30:00 18.4 C 14.31 g/m*3 18.4 C 0 km/h
380 30-05-2017 07:35:00 18.6 C 14.48 g/m*3 18.6 C 0 km/h
381 30-05-2017 07:40:00 18.7 C 14.57 g/m*3 18.7 C 0 km/h
382 30-05-2017 07:45:00 18.8 C 14.82 g/m*3 18.8 C 0 km/h
383 30-05-2017 07:50:00 18.9 C 14.74 g/m*3 18.9 C 0 km/h
384 30-05-2017 07:55:00 19.1 C 14.92 g/m*3 19.1 C 0 km/h
385 30-05-2017 08:00:00 19.2 C 14.84 g/m*3 19.2 C 0 km/h
386 30-05-2017 08:05:00 19.3 C 14.93 g/m*3 19.3 C 0 km/h
387 30-05-2017 08:10:00 19.6 C 15.19 g/m*3 19.6 C 0 km/h
388 30-05-2017 08:15:00 19.7 C 15.11 g/m*3 19.7 C 0 km/h
389 30-05-2017 08:20:00 19.8 C 15.37 g/m*3 19.8 C 0 km/h
390 30-05-2017 08:25:00 19.9 C 15.46 g/m*3 19.9 C 0 km/h
391 30-05-2017 08:30:00 20.1 C 15.47 g/m*3 20.1 C 0 km/h
392 30-05-2017 08:35:00 20.1 C 15.47 g/m*3 20.1 C 0 km/h
393 30-05-2017 08:40:00 20.2 C 15.56 g/m*3 20.2 C 0 km/h
394 30-05-2017 08:45:00 20.2 C 15.56 g/m*3 20.2 C 0 km/h
395 30-05-2017 08:50:00 20.2 C 15.39 g/m*3 20.2 C 0 km/h
396 30-05-2017 08:55:00 20.3 C 15.3 g/m*3 20.3 C 0 km/h
397 30-05-2017 09:00:00 20.4 C 15.57 g/m*3 20.4 C 0 km/h
398 30-05-2017 09:05:00 20.6 C 15.75 g/m*3 20.6 C 0 km/h
399 30-05-2017 09:10:00 20.6 C 15.75 g/m*3 20.6 C 0 km/h
400 30-05-2017 09:15:00 20.7 C 15.48 g/m*3 20.7 C 0 km/h
Sensor: Nr:Datum:Temp:Abs-Feuchte:Windchill:Wind:
Aussen-T/F 401 30-05-2017 09:20:00 20.8 C 15.75 g/m*3 20.8 C 1.6 km/h
402 30-05-2017 09:25:00 21 C 15.94 g/m*3 21 C 0 km/h
403 30-05-2017 09:30:00 21.1 C 15.85 g/m*3 21.1 C 0 km/h
404 30-05-2017 09:35:00 21.2 C 15.94 g/m*3 21.2 C 0 km/h
405 30-05-2017 09:40:00 21.1 C 15.85 g/m*3 21.1 C 0 km/h
406 30-05-2017 09:45:00 21.1 C 15.85 g/m*3 21.1 C 0 km/h
407 30-05-2017 09:50:00 21.1 C 15.66 g/m*3 21.1 C 0 km/h
408 30-05-2017 09:55:00 21.2 C 15.57 g/m*3 21.2 C 1.6 km/h
409 30-05-2017 10:00:00 21.4 C 15.75 g/m*3 21.4 C 0 km/h
410 30-05-2017 10:05:00 21.6 C 15.55 g/m*3 21.6 C 0 km/h
411 30-05-2017 10:10:00 21.7 C 15.45 g/m*3 21.7 C 0 km/h
412 30-05-2017 10:15:00 22 C 15.33 g/m*3 22 C 8.1 km/h
413 30-05-2017 10:20:00 22.4 C 15.69 g/m*3 22.4 C 4.8 km/h
414 30-05-2017 10:25:00 22.9 C 15.33 g/m*3 22.9 C 4.8 km/h
415 30-05-2017 10:30:00 23.4 C 15.14 g/m*3 23.4 C 3.2 km/h
416 30-05-2017 10:35:00 23.8 C 15.27 g/m*3 23.8 C 1.6 km/h
417 30-05-2017 10:40:00 24.2 C 15.4 g/m*3 24.2 C 1.6 km/h
418 30-05-2017 10:45:00 24.4 C 14.91 g/m*3 24.4 C 3.2 km/h
419 30-05-2017 10:50:00 24.6 C 15.53 g/m*3 24.6 C 4.8 km/h
420 30-05-2017 10:55:00 24.7 C 15.84 g/m*3 24.7 C 3.2 km/h
421 30-05-2017 11:00:00 24.7 C 15.84 g/m*3 24.7 C 0 km/h
422 30-05-2017 11:05:00 24.6 C 15.75 g/m*3 24.6 C 3.2 km/h
423 30-05-2017 11:10:00 24.6 C 14.85 g/m*3 24.6 C 1.6 km/h
424 30-05-2017 11:15:00 24.5 C 15.44 g/m*3 24.5 C 1.6 km/h
425 30-05-2017 11:20:00 24.4 C 15.58 g/m*3 24.4 C 0 km/h
Sensor: Nr:Datum:Temp:Abs-Feuchte:Windchill:Wind:
Aussen-T/F 426 30-05-2017 11:25:00 24.5 C 15.89 g/m*3 24.5 C 0 km/h
427 30-05-2017 11:30:00 24.4 C 15.36 g/m*3 24.4 C 3.2 km/h
428 30-05-2017 11:35:00 24.5 C 14.99 g/m*3 24.5 C 3.2 km/h
429 30-05-2017 11:40:00 24.6 C 14.18 g/m*3 24.6 C 4.8 km/h
430 30-05-2017 11:45:00 24.8 C 15.71 g/m*3 24.8 C 1.6 km/h
431 30-05-2017 11:50:00 24.9 C 15.34 g/m*3 24.9 C 3.2 km/h
432 30-05-2017 11:55:00 25.1 C 14.82 g/m*3 25.1 C 4.8 km/h
433 30-05-2017 12:00:00 25.2 C 15.36 g/m*3 25.2 C 1.6 km/h
434 30-05-2017 12:05:00 25.3 C 14.75 g/m*3 25.3 C 8.1 km/h
435 30-05-2017 12:10:00 25.5 C 14.91 g/m*3 25.5 C 6.4 km/h
436 30-05-2017 12:15:00 25.7 C 14.84 g/m*3 25.7 C 3.2 km/h
437 30-05-2017 12:20:00 25.9 C 15.25 g/m*3 25.9 C 8.1 km/h
438 30-05-2017 12:25:00 26 C 15.34 g/m*3 26 C 8.1 km/h
439 30-05-2017 12:30:00 26.1 C 15.18 g/m*3 26.1 C 4.8 km/h
440 30-05-2017 12:35:00 26.2 C 15.02 g/m*3 26.2 C 3.2 km/h
441 30-05-2017 12:40:00 26.3 C 14.85 g/m*3 26.3 C 6.4 km/h
442 30-05-2017 12:45:00 26.4 C 15.43 g/m*3 26.4 C 9.7 km/h
443 30-05-2017 12:50:00 26.4 C 15.43 g/m*3 26.4 C 9.7 km/h
444 30-05-2017 12:55:00 26.4 C 15.19 g/m*3 26.4 C 3.2 km/h
445 30-05-2017 13:00:00 26.5 C 16.77 g/m*3 26.5 C 0 km/h
446 30-05-2017 13:05:00 26.6 C 14.85 g/m*3 26.6 C 8.1 km/h
447 30-05-2017 13:10:00 26.8 C 15.53 g/m*3 26.8 C 4.8 km/h
448 30-05-2017 13:15:00 27.1 C 15.01 g/m*3 27.1 C 11.3 km/h
449 30-05-2017 13:20:00 27.2 C 15.61 g/m*3 27.2 C 8.1 km/h
450 30-05-2017 13:25:00 27.3 C 15.18 g/m*3 27.3 C 6.4 km/h
Sensor: Nr:Datum:Temp:Abs-Feuchte:Windchill:Wind:
Aussen-T/F 451 30-05-2017 13:30:00 27.3 C 14.91 g/m*3 27.3 C 4.8 km/h
452 30-05-2017 13:35:00 27.2 C 15.09 g/m*3 27.2 C 9.7 km/h
453 30-05-2017 13:40:00 27.2 C 15.35 g/m*3 27.2 C 4.8 km/h
454 30-05-2017 13:45:00 27.3 C 15.7 g/m*3 27.3 C 6.4 km/h
455 30-05-2017 13:50:00 27.4 C 15 g/m*3 27.4 C 6.4 km/h
456 30-05-2017 13:55:00 27.6 C 14.1 g/m*3 27.6 C 8.1 km/h
457 30-05-2017 14:00:00 27.8 C 13.72 g/m*3 27.8 C 12.9 km/h
458 30-05-2017 14:05:00 27.9 C 14.6 g/m*3 27.9 C 14.5 km/h
459 30-05-2017 14:10:00 27.8 C 14.79 g/m*3 27.8 C 8.1 km/h
460 30-05-2017 14:15:00 27.7 C 14.44 g/m*3 27.7 C 12.9 km/h
461 30-05-2017 14:20:00 27.6 C 14.1 g/m*3 27.6 C 9.7 km/h
462 30-05-2017 14:25:00 27.4 C 15 g/m*3 27.4 C 4.8 km/h
463 30-05-2017 14:30:00 27.3 C 14.39 g/m*3 27.3 C 6.4 km/h
464 30-05-2017 14:35:00 27.3 C 14.39 g/m*3 27.3 C 9.7 km/h
465 30-05-2017 14:40:00 27.3 C 14.39 g/m*3 27.3 C 9.7 km/h
466 30-05-2017 14:45:00 27.2 C 14.31 g/m*3 27.2 C 9.7 km/h
467 30-05-2017 14:50:00 27.2 C 14.31 g/m*3 27.2 C 12.9 km/h
468 30-05-2017 14:55:00 27.1 C 14.49 g/m*3 27.1 C 8.1 km/h
469 30-05-2017 15:00:00 27.1 C 14.75 g/m*3 27.1 C 19.3 km/h
470 30-05-2017 15:05:00 27 C 15.18 g/m*3 27 C 19.3 km/h
471 30-05-2017 15:10:00 26.8 C 15.27 g/m*3 26.8 C 14.5 km/h
472 30-05-2017 15:15:00 26.6 C 15.1 g/m*3 26.6 C 14.5 km/h
473 30-05-2017 15:20:00 26.3 C 14.85 g/m*3 26.3 C 8.1 km/h
474 30-05-2017 15:25:00 26.1 C 14.93 g/m*3 26.1 C 6.4 km/h
475 30-05-2017 15:30:00 25.9 C 16.46 g/m*3 25.9 C 4.8 km/h
Sensor: Nr:Datum:Temp:Abs-Feuchte:Windchill:Wind:
Aussen-T/F 476 30-05-2017 15:35:00 25.7 C 17 g/m*3 25.7 C 0 km/h
477 30-05-2017 15:40:00 25.2 C 16.99 g/m*3 25.2 C 1.6 km/h
478 30-05-2017 15:45:00 24.5 C 15.44 g/m*3 24.5 C 8.1 km/h
479 30-05-2017 15:50:00 24.1 C 17.07 g/m*3 24.1 C 0 km/h
480 30-05-2017 15:55:00 23.8 C 17.21 g/m*3 23.8 C 0 km/h
481 30-05-2017 16:00:00 23.7 C 17.54 g/m*3 23.7 C 0 km/h
482 30-05-2017 16:05:00 23.6 C 16.38 g/m*3 23.6 C 3.2 km/h
483 30-05-2017 16:10:00 23.6 C 16.59 g/m*3 23.6 C 4.8 km/h
484 30-05-2017 16:15:00 23.7 C 16.47 g/m*3 23.7 C 3.2 km/h
485 30-05-2017 16:20:00 23.9 C 16.23 g/m*3 23.9 C 8.1 km/h
486 30-05-2017 16:25:00 24.3 C 15.27 g/m*3 24.3 C 12.9 km/h
487 30-05-2017 16:30:00 24.8 C 15.25 g/m*3 24.8 C 8.1 km/h
488 30-05-2017 16:35:00 25.1 C 15.05 g/m*3 25.1 C 14.5 km/h
489 30-05-2017 16:40:00 25.1 C 14.82 g/m*3 25.1 C 11.3 km/h
490 30-05-2017 16:45:00 24.9 C 14.65 g/m*3 24.9 C 9.7 km/h
491 30-05-2017 16:50:00 25 C 14.73 g/m*3 25 C 8.1 km/h
492 30-05-2017 16:55:00 25 C 14.5 g/m*3 25 C 9.7 km/h
493 30-05-2017 17:00:00 25 C 14.27 g/m*3 25 C 12.9 km/h
494 30-05-2017 17:05:00 24.9 C 14.19 g/m*3 24.9 C 12.9 km/h
495 30-05-2017 17:10:00 24.8 C 14.34 g/m*3 24.8 C 9.7 km/h
496 30-05-2017 17:15:00 24.7 C 14.26 g/m*3 24.7 C 9.7 km/h
497 30-05-2017 17:20:00 24.6 C 14.18 g/m*3 24.6 C 11.3 km/h
498 30-05-2017 17:25:00 24.6 C 14.18 g/m*3 24.6 C 6.4 km/h
499 30-05-2017 17:30:00 24.7 C 14.03 g/m*3 24.7 C 4.8 km/h
500 30-05-2017 17:35:00 24.5 C 14.32 g/m*3 24.5 C 3.2 km/h
Sensor: Nr:Datum:Temp:Abs-Feuchte:Windchill:Wind:
Aussen-T/F 501 30-05-2017 17:40:00 24.3 C 14.16 g/m*3 24.3 C 0 km/h
502 30-05-2017 17:45:00 24.1 C 14 g/m*3 24.1 C 9.7 km/h
503 30-05-2017 17:50:00 23.7 C 13.69 g/m*3 23.7 C 12.9 km/h
504 30-05-2017 17:55:00 23.3 C 13.59 g/m*3 23.3 C 16.1 km/h
505 30-05-2017 18:00:00 23.2 C 13.72 g/m*3 23.2 C 4.8 km/h
506 30-05-2017 18:05:00 23.2 C 14.34 g/m*3 23.2 C 0 km/h
507 30-05-2017 18:10:00 23.2 C 14.34 g/m*3 23.2 C 1.6 km/h
508 30-05-2017 18:15:00 23.2 C 14.76 g/m*3 23.2 C 0 km/h
509 30-05-2017 18:20:00 23.2 C 14.55 g/m*3 23.2 C 1.6 km/h
510 30-05-2017 18:25:00 23.6 C 14.89 g/m*3 23.6 C 4.8 km/h
511 30-05-2017 18:30:00 24.3 C 15.05 g/m*3 24.3 C 8.1 km/h
512 30-05-2017 18:35:00 24.9 C 14.65 g/m*3 24.9 C 4.8 km/h
513 30-05-2017 18:40:00 25.2 C 15.36 g/m*3 25.2 C 1.6 km/h
514 30-05-2017 18:45:00 25.3 C 15.45 g/m*3 25.3 C 0 km/h
515 30-05-2017 18:50:00 25.6 C 16.19 g/m*3 25.6 C 1.6 km/h
516 30-05-2017 18:55:00 25.7 C 16.04 g/m*3 25.7 C 1.6 km/h
517 30-05-2017 19:00:00 25.9 C 15.25 g/m*3 25.9 C 3.2 km/h
518 30-05-2017 19:05:00 25.9 C 15.49 g/m*3 25.9 C 3.2 km/h
519 30-05-2017 19:10:00 25.8 C 16.13 g/m*3 25.8 C 0 km/h
520 30-05-2017 19:15:00 25.5 C 16.1 g/m*3 25.5 C 0 km/h
521 30-05-2017 19:20:00 25.4 C 15.07 g/m*3 25.4 C 3.2 km/h
522 30-05-2017 19:25:00 25.4 C 15.07 g/m*3 25.4 C 3.2 km/h
523 30-05-2017 19:30:00 25.4 C 15.07 g/m*3 25.4 C 8.1 km/h
524 30-05-2017 19:35:00 25.3 C 15.22 g/m*3 25.3 C 1.6 km/h
525 30-05-2017 19:40:00 25.1 C 14.82 g/m*3 25.1 C 3.2 km/h
Sensor: Nr:Datum:Temp:Abs-Feuchte:Windchill:Wind:
Aussen-T/F 526 30-05-2017 19:45:00 24.9 C 15.34 g/m*3 24.9 C 4.8 km/h
527 30-05-2017 19:50:00 24.5 C 15.44 g/m*3 24.5 C 6.4 km/h
528 30-05-2017 19:55:00 24.3 C 15.49 g/m*3 24.3 C 3.2 km/h
529 30-05-2017 20:00:00 24 C 14.79 g/m*3 24 C 4.8 km/h
530 30-05-2017 20:05:00 23.8 C 14.63 g/m*3 23.8 C 6.4 km/h
531 30-05-2017 20:10:00 23.7 C 14.76 g/m*3 23.7 C 4.8 km/h
532 30-05-2017 20:15:00 23.7 C 15.19 g/m*3 23.7 C 0 km/h
533 30-05-2017 20:20:00 23.6 C 15.31 g/m*3 23.6 C 0 km/h
534 30-05-2017 20:25:00 23.4 C 15.56 g/m*3 23.4 C 0 km/h
535 30-05-2017 20:30:00 23.2 C 14.55 g/m*3 23.2 C 4.8 km/h
536 30-05-2017 20:35:00 23.1 C 14.26 g/m*3 23.1 C 8.1 km/h
537 30-05-2017 20:40:00 23.1 C 14.26 g/m*3 23.1 C 4.8 km/h
538 30-05-2017 20:45:00 23 C 13.98 g/m*3 23 C 8.1 km/h
539 30-05-2017 20:50:00 22.9 C 13.69 g/m*3 22.9 C 6.4 km/h
540 30-05-2017 20:55:00 22.9 C 13.49 g/m*3 22.9 C 11.3 km/h
541 30-05-2017 21:00:00 22.8 C 13.41 g/m*3 22.8 C 6.4 km/h
542 30-05-2017 21:05:00 22.8 C 13.61 g/m*3 22.8 C 4.8 km/h
543 30-05-2017 21:10:00 22.7 C 13.54 g/m*3 22.7 C 12.9 km/h
544 30-05-2017 21:15:00 22.6 C 13.26 g/m*3 22.6 C 8.1 km/h
545 30-05-2017 21:20:00 22.4 C 13.11 g/m*3 22.4 C 3.2 km/h
546 30-05-2017 21:25:00 22.3 C 13.03 g/m*3 22.3 C 8.1 km/h
547 30-05-2017 21:30:00 22.3 C 13.03 g/m*3 22.3 C 9.7 km/h
548 30-05-2017 21:35:00 22.2 C 12.96 g/m*3 22.2 C 6.4 km/h
549 30-05-2017 21:40:00 22.1 C 13.08 g/m*3 22.1 C 4.8 km/h
550 30-05-2017 21:45:00 21.9 C 12.74 g/m*3 21.9 C 8.1 km/h
Sensor: Nr:Datum:Temp:Abs-Feuchte:Windchill:Wind:
Aussen-T/F 551 30-05-2017 21:50:00 21.8 C 12.66 g/m*3 21.8 C 8.1 km/h
552 30-05-2017 21:55:00 21.6 C 12.52 g/m*3 21.6 C 8.1 km/h
553 30-05-2017 22:00:00 21.5 C 12.45 g/m*3 21.5 C 9.7 km/h
554 30-05-2017 22:05:00 21.3 C 12.49 g/m*3 21.3 C 6.4 km/h
555 30-05-2017 22:10:00 21.2 C 12.42 g/m*3 21.2 C 12.9 km/h
556 30-05-2017 22:15:00 21 C 12.27 g/m*3 21 C 11.3 km/h
557 30-05-2017 22:20:00 20.8 C 12.13 g/m*3 20.8 C 11.3 km/h
558 30-05-2017 22:25:00 20.7 C 12.24 g/m*3 20.7 C 11.3 km/h
559 30-05-2017 22:30:00 20.6 C 12.17 g/m*3 20.6 C 14.5 km/h
560 30-05-2017 22:35:00 20.4 C 12.03 g/m*3 20.4 C 11.3 km/h
561 30-05-2017 22:40:00 20.3 C 11.96 g/m*3 20.3 C 12.9 km/h
562 30-05-2017 22:45:00 20.2 C 12.06 g/m*3 20.2 C 8.1 km/h
563 30-05-2017 22:50:00 20.1 C 11.99 g/m*3 20.1 C 6.4 km/h
564 30-05-2017 22:55:00 20 C 11.92 g/m*3 20 C 8.1 km/h
565 30-05-2017 23:00:00 19.9 C 11.85 g/m*3 19.9 C 9.7 km/h
566 30-05-2017 23:05:00 19.8 C 11.79 g/m*3 19.8 C 8.1 km/h
567 30-05-2017 23:10:00 19.7 C 11.89 g/m*3 19.7 C 6.4 km/h
568 30-05-2017 23:15:00 19.6 C 11.82 g/m*3 19.6 C 6.4 km/h
569 30-05-2017 23:20:00 19.5 C 11.75 g/m*3 19.5 C 4.8 km/h
570 30-05-2017 23:25:00 19.4 C 11.51 g/m*3 19.4 C 12.9 km/h
571 30-05-2017 23:30:00 19.3 C 11.61 g/m*3 19.3 C 4.8 km/h
572 30-05-2017 23:35:00 19.2 C 11.38 g/m*3 19.2 C 4.8 km/h
573 30-05-2017 23:40:00 19.1 C 11.47 g/m*3 19.1 C 1.6 km/h
574 30-05-2017 23:45:00 18.9 C 11.34 g/m*3 18.9 C 1.6 km/h
575 30-05-2017 23:50:00 18.8 C 11.6 g/m*3 18.8 C 4.8 km/h
Sensor: Nr:Datum:Temp:Abs-Feuchte:Windchill:Wind:
Aussen-T/F 576 30-05-2017 23:55:00 18.6 C 11.3 g/m*3 18.6 C 4.8 km/h
577 31-05-2017 00:00:00 18.4 C 11.17 g/m*3 18.4 C 4.8 km/h
578 31-05-2017 00:05:00 18.2 C 11.04 g/m*3 18.2 C 6.4 km/h
579 31-05-2017 00:10:00 18.2 C 11.04 g/m*3 18.2 C 8.1 km/h
580 31-05-2017 00:15:00 18.2 C 11.04 g/m*3 18.2 C 6.4 km/h
581 31-05-2017 00:20:00 18.2 C 11.04 g/m*3 18.2 C 11.3 km/h
582 31-05-2017 00:25:00 18.1 C 10.97 g/m*3 18.1 C 11.3 km/h
583 31-05-2017 00:30:00 18.1 C 10.97 g/m*3 18.1 C 3.2 km/h
584 31-05-2017 00:35:00 18 C 10.75 g/m*3 18 C 6.4 km/h
585 31-05-2017 00:40:00 18 C 10.75 g/m*3 18 C 8.1 km/h
586 31-05-2017 00:45:00 18 C 10.75 g/m*3 18 C 3.2 km/h
587 31-05-2017 00:50:00 18 C 10.75 g/m*3 18 C 3.2 km/h
588 31-05-2017 00:55:00 17.9 C 10.84 g/m*3 17.9 C 3.2 km/h
589 31-05-2017 01:00:00 17.8 C 11.08 g/m*3 17.8 C 1.6 km/h
590 31-05-2017 01:05:00 17.7 C 10.71 g/m*3 17.7 C 3.2 km/h
591 31-05-2017 01:10:00 17.7 C 11.01 g/m*3 17.7 C 1.6 km/h
592 31-05-2017 01:15:00 17.6 C 10.65 g/m*3 17.6 C 8.1 km/h
593 31-05-2017 01:20:00 17.5 C 10.59 g/m*3 17.5 C 4.8 km/h
594 31-05-2017 01:25:00 17.5 C 10.59 g/m*3 17.5 C 4.8 km/h
595 31-05-2017 01:30:00 17.5 C 10.59 g/m*3 17.5 C 6.4 km/h
596 31-05-2017 01:35:00 17.6 C 10.95 g/m*3 17.6 C 1.6 km/h
597 31-05-2017 01:40:00 17.5 C 10.88 g/m*3 17.5 C 3.2 km/h
598 31-05-2017 01:45:00 17.4 C 10.67 g/m*3 17.4 C 1.6 km/h
599 31-05-2017 01:50:00 17.4 C 10.97 g/m*3 17.4 C 0 km/h
600 31-05-2017 01:55:00 17.3 C 10.75 g/m*3 17.3 C 3.2 km/h
Sensor: Nr:Datum:Temp:Abs-Feuchte:Windchill:Wind:
Aussen-T/F 601 31-05-2017 02:00:00 17.2 C 10.69 g/m*3 17.2 C 0 km/h
602 31-05-2017 02:05:00 17.1 C 10.77 g/m*3 17.1 C 0 km/h
603 31-05-2017 02:10:00 17 C 10.85 g/m*3 17 C 0 km/h
604 31-05-2017 02:15:00 16.8 C 10.87 g/m*3 16.8 C 0 km/h
605 31-05-2017 02:20:00 16.6 C 10.74 g/m*3 16.6 C 0 km/h
606 31-05-2017 02:25:00 16.4 C 10.61 g/m*3 16.4 C 0 km/h
607 31-05-2017 02:30:00 16.2 C 10.62 g/m*3 16.2 C 0 km/h
608 31-05-2017 02:35:00 15.9 C 10.43 g/m*3 15.9 C 0 km/h
609 31-05-2017 02:40:00 15.8 C 10.36 g/m*3 15.8 C 0 km/h
610 31-05-2017 02:45:00 15.6 C 10.37 g/m*3 15.6 C 0 km/h
611 31-05-2017 02:50:00 15.4 C 10.25 g/m*3 15.4 C 0 km/h
612 31-05-2017 02:55:00 15.3 C 10.19 g/m*3 15.3 C 0 km/h
613 31-05-2017 03:00:00 15.1 C 10.06 g/m*3 15.1 C 0 km/h
614 31-05-2017 03:05:00 15.1 C 10.06 g/m*3 15.1 C 0 km/h
615 31-05-2017 03:10:00 14.9 C 9.94 g/m*3 14.9 C 0 km/h
616 31-05-2017 03:15:00 14.8 C 9.88 g/m*3 14.8 C 0 km/h
617 31-05-2017 03:20:00 14.7 C 9.95 g/m*3 14.7 C 0 km/h
618 31-05-2017 03:25:00 14.6 C 9.89 g/m*3 14.6 C 0 km/h
619 31-05-2017 03:30:00 14.4 C 9.89 g/m*3 14.4 C 0 km/h
620 31-05-2017 03:35:00 14.3 C 9.83 g/m*3 14.3 C 0 km/h
621 31-05-2017 03:40:00 14.2 C 9.89 g/m*3 14.2 C 0 km/h
622 31-05-2017 03:45:00 14 C 9.89 g/m*3 14 C 0 km/h
623 31-05-2017 03:50:00 13.9 C 9.83 g/m*3 13.9 C 0 km/h
624 31-05-2017 03:55:00 13.8 C 9.89 g/m*3 13.8 C 0 km/h
625 31-05-2017 04:00:00 13.7 C 9.83 g/m*3 13.7 C 0 km/h
Sensor: Nr:Datum:Temp:Abs-Feuchte:Windchill:Wind:
Aussen-T/F 626 31-05-2017 04:05:00 13.6 C 9.89 g/m*3 13.6 C 0 km/h
627 31-05-2017 04:10:00 13.5 C 9.83 g/m*3 13.5 C 0 km/h
628 31-05-2017 04:15:00 13.3 C 9.7 g/m*3 13.3 C 0 km/h
629 31-05-2017 04:20:00 13.2 C 9.76 g/m*3 13.2 C 0 km/h
630 31-05-2017 04:25:00 13.1 C 9.7 g/m*3 13.1 C 0 km/h
631 31-05-2017 04:30:00 13.1 C 9.7 g/m*3 13.1 C 0 km/h
632 31-05-2017 04:35:00 12.9 C 9.69 g/m*3 12.9 C 0 km/h
633 31-05-2017 04:40:00 12.8 C 9.63 g/m*3 12.8 C 0 km/h
634 31-05-2017 04:45:00 12.8 C 9.63 g/m*3 12.8 C 1.6 km/h
635 31-05-2017 04:50:00 12.7 C 9.68 g/m*3 12.7 C 0 km/h
636 31-05-2017 04:55:00 12.7 C 9.68 g/m*3 12.7 C 1.6 km/h
637 31-05-2017 05:00:00 12.6 C 9.62 g/m*3 12.6 C 0 km/h
638 31-05-2017 05:05:00 12.6 C 9.62 g/m*3 12.6 C 0 km/h
639 31-05-2017 05:10:00 12.6 C 9.62 g/m*3 12.6 C 0 km/h
640 31-05-2017 05:15:00 12.5 C 9.57 g/m*3 12.5 C 0 km/h
641 31-05-2017 05:20:00 12.4 C 9.51 g/m*3 12.4 C 0 km/h
642 31-05-2017 05:25:00 12.4 C 9.62 g/m*3 12.4 C 0 km/h
643 31-05-2017 05:30:00 12.3 C 9.56 g/m*3 12.3 C 0 km/h
644 31-05-2017 05:35:00 12.3 C 9.56 g/m*3 12.3 C 0 km/h
645 31-05-2017 05:40:00 12.3 C 9.66 g/m*3 12.3 C 0 km/h
646 31-05-2017 05:45:00 12.2 C 9.6 g/m*3 12.2 C 0 km/h
647 31-05-2017 05:50:00 12.2 C 9.6 g/m*3 12.2 C 0 km/h
648 31-05-2017 05:55:00 12.1 C 9.54 g/m*3 12.1 C 0 km/h
649 31-05-2017 06:00:00 12.1 C 9.65 g/m*3 12.1 C 0 km/h
650 31-05-2017 06:05:00 12.2 C 9.71 g/m*3 12.2 C 0 km/h
Sensor: Nr:Datum:Temp:Abs-Feuchte:Windchill:Wind:
Aussen-T/F 651 31-05-2017 06:10:00 12.2 C 9.71 g/m*3 12.2 C 0 km/h
652 31-05-2017 06:15:00 12.1 C 9.65 g/m*3 12.1 C 0 km/h
653 31-05-2017 06:20:00 12.2 C 9.82 g/m*3 12.2 C 0 km/h
654 31-05-2017 06:25:00 12.2 C 9.82 g/m*3 12.2 C 0 km/h
655 31-05-2017 06:30:00 12.2 C 9.82 g/m*3 12.2 C 0 km/h
656 31-05-2017 06:35:00 12.3 C 9.88 g/m*3 12.3 C 0 km/h
657 31-05-2017 06:40:00 12.3 C 9.99 g/m*3 12.3 C 0 km/h
658 31-05-2017 06:45:00 12.4 C 10.05 g/m*3 12.4 C 8.1 km/h
659 31-05-2017 06:50:00 12.6 C 10.18 g/m*3 12.6 C 4.8 km/h
660 31-05-2017 06:55:00 12.7 C 10.24 g/m*3 12.7 C 4.8 km/h
661 31-05-2017 07:00:00 12.8 C 10.3 g/m*3 12.8 C 6.4 km/h
662 31-05-2017 07:05:00 12.8 C 10.19 g/m*3 12.8 C 3.2 km/h
663 31-05-2017 07:10:00 12.9 C 10.26 g/m*3 12.9 C 4.8 km/h
664 31-05-2017 07:15:00 12.9 C 10.26 g/m*3 12.9 C 1.6 km/h
665 31-05-2017 07:20:00 12.9 C 10.14 g/m*3 12.9 C 0 km/h
666 31-05-2017 07:25:00 12.9 C 10.14 g/m*3 12.9 C 0 km/h
667 31-05-2017 07:30:00 12.9 C 10.26 g/m*3 12.9 C 3.2 km/h
668 31-05-2017 07:35:00 13 C 10.32 g/m*3 13 C 1.6 km/h
669 31-05-2017 07:40:00 13.1 C 10.38 g/m*3 13.1 C 1.6 km/h
670 31-05-2017 07:45:00 13.2 C 10.45 g/m*3 13.2 C 3.2 km/h
671 31-05-2017 07:50:00 13.3 C 10.51 g/m*3 13.3 C 0 km/h
672 31-05-2017 07:55:00 13.3 C 10.51 g/m*3 13.3 C 0 km/h
673 31-05-2017 08:00:00 13.4 C 10.58 g/m*3 13.4 C 1.6 km/h
674 31-05-2017 08:05:00 13.5 C 10.64 g/m*3 13.5 C 0 km/h
675 31-05-2017 08:10:00 13.6 C 10.71 g/m*3 13.6 C 1.6 km/h
Sensor: Nr:Datum:Temp:Abs-Feuchte:Windchill:Wind:
Aussen-T/F 676 31-05-2017 08:15:00 13.7 C 10.78 g/m*3 13.7 C 6.4 km/h
677 31-05-2017 08:20:00 13.9 C 10.79 g/m*3 13.9 C 6.4 km/h
678 31-05-2017 08:25:00 14.1 C 10.8 g/m*3 14.1 C 6.4 km/h
679 31-05-2017 08:30:00 14.3 C 10.93 g/m*3 14.3 C 6.4 km/h
680 31-05-2017 08:35:00 14.4 C 11 g/m*3 14.4 C 0 km/h
681 31-05-2017 08:40:00 14.6 C 10.89 g/m*3 14.6 C 3.2 km/h
682 31-05-2017 08:45:00 14.8 C 11.15 g/m*3 14.8 C 0 km/h
683 31-05-2017 08:50:00 14.8 C 11.15 g/m*3 14.8 C 0 km/h
684 31-05-2017 08:55:00 14.9 C 10.96 g/m*3 14.9 C 3.2 km/h
685 31-05-2017 09:00:00 15.2 C 11.03 g/m*3 15.2 C 1.6 km/h
686 31-05-2017 09:05:00 15.3 C 11.23 g/m*3 15.3 C 0 km/h
687 31-05-2017 09:10:00 15.4 C 11.3 g/m*3 15.4 C 0 km/h
688 31-05-2017 09:15:00 15.5 C 11.24 g/m*3 15.5 C 0 km/h
689 31-05-2017 09:20:00 15.7 C 11.11 g/m*3 15.7 C 1.6 km/h
690 31-05-2017 09:25:00 15.8 C 11.04 g/m*3 15.8 C 3.2 km/h
691 31-05-2017 09:30:00 16.1 C 11.1 g/m*3 16.1 C 8.1 km/h
692 31-05-2017 09:35:00 16.4 C 11.17 g/m*3 16.4 C 8.1 km/h
693 31-05-2017 09:40:00 16.7 C 11.23 g/m*3 16.7 C 1.6 km/h
694 31-05-2017 09:45:00 16.8 C 11.15 g/m*3 16.8 C 1.6 km/h
695 31-05-2017 09:50:00 16.9 C 11.36 g/m*3 16.9 C 0 km/h
696 31-05-2017 09:55:00 17.1 C 11.06 g/m*3 17.1 C 4.8 km/h
697 31-05-2017 10:00:00 17.2 C 11.13 g/m*3 17.2 C 4.8 km/h
698 31-05-2017 10:05:00 17.5 C 11.33 g/m*3 17.5 C 9.7 km/h
699 31-05-2017 10:10:00 17.7 C 11.32 g/m*3 17.7 C 6.4 km/h
700 31-05-2017 10:15:00 17.9 C 11.3 g/m*3 17.9 C 4.8 km/h
Sensor: Nr:Datum:Temp:Abs-Feuchte:Windchill:Wind:
Aussen-T/F 701 31-05-2017 10:20:00 18.2 C 11.35 g/m*3 18.2 C 4.8 km/h
702 31-05-2017 10:25:00 18.6 C 11.46 g/m*3 18.6 C 1.6 km/h
703 31-05-2017 10:30:00 18.9 C 11.83 g/m*3 18.9 C 4.8 km/h
704 31-05-2017 10:35:00 19.1 C 11.47 g/m*3 19.1 C 8.1 km/h
705 31-05-2017 10:40:00 19.2 C 11.21 g/m*3 19.2 C 8.1 km/h
706 31-05-2017 10:45:00 19.1 C 10.98 g/m*3 19.1 C 9.7 km/h
707 31-05-2017 10:50:00 19.1 C 11.15 g/m*3 19.1 C 6.4 km/h
708 31-05-2017 10:55:00 19.2 C 11.05 g/m*3 19.2 C 11.3 km/h
709 31-05-2017 11:00:00 19.2 C 11.21 g/m*3 19.2 C 9.7 km/h
710 31-05-2017 11:05:00 19.3 C 11.28 g/m*3 19.3 C 8.1 km/h
711 31-05-2017 11:10:00 19.4 C 11.01 g/m*3 19.4 C 8.1 km/h
712 31-05-2017 11:15:00 19.6 C 11.14 g/m*3 19.6 C 8.1 km/h
713 31-05-2017 11:20:00 19.8 C 11.1 g/m*3 19.8 C 6.4 km/h
714 31-05-2017 11:25:00 19.8 C 11.27 g/m*3 19.8 C 4.8 km/h
715 31-05-2017 11:30:00 19.7 C 11.04 g/m*3 19.7 C 9.7 km/h
716 31-05-2017 11:35:00 19.7 C 10.87 g/m*3 19.7 C 3.2 km/h
717 31-05-2017 11:40:00 19.8 C 10.76 g/m*3 19.8 C 3.2 km/h
718 31-05-2017 11:45:00 20.1 C 11.3 g/m*3 20.1 C 6.4 km/h
719 31-05-2017 11:50:00 20.2 C 11.02 g/m*3 20.2 C 8.1 km/h
720 31-05-2017 11:55:00 20.3 C 11.26 g/m*3 20.3 C 6.4 km/h
721 31-05-2017 12:00:00 20.3 C 11.08 g/m*3 20.3 C 9.7 km/h
722 31-05-2017 12:05:00 20.3 C 10.73 g/m*3 20.3 C 4.8 km/h
723 31-05-2017 12:10:00 20.5 C 11.21 g/m*3 20.5 C 4.8 km/h
724 31-05-2017 12:15:00 20.7 C 11.34 g/m*3 20.7 C 6.4 km/h
725 31-05-2017 12:20:00 20.6 C 11.1 g/m*3 20.6 C 3.2 km/h
Sensor: Nr:Datum:Temp:Abs-Feuchte:Windchill:Wind:
Aussen-T/F 726 31-05-2017 12:25:00 20.7 C 11.16 g/m*3 20.7 C 9.7 km/h
727 31-05-2017 12:30:00 20.7 C 10.98 g/m*3 20.7 C 8.1 km/h
728 31-05-2017 12:35:00 20.7 C 10.98 g/m*3 20.7 C 6.4 km/h
729 31-05-2017 12:40:00 20.6 C 10.92 g/m*3 20.6 C 12.9 km/h
730 31-05-2017 12:45:00 20.6 C 10.92 g/m*3 20.6 C 4.8 km/h
731 31-05-2017 12:50:00 20.7 C 11.16 g/m*3 20.7 C 6.4 km/h
732 31-05-2017 12:55:00 20.9 C 11.29 g/m*3 20.9 C 6.4 km/h
733 31-05-2017 13:00:00 21.2 C 11.12 g/m*3 21.2 C 12.9 km/h
734 31-05-2017 13:05:00 21.3 C 11.18 g/m*3 21.3 C 6.4 km/h
735 31-05-2017 13:10:00 21.3 C 11.18 g/m*3 21.3 C 6.4 km/h
736 31-05-2017 13:15:00 21.4 C 11.06 g/m*3 21.4 C 8.1 km/h
737 31-05-2017 13:20:00 21.5 C 11.69 g/m*3 21.5 C 4.8 km/h
738 31-05-2017 13:25:00 21.7 C 11.25 g/m*3 21.7 C 6.4 km/h
739 31-05-2017 13:30:00 21.7 C 10.68 g/m*3 21.7 C 11.3 km/h
740 31-05-2017 13:35:00 21.6 C 10.81 g/m*3 21.6 C 8.1 km/h
741 31-05-2017 13:40:00 21.5 C 10.94 g/m*3 21.5 C 3.2 km/h
742 31-05-2017 13:45:00 21.5 C 10.75 g/m*3 21.5 C 6.4 km/h
743 31-05-2017 13:50:00 21.5 C 10.75 g/m*3 21.5 C 9.7 km/h
744 31-05-2017 13:55:00 21.6 C 10.81 g/m*3 21.6 C 8.1 km/h
745 31-05-2017 14:00:00 21.7 C 10.68 g/m*3 21.7 C 9.7 km/h
746 31-05-2017 14:05:00 21.8 C 10.55 g/m*3 21.8 C 6.4 km/h
747 31-05-2017 14:10:00 22.1 C 10.93 g/m*3 22.1 C 16.1 km/h
748 31-05-2017 14:15:00 22.3 C 10.66 g/m*3 22.3 C 16.1 km/h
749 31-05-2017 14:20:00 22.6 C 10.85 g/m*3 22.6 C 9.7 km/h
750 31-05-2017 14:25:00 22.6 C 10.85 g/m*3 22.6 C 8.1 km/h
Sensor: Nr:Datum:Temp:Abs-Feuchte:Windchill:Wind:
Aussen-T/F 751 31-05-2017 14:30:00 22.6 C 10.65 g/m*3 22.6 C 4.8 km/h
752 31-05-2017 14:35:00 22.7 C 10.71 g/m*3 22.7 C 4.8 km/h
753 31-05-2017 14:40:00 22.8 C 11.18 g/m*3 22.8 C 11.3 km/h
754 31-05-2017 14:45:00 23.1 C 10.75 g/m*3 23.1 C 14.5 km/h
755 31-05-2017 14:50:00 22.8 C 10.77 g/m*3 22.8 C 8.1 km/h
756 31-05-2017 14:55:00 22.7 C 10.51 g/m*3 22.7 C 11.3 km/h
757 31-05-2017 15:00:00 22.5 C 10.59 g/m*3 22.5 C 6.4 km/h
758 31-05-2017 15:05:00 22.7 C 11.11 g/m*3 22.7 C 6.4 km/h
759 31-05-2017 15:10:00 23 C 10.89 g/m*3 23 C 6.4 km/h
760 31-05-2017 15:15:00 23.3 C 10.45 g/m*3 23.3 C 11.3 km/h
761 31-05-2017 15:20:00 23.2 C 10.6 g/m*3 23.2 C 8.1 km/h
762 31-05-2017 15:25:00 23.3 C 11.08 g/m*3 23.3 C 4.8 km/h
763 31-05-2017 15:30:00 23.8 C 11.4 g/m*3 23.8 C 8.1 km/h
764 31-05-2017 15:35:00 24.4 C 11.13 g/m*3 24.4 C 6.4 km/h
765 31-05-2017 15:40:00 24.4 C 10.68 g/m*3 24.4 C 9.7 km/h
766 31-05-2017 15:45:00 24.2 C 10.78 g/m*3 24.2 C 8.1 km/h
767 31-05-2017 15:50:00 24.3 C 10.62 g/m*3 24.3 C 12.9 km/h
768 31-05-2017 15:55:00 24.3 C 10.62 g/m*3 24.3 C 11.3 km/h
769 31-05-2017 16:00:00 24.2 C 10.34 g/m*3 24.2 C 8.1 km/h
770 31-05-2017 16:05:00 24 C 10.23 g/m*3 24 C 6.4 km/h
771 31-05-2017 16:10:00 24.1 C 10.5 g/m*3 24.1 C 11.3 km/h
772 31-05-2017 16:15:00 24.2 C 10.78 g/m*3 24.2 C 11.3 km/h
773 31-05-2017 16:20:00 24.8 C 10.47 g/m*3 24.8 C 8.1 km/h
774 31-05-2017 16:25:00 25.3 C 10.53 g/m*3 25.3 C 8.1 km/h
775 31-05-2017 16:30:00 25.4 C 10.12 g/m*3 25.4 C 12.9 km/h
Sensor: Nr:Datum:Temp:Abs-Feuchte:Windchill:Wind:
Aussen-T/F 776 31-05-2017 16:35:00 25.5 C 10.89 g/m*3 25.5 C 9.7 km/h
777 31-05-2017 16:40:00 25.6 C 10.24 g/m*3 25.6 C 4.8 km/h
778 31-05-2017 16:45:00 25.4 C 10.59 g/m*3 25.4 C 4.8 km/h
779 31-05-2017 16:50:00 24.9 C 9.84 g/m*3 24.9 C 11.3 km/h
780 31-05-2017 16:55:00 24.8 C 10.02 g/m*3 24.8 C 8.1 km/h
781 31-05-2017 17:00:00 24.4 C 9.57 g/m*3 24.4 C 11.3 km/h
782 31-05-2017 17:05:00 24.2 C 9.68 g/m*3 24.2 C 6.4 km/h
783 31-05-2017 17:10:00 24.1 C 9.63 g/m*3 24.1 C 4.8 km/h
784 31-05-2017 17:15:00 24.1 C 9.85 g/m*3 24.1 C 4.8 km/h
785 31-05-2017 17:20:00 24.1 C 9.85 g/m*3 24.1 C 6.4 km/h
786 31-05-2017 17:25:00 24.1 C 9.85 g/m*3 24.1 C 9.7 km/h
787 31-05-2017 17:30:00 24.2 C 9.9 g/m*3 24.2 C 4.8 km/h
788 31-05-2017 17:35:00 24.6 C 10.13 g/m*3 24.6 C 8.1 km/h
789 31-05-2017 17:40:00 24.8 C 10.02 g/m*3 24.8 C 11.3 km/h
790 31-05-2017 17:45:00 24.8 C 10.02 g/m*3 24.8 C 6.4 km/h
791 31-05-2017 17:50:00 24.8 C 10.24 g/m*3 24.8 C 4.8 km/h
792 31-05-2017 17:55:00 25 C 10.13 g/m*3 25 C 4.8 km/h
793 31-05-2017 18:00:00 25.3 C 10.53 g/m*3 25.3 C 4.8 km/h
794 31-05-2017 18:05:00 25.8 C 10.35 g/m*3 25.8 C 9.7 km/h
795 31-05-2017 18:10:00 25.9 C 9.93 g/m*3 25.9 C 12.9 km/h
796 31-05-2017 18:15:00 25.4 C 9.89 g/m*3 25.4 C 6.4 km/h
797 31-05-2017 18:20:00 25 C 10.13 g/m*3 25 C 4.8 km/h
798 31-05-2017 18:25:00 24.6 C 9.9 g/m*3 24.6 C 6.4 km/h
799 31-05-2017 18:30:00 24.3 C 9.96 g/m*3 24.3 C 8.1 km/h
800 31-05-2017 18:35:00 24.2 C 10.12 g/m*3 24.2 C 4.8 km/h
Sensor: Nr:Datum:Temp:Abs-Feuchte:Windchill:Wind:
Aussen-T/F 801 31-05-2017 18:40:00 24.1 C 10.06 g/m*3 24.1 C 4.8 km/h
802 31-05-2017 18:45:00 24 C 9.79 g/m*3 24 C 1.6 km/h
803 31-05-2017 18:50:00 24 C 10.23 g/m*3 24 C 1.6 km/h
804 31-05-2017 18:55:00 23.9 C 9.95 g/m*3 23.9 C 4.8 km/h
805 31-05-2017 19:00:00 23.9 C 9.95 g/m*3 23.9 C 8.1 km/h
806 31-05-2017 19:05:00 23.9 C 9.95 g/m*3 23.9 C 6.4 km/h
807 31-05-2017 19:10:00 24 C 10.01 g/m*3 24 C 6.4 km/h
808 31-05-2017 19:15:00 23.9 C 10.17 g/m*3 23.9 C 4.8 km/h
809 31-05-2017 19:20:00 23.8 C 10.33 g/m*3 23.8 C 4.8 km/h
810 31-05-2017 19:25:00 23.6 C 10.21 g/m*3 23.6 C 3.2 km/h
811 31-05-2017 19:30:00 23.6 C 10 g/m*3 23.6 C 4.8 km/h
812 31-05-2017 19:35:00 23.7 C 10.27 g/m*3 23.7 C 3.2 km/h
813 31-05-2017 19:40:00 23.8 C 9.9 g/m*3 23.8 C 4.8 km/h
814 31-05-2017 19:45:00 23.9 C 10.17 g/m*3 23.9 C 4.8 km/h
815 31-05-2017 19:50:00 23.8 C 9.9 g/m*3 23.8 C 8.1 km/h
816 31-05-2017 19:55:00 23.7 C 10.27 g/m*3 23.7 C 6.4 km/h
817 31-05-2017 20:00:00 23.4 C 10.3 g/m*3 23.4 C 8.1 km/h
818 31-05-2017 20:05:00 23.3 C 10.45 g/m*3 23.3 C 4.8 km/h
819 31-05-2017 20:10:00 23.2 C 10.6 g/m*3 23.2 C 4.8 km/h
820 31-05-2017 20:15:00 23.1 C 10.75 g/m*3 23.1 C 3.2 km/h
821 31-05-2017 20:20:00 23.1 C 10.96 g/m*3 23.1 C 3.2 km/h
822 31-05-2017 20:25:00 22.9 C 10.63 g/m*3 22.9 C 6.4 km/h
823 31-05-2017 20:30:00 22.8 C 11.79 g/m*3 22.8 C 1.6 km/h
824 31-05-2017 20:35:00 22.7 C 11.92 g/m*3 22.7 C 3.2 km/h
825 31-05-2017 20:40:00 22.4 C 12.11 g/m*3 22.4 C 0 km/h
Sensor: Nr:Datum:Temp:Abs-Feuchte:Windchill:Wind:
Aussen-T/F 826 31-05-2017 20:45:00 22.1 C 12.1 g/m*3 22.1 C 0 km/h
827 31-05-2017 20:50:00 21.8 C 12.09 g/m*3 21.8 C 0 km/h
828 31-05-2017 20:55:00 21.4 C 12 g/m*3 21.4 C 0 km/h
829 31-05-2017 21:00:00 21 C 11.91 g/m*3 21 C 0 km/h
830 31-05-2017 21:05:00 20.6 C 11.81 g/m*3 20.6 C 0 km/h
831 31-05-2017 21:10:00 20.2 C 11.71 g/m*3 20.2 C 0 km/h
832 31-05-2017 21:15:00 19.9 C 11.51 g/m*3 19.9 C 0 km/h
833 31-05-2017 21:20:00 19.6 C 11.48 g/m*3 19.6 C 1.6 km/h
834 31-05-2017 21:25:00 19.3 C 11.44 g/m*3 19.3 C 1.6 km/h
835 31-05-2017 21:30:00 19.1 C 11.31 g/m*3 19.1 C 0 km/h
836 31-05-2017 21:35:00 18.8 C 11.11 g/m*3 18.8 C 1.6 km/h
837 31-05-2017 21:40:00 18.7 C 11.21 g/m*3 18.7 C 1.6 km/h
838 31-05-2017 21:45:00 18.5 C 11.08 g/m*3 18.5 C 0 km/h
839 31-05-2017 21:50:00 18.3 C 10.94 g/m*3 18.3 C 0 km/h
840 31-05-2017 21:55:00 18.2 C 10.72 g/m*3 18.2 C 1.6 km/h
841 31-05-2017 22:00:00 18.1 C 10.82 g/m*3 18.1 C 1.6 km/h
842 31-05-2017 22:05:00 18 C 10.75 g/m*3 18 C 0 km/h
843 31-05-2017 22:10:00 17.9 C 10.69 g/m*3 17.9 C 1.6 km/h
844 31-05-2017 22:15:00 17.8 C 10.62 g/m*3 17.8 C 0 km/h
845 31-05-2017 22:20:00 17.8 C 10.78 g/m*3 17.8 C 0 km/h
846 31-05-2017 22:25:00 17.7 C 10.71 g/m*3 17.7 C 0 km/h
847 31-05-2017 22:30:00 17.7 C 10.86 g/m*3 17.7 C 0 km/h
848 31-05-2017 22:35:00 17.6 C 10.95 g/m*3 17.6 C 0 km/h
849 31-05-2017 22:40:00 17.4 C 10.97 g/m*3 17.4 C 0 km/h
850 31-05-2017 22:45:00 17.2 C 10.98 g/m*3 17.2 C 0 km/h
Sensor: Nr:Datum:Temp:Abs-Feuchte:Windchill:Wind:
Aussen-T/F 851 31-05-2017 22:50:00 17.1 C 10.92 g/m*3 17.1 C 0 km/h
852 31-05-2017 22:55:00 16.8 C 10.87 g/m*3 16.8 C 0 km/h
853 31-05-2017 23:00:00 16.4 C 10.75 g/m*3 16.4 C 0 km/h
854 31-05-2017 23:05:00 16.2 C 10.62 g/m*3 16.2 C 0 km/h
855 31-05-2017 23:10:00 16.1 C 10.69 g/m*3 16.1 C 0 km/h
856 31-05-2017 23:15:00 15.9 C 10.7 g/m*3 15.9 C 0 km/h
857 31-05-2017 23:20:00 15.8 C 10.63 g/m*3 15.8 C 0 km/h
858 31-05-2017 23:25:00 15.6 C 10.64 g/m*3 15.6 C 0 km/h
859 31-05-2017 23:30:00 15.3 C 10.45 g/m*3 15.3 C 0 km/h
860 31-05-2017 23:35:00 15.2 C 10.51 g/m*3 15.2 C 0 km/h
861 31-05-2017 23:40:00 15.2 C 10.51 g/m*3 15.2 C 0 km/h
862 31-05-2017 23:45:00 15.1 C 10.58 g/m*3 15.1 C 0 km/h
863 31-05-2017 23:50:00 14.9 C 10.45 g/m*3 14.9 C 0 km/h
864 31-05-2017 23:55:00 14.8 C 10.51 g/m*3 14.8 C 0 km/h
865 01-06-2017 00:00:00 14.7 C 10.45 g/m*3 14.7 C 0 km/h
866 01-06-2017 00:05:00 14.7 C 10.45 g/m*3 14.7 C 0 km/h
867 01-06-2017 00:10:00 14.7 C 10.58 g/m*3 14.7 C 0 km/h
868 01-06-2017 00:15:00 14.7 C 10.58 g/m*3 14.7 C 0 km/h
869 01-06-2017 00:20:00 14.7 C 10.58 g/m*3 14.7 C 0 km/h
870 01-06-2017 00:25:00 14.7 C 10.58 g/m*3 14.7 C 0 km/h
871 01-06-2017 00:30:00 14.6 C 10.51 g/m*3 14.6 C 0 km/h
872 01-06-2017 00:35:00 14.5 C 10.45 g/m*3 14.5 C 0 km/h
873 01-06-2017 00:40:00 14.4 C 10.51 g/m*3 14.4 C 0 km/h
874 01-06-2017 00:45:00 14.3 C 10.44 g/m*3 14.3 C 0 km/h
875 01-06-2017 00:50:00 14.2 C 10.38 g/m*3 14.2 C 0 km/h
Sensor: Nr:Datum:Temp:Abs-Feuchte:Windchill:Wind:
Aussen-T/F 876 01-06-2017 00:55:00 14.1 C 10.44 g/m*3 14.1 C 0 km/h
877 01-06-2017 01:00:00 13.9 C 10.31 g/m*3 13.9 C 0 km/h
878 01-06-2017 01:05:00 13.9 C 10.31 g/m*3 13.9 C 0 km/h
879 01-06-2017 01:10:00 13.8 C 10.37 g/m*3 13.8 C 0 km/h
880 01-06-2017 01:15:00 13.8 C 10.37 g/m*3 13.8 C 0 km/h
881 01-06-2017 01:20:00 13.7 C 10.3 g/m*3 13.7 C 0 km/h
882 01-06-2017 01:25:00 13.7 C 10.3 g/m*3 13.7 C 0 km/h
883 01-06-2017 01:30:00 13.6 C 10.36 g/m*3 13.6 C 0 km/h
884 01-06-2017 01:35:00 13.5 C 10.29 g/m*3 13.5 C 0 km/h
885 01-06-2017 01:40:00 13.4 C 10.23 g/m*3 13.4 C 0 km/h
886 01-06-2017 01:45:00 13.4 C 10.35 g/m*3 13.4 C 0 km/h
887 01-06-2017 01:50:00 13.3 C 10.28 g/m*3 13.3 C 0 km/h
888 01-06-2017 01:55:00 13.3 C 10.28 g/m*3 13.3 C 0 km/h
889 01-06-2017 02:00:00 13.3 C 10.28 g/m*3 13.3 C 0 km/h
890 01-06-2017 02:05:00 13.3 C 10.28 g/m*3 13.3 C 0 km/h
891 01-06-2017 02:10:00 13.2 C 10.22 g/m*3 13.2 C 0 km/h
892 01-06-2017 02:15:00 13.2 C 10.33 g/m*3 13.2 C 0 km/h
893 01-06-2017 02:20:00 13.2 C 10.33 g/m*3 13.2 C 0 km/h
894 01-06-2017 02:25:00 13.2 C 10.33 g/m*3 13.2 C 0 km/h
895 01-06-2017 02:30:00 13.1 C 10.27 g/m*3 13.1 C 0 km/h
896 01-06-2017 02:35:00 13.1 C 10.27 g/m*3 13.1 C 0 km/h
897 01-06-2017 02:40:00 13 C 10.21 g/m*3 13 C 0 km/h
898 01-06-2017 02:45:00 12.9 C 10.14 g/m*3 12.9 C 0 km/h
899 01-06-2017 02:50:00 12.9 C 10.26 g/m*3 12.9 C 1.6 km/h
900 01-06-2017 02:55:00 12.9 C 10.26 g/m*3 12.9 C 0 km/h
Sensor: Nr:Datum:Temp:Abs-Feuchte:Windchill:Wind:
Aussen-T/F 901 01-06-2017 03:00:00 12.9 C 10.26 g/m*3 12.9 C 0 km/h
902 01-06-2017 03:05:00 12.8 C 10.19 g/m*3 12.8 C 0 km/h
903 01-06-2017 03:10:00 12.8 C 10.19 g/m*3 12.8 C 0 km/h
904 01-06-2017 03:15:00 12.8 C 10.19 g/m*3 12.8 C 0 km/h
905 01-06-2017 03:20:00 12.7 C 10.13 g/m*3 12.7 C 0 km/h
906 01-06-2017 03:25:00 12.7 C 10.13 g/m*3 12.7 C 0 km/h
907 01-06-2017 03:30:00 12.6 C 10.07 g/m*3 12.6 C 0 km/h
908 01-06-2017 03:35:00 12.6 C 10.07 g/m*3 12.6 C 0 km/h
909 01-06-2017 03:40:00 12.6 C 10.07 g/m*3 12.6 C 0 km/h
910 01-06-2017 03:45:00 12.5 C 10 g/m*3 12.5 C 0 km/h
911 01-06-2017 03:50:00 12.4 C 9.94 g/m*3 12.4 C 0 km/h
912 01-06-2017 03:55:00 12.4 C 10.05 g/m*3 12.4 C 0 km/h
913 01-06-2017 04:00:00 12.3 C 9.99 g/m*3 12.3 C 0 km/h
914 01-06-2017 04:05:00 12.3 C 9.99 g/m*3 12.3 C 0 km/h
915 01-06-2017 04:10:00 12.3 C 9.99 g/m*3 12.3 C 0 km/h
916 01-06-2017 04:15:00 12.2 C 9.93 g/m*3 12.2 C 0 km/h
917 01-06-2017 04:20:00 12.2 C 9.93 g/m*3 12.2 C 0 km/h
918 01-06-2017 04:25:00 12.2 C 9.93 g/m*3 12.2 C 0 km/h
919 01-06-2017 04:30:00 12.2 C 9.93 g/m*3 12.2 C 0 km/h
920 01-06-2017 04:35:00 12.2 C 10.04 g/m*3 12.2 C 0 km/h
921 01-06-2017 04:40:00 12.1 C 9.87 g/m*3 12.1 C 0 km/h
922 01-06-2017 04:45:00 12.1 C 9.87 g/m*3 12.1 C 0 km/h
923 01-06-2017 04:50:00 12 C 9.8 g/m*3 12 C 0 km/h
924 01-06-2017 04:55:00 11.9 C 9.85 g/m*3 11.9 C 0 km/h
925 01-06-2017 05:00:00 11.9 C 9.85 g/m*3 11.9 C 0 km/h
Sensor: Nr:Datum:Temp:Abs-Feuchte:Windchill:Wind:
Aussen-T/F 926 01-06-2017 05:05:00 11.9 C 9.85 g/m*3 11.9 C 0 km/h
927 01-06-2017 05:10:00 11.8 C 9.79 g/m*3 11.8 C 0 km/h
928 01-06-2017 05:15:00 11.8 C 9.79 g/m*3 11.8 C 0 km/h
929 01-06-2017 05:20:00 11.8 C 9.79 g/m*3 11.8 C 0 km/h
930 01-06-2017 05:25:00 11.7 C 9.73 g/m*3 11.7 C 0 km/h
931 01-06-2017 05:30:00 11.7 C 9.73 g/m*3 11.7 C 0 km/h
932 01-06-2017 05:35:00 11.8 C 9.79 g/m*3 11.8 C 1.6 km/h
933 01-06-2017 05:40:00 11.8 C 9.79 g/m*3 11.8 C 0 km/h
934 01-06-2017 05:45:00 11.7 C 9.73 g/m*3 11.7 C 0 km/h
935 01-06-2017 05:50:00 11.8 C 9.89 g/m*3 11.8 C 0 km/h
936 01-06-2017 05:55:00 11.8 C 9.89 g/m*3 11.8 C 0 km/h
937 01-06-2017 06:00:00 11.8 C 9.79 g/m*3 11.8 C 0 km/h
938 01-06-2017 06:05:00 11.7 C 9.83 g/m*3 11.7 C 0 km/h
939 01-06-2017 06:10:00 11.7 C 9.83 g/m*3 11.7 C 0 km/h
940 01-06-2017 06:15:00 11.7 C 9.83 g/m*3 11.7 C 0 km/h
941 01-06-2017 06:20:00 11.7 C 9.83 g/m*3 11.7 C 0 km/h
942 01-06-2017 06:25:00 11.7 C 9.83 g/m*3 11.7 C 0 km/h
943 01-06-2017 06:30:00 11.8 C 9.89 g/m*3 11.8 C 0 km/h
944 01-06-2017 06:35:00 11.8 C 9.89 g/m*3 11.8 C 0 km/h
945 01-06-2017 06:40:00 11.8 C 9.89 g/m*3 11.8 C 0 km/h
946 01-06-2017 06:45:00 11.9 C 9.96 g/m*3 11.9 C 0 km/h
947 01-06-2017 06:50:00 12 C 10.02 g/m*3 12 C 0 km/h
948 01-06-2017 06:55:00 12.2 C 10.25 g/m*3 12.2 C 0 km/h
949 01-06-2017 07:00:00 12.3 C 10.21 g/m*3 12.3 C 0 km/h
950 01-06-2017 07:05:00 12.3 C 10.21 g/m*3 12.3 C 0 km/h
Sensor: Nr:Datum:Temp:Abs-Feuchte:Windchill:Wind:
Aussen-T/F 951 01-06-2017 07:10:00 12.4 C 10.38 g/m*3 12.4 C 0 km/h
952 01-06-2017 07:15:00 12.5 C 10.33 g/m*3 12.5 C 0 km/h
953 01-06-2017 07:20:00 12.6 C 10.4 g/m*3 12.6 C 0 km/h
954 01-06-2017 07:25:00 12.7 C 10.46 g/m*3 12.7 C 0 km/h
955 01-06-2017 07:30:00 12.7 C 10.46 g/m*3 12.7 C 0 km/h
956 01-06-2017 07:35:00 12.8 C 10.53 g/m*3 12.8 C 0 km/h
957 01-06-2017 07:40:00 12.8 C 10.53 g/m*3 12.8 C 0 km/h
958 01-06-2017 07:45:00 12.9 C 10.59 g/m*3 12.9 C 0 km/h
959 01-06-2017 07:50:00 12.9 C 10.59 g/m*3 12.9 C 0 km/h
960 01-06-2017 07:55:00 13 C 10.66 g/m*3 13 C 0 km/h
961 01-06-2017 08:00:00 13.1 C 10.73 g/m*3 13.1 C 0 km/h
962 01-06-2017 08:05:00 13.3 C 10.86 g/m*3 13.3 C 0 km/h
963 01-06-2017 08:10:00 13.4 C 10.93 g/m*3 13.4 C 0 km/h
964 01-06-2017 08:15:00 13.5 C 10.88 g/m*3 13.5 C 0 km/h
965 01-06-2017 08:20:00 13.6 C 10.95 g/m*3 13.6 C 0 km/h
966 01-06-2017 08:25:00 13.8 C 11.08 g/m*3 13.8 C 0 km/h
967 01-06-2017 08:30:00 13.9 C 11.15 g/m*3 13.9 C 0 km/h
968 01-06-2017 08:35:00 14.1 C 11.29 g/m*3 14.1 C 0 km/h
969 01-06-2017 08:40:00 14.2 C 11.36 g/m*3 14.2 C 0 km/h
970 01-06-2017 08:45:00 14.3 C 11.43 g/m*3 14.3 C 0 km/h
971 01-06-2017 08:50:00 14.4 C 11.5 g/m*3 14.4 C 0 km/h
972 01-06-2017 08:55:00 14.6 C 11.64 g/m*3 14.6 C 0 km/h
973 01-06-2017 09:00:00 14.8 C 11.78 g/m*3 14.8 C 0 km/h
974 01-06-2017 09:05:00 14.9 C 11.73 g/m*3 14.9 C 0 km/h
975 01-06-2017 09:10:00 15.1 C 11.74 g/m*3 15.1 C 0 km/h
Sensor: Nr:Datum:Temp:Abs-Feuchte:Windchill:Wind:
Aussen-T/F 976 01-06-2017 09:15:00 15.3 C 11.88 g/m*3 15.3 C 0 km/h
977 01-06-2017 09:20:00 15.4 C 11.82 g/m*3 15.4 C 0 km/h
978 01-06-2017 09:25:00 15.7 C 11.91 g/m*3 15.7 C 0 km/h
979 01-06-2017 09:30:00 15.9 C 12.05 g/m*3 15.9 C 0 km/h
980 01-06-2017 09:35:00 16.2 C 12.27 g/m*3 16.2 C 0 km/h
981 01-06-2017 09:40:00 16.3 C 12.21 g/m*3 16.3 C 0 km/h
982 01-06-2017 09:45:00 16.4 C 12.14 g/m*3 16.4 C 0 km/h
983 01-06-2017 09:50:00 16.6 C 12.29 g/m*3 16.6 C 0 km/h
984 01-06-2017 09:55:00 16.7 C 12.22 g/m*3 16.7 C 0 km/h
985 01-06-2017 10:00:00 16.9 C 12.51 g/m*3 16.9 C 0 km/h
986 01-06-2017 10:05:00 17.1 C 12.37 g/m*3 17.1 C 0 km/h
987 01-06-2017 10:10:00 17.3 C 12.52 g/m*3 17.3 C 0 km/h
988 01-06-2017 10:15:00 17.6 C 12.6 g/m*3 17.6 C 0 km/h
989 01-06-2017 10:20:00 18.1 C 12.98 g/m*3 18.1 C 0 km/h
990 01-06-2017 10:25:00 18.6 C 12.89 g/m*3 18.6 C 0 km/h
991 01-06-2017 10:30:00 19.2 C 13.03 g/m*3 19.2 C 0 km/h
992 01-06-2017 10:35:00 19.7 C 13.08 g/m*3 19.7 C 0 km/h
993 01-06-2017 10:40:00 20.2 C 12.94 g/m*3 20.2 C 3.2 km/h
994 01-06-2017 10:45:00 20.6 C 13.07 g/m*3 20.6 C 3.2 km/h
995 01-06-2017 10:50:00 20.7 C 12.78 g/m*3 20.7 C 1.6 km/h
996 01-06-2017 10:55:00 20.7 C 12.6 g/m*3 20.7 C 3.2 km/h
997 01-06-2017 11:00:00 20.8 C 12.49 g/m*3 20.8 C 3.2 km/h
998 01-06-2017 11:05:00 20.8 C 12.31 g/m*3 20.8 C 3.2 km/h
999 01-06-2017 11:10:00 20.9 C 12.57 g/m*3 20.9 C 3.2 km/h
1000 01-06-2017 11:15:00 20.9 C 12.2 g/m*3 20.9 C 0 km/h
Sensor: Nr:Datum:Temp:Abs-Feuchte:Windchill:Wind:
Aussen-T/F 1001 01-06-2017 11:20:00 21 C 13.01 g/m*3 21 C 1.6 km/h
1002 01-06-2017 11:25:00 20.9 C 11.66 g/m*3 20.9 C 3.2 km/h
1003 01-06-2017 11:30:00 21.1 C 11.98 g/m*3 21.1 C 6.4 km/h
1004 01-06-2017 11:35:00 21.2 C 12.05 g/m*3 21.2 C 1.6 km/h
1005 01-06-2017 11:40:00 21.3 C 12.49 g/m*3 21.3 C 3.2 km/h
1006 01-06-2017 11:45:00 21.5 C 11.88 g/m*3 21.5 C 4.8 km/h
1007 01-06-2017 11:50:00 21.7 C 11.64 g/m*3 21.7 C 4.8 km/h
1008 01-06-2017 11:55:00 21.8 C 11.51 g/m*3 21.8 C 4.8 km/h
1009 01-06-2017 12:00:00 21.8 C 11.51 g/m*3 21.8 C 3.2 km/h
1010 01-06-2017 12:05:00 21.9 C 11.96 g/m*3 21.9 C 1.6 km/h
1011 01-06-2017 12:10:00 22.1 C 11.71 g/m*3 22.1 C 4.8 km/h
1012 01-06-2017 12:15:00 22.2 C 11.39 g/m*3 22.2 C 11.3 km/h
1013 01-06-2017 12:20:00 22.4 C 11.52 g/m*3 22.4 C 11.3 km/h
1014 01-06-2017 12:25:00 22.5 C 10.79 g/m*3 22.5 C 6.4 km/h
1015 01-06-2017 12:30:00 22.6 C 11.25 g/m*3 22.6 C 3.2 km/h
1016 01-06-2017 12:35:00 22.7 C 11.31 g/m*3 22.7 C 6.4 km/h
1017 01-06-2017 12:40:00 22.7 C 11.31 g/m*3 22.7 C 4.8 km/h
1018 01-06-2017 12:45:00 22.7 C 11.52 g/m*3 22.7 C 1.6 km/h
1019 01-06-2017 12:50:00 22.7 C 11.31 g/m*3 22.7 C 4.8 km/h
1020 01-06-2017 12:55:00 22.8 C 10.97 g/m*3 22.8 C 6.4 km/h
1021 01-06-2017 13:00:00 23.1 C 11.37 g/m*3 23.1 C 4.8 km/h
1022 01-06-2017 13:05:00 23.1 C 10.96 g/m*3 23.1 C 4.8 km/h
1023 01-06-2017 13:10:00 22.9 C 11.04 g/m*3 22.9 C 4.8 km/h
1024 01-06-2017 13:15:00 23 C 10.28 g/m*3 23 C 3.2 km/h
1025 01-06-2017 13:20:00 23.1 C 10.75 g/m*3 23.1 C 3.2 km/h
Sensor: Nr:Datum:Temp:Abs-Feuchte:Windchill:Wind:
Aussen-T/F 1026 01-06-2017 13:25:00 23.2 C 10.81 g/m*3 23.2 C 6.4 km/h
1027 01-06-2017 13:30:00 23.3 C 10.66 g/m*3 23.3 C 3.2 km/h
1028 01-06-2017 13:35:00 23.4 C 10.51 g/m*3 23.4 C 4.8 km/h
1029 01-06-2017 13:40:00 23.6 C 10.85 g/m*3 23.6 C 3.2 km/h
1030 01-06-2017 13:45:00 23.7 C 11.76 g/m*3 23.7 C 1.6 km/h
1031 01-06-2017 13:50:00 23.8 C 13.12 g/m*3 23.8 C 0 km/h
1032 01-06-2017 13:55:00 23.7 C 13.48 g/m*3 23.7 C 0 km/h
1033 01-06-2017 14:00:00 23.6 C 14.04 g/m*3 23.6 C 0 km/h
1034 01-06-2017 14:05:00 23.4 C 11.78 g/m*3 23.4 C 0 km/h
1035 01-06-2017 14:10:00 23.2 C 10.81 g/m*3 23.2 C 0 km/h
1036 01-06-2017 14:15:00 23.2 C 11.02 g/m*3 23.2 C 1.6 km/h
1037 01-06-2017 14:20:00 23.4 C 10.51 g/m*3 23.4 C 3.2 km/h
1038 01-06-2017 14:25:00 23.8 C 10.76 g/m*3 23.8 C 6.4 km/h
1039 01-06-2017 14:30:00 24.2 C 10.78 g/m*3 24.2 C 8.1 km/h
1040 01-06-2017 14:35:00 24.5 C 10.74 g/m*3 24.5 C 8.1 km/h
1041 01-06-2017 14:40:00 24.7 C 11.09 g/m*3 24.7 C 4.8 km/h
1042 01-06-2017 14:45:00 24.7 C 10.19 g/m*3 24.7 C 6.4 km/h
1043 01-06-2017 14:50:00 24.8 C 10.24 g/m*3 24.8 C 8.1 km/h
1044 01-06-2017 14:55:00 24.9 C 10.76 g/m*3 24.9 C 3.2 km/h
1045 01-06-2017 15:00:00 25.2 C 10.48 g/m*3 25.2 C 6.4 km/h
1046 01-06-2017 15:05:00 25.4 C 11.06 g/m*3 25.4 C 9.7 km/h
1047 01-06-2017 15:10:00 25.7 C 10.77 g/m*3 25.7 C 8.1 km/h
1048 01-06-2017 15:15:00 25.9 C 10.41 g/m*3 25.9 C 6.4 km/h
1049 01-06-2017 15:20:00 26.1 C 11.26 g/m*3 26.1 C 9.7 km/h
1050 01-06-2017 15:25:00 26.2 C 10.59 g/m*3 26.2 C 6.4 km/h
Sensor: Nr:Datum:Temp:Abs-Feuchte:Windchill:Wind:
Aussen-T/F 1051 01-06-2017 15:30:00 26.4 C 10.46 g/m*3 26.4 C 9.7 km/h
1052 01-06-2017 15:35:00 26.6 C 10.82 g/m*3 26.6 C 6.4 km/h
1053 01-06-2017 15:40:00 26.8 C 10.69 g/m*3 26.8 C 8.1 km/h
1054 01-06-2017 15:45:00 26.8 C 10.69 g/m*3 26.8 C 6.4 km/h
1055 01-06-2017 15:50:00 27.2 C 10.41 g/m*3 27.2 C 3.2 km/h
1056 01-06-2017 15:55:00 27.7 C 10.43 g/m*3 27.7 C 8.1 km/h
1057 01-06-2017 16:00:00 27.8 C 10.49 g/m*3 27.8 C 9.7 km/h
1058 01-06-2017 16:05:00 28 C 10.33 g/m*3 28 C 6.4 km/h
1059 01-06-2017 16:10:00 28.2 C 10.17 g/m*3 28.2 C 8.1 km/h
1060 01-06-2017 16:15:00 27.9 C 10.55 g/m*3 27.9 C 6.4 km/h
1061 01-06-2017 16:20:00 27.6 C 10.11 g/m*3 27.6 C 6.4 km/h
1062 01-06-2017 16:25:00 27.7 C 10.43 g/m*3 27.7 C 4.8 km/h
1063 01-06-2017 16:30:00 27.9 C 10.55 g/m*3 27.9 C 3.2 km/h
1064 01-06-2017 16:35:00 28.1 C 10.66 g/m*3 28.1 C 4.8 km/h
1065 01-06-2017 16:40:00 28.3 C 10.78 g/m*3 28.3 C 8.1 km/h
1066 01-06-2017 16:45:00 28.7 C 10.17 g/m*3 28.7 C 6.4 km/h
1067 01-06-2017 16:50:00 28.8 C 10.51 g/m*3 28.8 C 8.1 km/h
1068 01-06-2017 16:55:00 28.8 C 10.8 g/m*3 28.8 C 4.8 km/h
1069 01-06-2017 17:00:00 28.9 C 10.86 g/m*3 28.9 C 6.4 km/h
1070 01-06-2017 17:05:00 29.2 C 11.32 g/m*3 29.2 C 4.8 km/h
1071 01-06-2017 17:10:00 29.4 C 10.86 g/m*3 29.4 C 8.1 km/h
1072 01-06-2017 17:15:00 28.7 C 10.17 g/m*3 28.7 C 9.7 km/h
1073 01-06-2017 17:20:00 28.2 C 10.72 g/m*3 28.2 C 9.7 km/h
1074 01-06-2017 17:25:00 27.8 C 10.49 g/m*3 27.8 C 8.1 km/h
1075 01-06-2017 17:30:00 27.6 C 10.64 g/m*3 27.6 C 8.1 km/h
Sensor: Nr:Datum:Temp:Abs-Feuchte:Windchill:Wind:
Aussen-T/F 1076 01-06-2017 17:35:00 27.7 C 10.43 g/m*3 27.7 C 11.3 km/h
1077 01-06-2017 17:40:00 27.7 C 10.43 g/m*3 27.7 C 9.7 km/h
1078 01-06-2017 17:45:00 27.8 C 10.49 g/m*3 27.8 C 8.1 km/h
1079 01-06-2017 17:50:00 27.5 C 11.11 g/m*3 27.5 C 11.3 km/h
1080 01-06-2017 17:55:00 27.3 C 11.51 g/m*3 27.3 C 1.6 km/h
1081 01-06-2017 18:00:00 27.3 C 11.51 g/m*3 27.3 C 0 km/h
1082 01-06-2017 18:05:00 27.3 C 12.3 g/m*3 27.3 C 0 km/h
1083 01-06-2017 18:10:00 27.4 C 13.68 g/m*3 27.4 C 0 km/h
1084 01-06-2017 18:15:00 27.5 C 14.29 g/m*3 27.5 C 0 km/h
1085 01-06-2017 18:20:00 27.6 C 13.57 g/m*3 27.6 C 0 km/h
1086 01-06-2017 18:25:00 27.8 C 14.26 g/m*3 27.8 C 0 km/h
1087 01-06-2017 18:30:00 27.7 C 13.91 g/m*3 27.7 C 0 km/h
1088 01-06-2017 18:35:00 27.4 C 13.68 g/m*3 27.4 C 0 km/h
1089 01-06-2017 18:40:00 27 C 13.64 g/m*3 27 C 1.6 km/h
1090 01-06-2017 18:45:00 26.5 C 13.27 g/m*3 26.5 C 0 km/h
1091 01-06-2017 18:50:00 25.9 C 13.07 g/m*3 25.9 C 1.6 km/h
1092 01-06-2017 18:55:00 25.4 C 13.18 g/m*3 25.4 C 1.6 km/h
1093 01-06-2017 19:00:00 25.2 C 13.27 g/m*3 25.2 C 0 km/h
1094 01-06-2017 19:05:00 25.1 C 13.2 g/m*3 25.1 C 0 km/h
1095 01-06-2017 19:10:00 24.9 C 13.28 g/m*3 24.9 C 0 km/h
1096 01-06-2017 19:15:00 24.8 C 12.97 g/m*3 24.8 C 0 km/h
1097 01-06-2017 19:20:00 24.6 C 12.83 g/m*3 24.6 C 1.6 km/h
1098 01-06-2017 19:25:00 24.2 C 12.76 g/m*3 24.2 C 0 km/h
1099 01-06-2017 19:30:00 23.9 C 12.76 g/m*3 23.9 C 0 km/h
1100 01-06-2017 19:35:00 23.6 C 12.76 g/m*3 23.6 C 0 km/h
Sensor: Nr:Datum:Temp:Abs-Feuchte:Windchill:Wind:
Aussen-T/F 1101 01-06-2017 19:40:00 23.3 C 12.75 g/m*3 23.3 C 1.6 km/h
1102 01-06-2017 19:45:00 23.2 C 12.68 g/m*3 23.2 C 0 km/h
1103 01-06-2017 19:50:00 23 C 12.74 g/m*3 23 C 0 km/h
1104 01-06-2017 19:55:00 22.8 C 12.6 g/m*3 22.8 C 0 km/h
1105 01-06-2017 20:00:00 22.7 C 12.53 g/m*3 22.7 C 0 km/h
1106 01-06-2017 20:05:00 22.6 C 12.46 g/m*3 22.6 C 1.6 km/h
1107 01-06-2017 20:10:00 22.4 C 12.51 g/m*3 22.4 C 1.6 km/h
1108 01-06-2017 20:15:00 22.3 C 12.44 g/m*3 22.3 C 1.6 km/h
1109 01-06-2017 20:20:00 22.3 C 12.44 g/m*3 22.3 C 1.6 km/h
1110 01-06-2017 20:25:00 22.2 C 12.37 g/m*3 22.2 C 1.6 km/h
1111 01-06-2017 20:30:00 22.1 C 12.3 g/m*3 22.1 C 1.6 km/h
1112 01-06-2017 20:35:00 22.1 C 12.3 g/m*3 22.1 C 1.6 km/h
1113 01-06-2017 20:40:00 22.1 C 12.3 g/m*3 22.1 C 1.6 km/h
1114 01-06-2017 20:45:00 22 C 12.23 g/m*3 22 C 1.6 km/h
1115 01-06-2017 20:50:00 21.9 C 12.16 g/m*3 21.9 C 1.6 km/h
1116 01-06-2017 20:55:00 21.9 C 12.16 g/m*3 21.9 C 1.6 km/h
1117 01-06-2017 21:00:00 21.9 C 12.16 g/m*3 21.9 C 0 km/h
1118 01-06-2017 21:05:00 21.9 C 11.96 g/m*3 21.9 C 1.6 km/h
1119 01-06-2017 21:10:00 21.8 C 11.9 g/m*3 21.8 C 0 km/h
1120 01-06-2017 21:15:00 21.6 C 11.95 g/m*3 21.6 C 1.6 km/h
1121 01-06-2017 21:20:00 21.4 C 11.81 g/m*3 21.4 C 1.6 km/h
1122 01-06-2017 21:25:00 21.2 C 11.68 g/m*3 21.2 C 1.6 km/h
1123 01-06-2017 21:30:00 21.1 C 11.79 g/m*3 21.1 C 1.6 km/h
1124 01-06-2017 21:35:00 20.8 C 11.59 g/m*3 20.8 C 1.6 km/h
1125 01-06-2017 21:40:00 20.7 C 11.52 g/m*3 20.7 C 1.6 km/h
Sensor: Nr:Datum:Temp:Abs-Feuchte:Windchill:Wind:
Aussen-T/F 1126 01-06-2017 21:45:00 20.6 C 11.45 g/m*3 20.6 C 1.6 km/h
1127 01-06-2017 21:50:00 20.4 C 11.5 g/m*3 20.4 C 1.6 km/h
1128 01-06-2017 21:55:00 20.3 C 11.43 g/m*3 20.3 C 1.6 km/h
1129 01-06-2017 22:00:00 20.2 C 11.37 g/m*3 20.2 C 1.6 km/h
1130 01-06-2017 22:05:00 20.1 C 11.3 g/m*3 20.1 C 0 km/h
1131 01-06-2017 22:10:00 20 C 11.41 g/m*3 20 C 0 km/h
1132 01-06-2017 22:15:00 19.9 C 11.51 g/m*3 19.9 C 0 km/h
1133 01-06-2017 22:20:00 19.8 C 11.44 g/m*3 19.8 C 1.6 km/h
1134 01-06-2017 22:25:00 19.7 C 11.38 g/m*3 19.7 C 0 km/h
1135 01-06-2017 22:30:00 19.5 C 11.41 g/m*3 19.5 C 1.6 km/h
1136 01-06-2017 22:35:00 19.4 C 11.35 g/m*3 19.4 C 0 km/h
1137 01-06-2017 22:40:00 19.3 C 11.44 g/m*3 19.3 C 0 km/h
1138 01-06-2017 22:45:00 19.1 C 11.47 g/m*3 19.1 C 0 km/h
1139 01-06-2017 22:50:00 18.8 C 11.27 g/m*3 18.8 C 0 km/h
1140 01-06-2017 22:55:00 18.6 C 11.3 g/m*3 18.6 C 0 km/h
1141 01-06-2017 23:00:00 18.4 C 11.32 g/m*3 18.4 C 0 km/h
1142 01-06-2017 23:05:00 18.2 C 11.35 g/m*3 18.2 C 0 km/h
1143 01-06-2017 23:10:00 18.1 C 11.43 g/m*3 18.1 C 0 km/h
1144 01-06-2017 23:15:00 17.9 C 11.45 g/m*3 17.9 C 0 km/h
1145 01-06-2017 23:20:00 17.7 C 11.32 g/m*3 17.7 C 0 km/h
1146 01-06-2017 23:25:00 17.6 C 11.4 g/m*3 17.6 C 0 km/h
1147 01-06-2017 23:30:00 17.3 C 11.34 g/m*3 17.3 C 0 km/h
1148 01-06-2017 23:35:00 17.2 C 11.28 g/m*3 17.2 C 0 km/h
1149 01-06-2017 23:40:00 17.2 C 11.42 g/m*3 17.2 C 0 km/h
1150 01-06-2017 23:45:00 17.1 C 11.5 g/m*3 17.1 C 0 km/h
Sensor: Nr:Datum:Temp:Abs-Feuchte:Windchill:Wind:
Aussen-T/F 1151 01-06-2017 23:50:00 16.9 C 11.36 g/m*3 16.9 C 0 km/h
1152 01-06-2017 23:55:00 16.7 C 11.37 g/m*3 16.7 C 0 km/h
1153 02-06-2017 00:00:00 16.7 C 11.37 g/m*3 16.7 C 0 km/h
1154 02-06-2017 00:05:00 16.7 C 11.37 g/m*3 16.7 C 0 km/h
1155 02-06-2017 00:10:00 16.6 C 11.3 g/m*3 16.6 C 0 km/h
1156 02-06-2017 00:15:00 16.6 C 11.3 g/m*3 16.6 C 0 km/h
1157 02-06-2017 00:20:00 16.4 C 11.31 g/m*3 16.4 C 0 km/h
1158 02-06-2017 00:25:00 16.3 C 11.24 g/m*3 16.3 C 0 km/h
1159 02-06-2017 00:30:00 16.2 C 11.31 g/m*3 16.2 C 0 km/h
1160 02-06-2017 00:35:00 16.1 C 11.24 g/m*3 16.1 C 0 km/h
1161 02-06-2017 00:40:00 16 C 11.31 g/m*3 16 C 0 km/h
1162 02-06-2017 00:45:00 15.9 C 11.24 g/m*3 15.9 C 0 km/h
1163 02-06-2017 00:50:00 15.8 C 11.17 g/m*3 15.8 C 0 km/h
1164 02-06-2017 00:55:00 15.8 C 11.31 g/m*3 15.8 C 0 km/h
1165 02-06-2017 01:00:00 15.7 C 11.24 g/m*3 15.7 C 0 km/h
1166 02-06-2017 01:05:00 15.6 C 11.3 g/m*3 15.6 C 0 km/h
1167 02-06-2017 01:10:00 15.6 C 11.3 g/m*3 15.6 C 0 km/h
1168 02-06-2017 01:15:00 15.6 C 11.3 g/m*3 15.6 C 0 km/h
1169 02-06-2017 01:20:00 15.5 C 11.24 g/m*3 15.5 C 0 km/h
1170 02-06-2017 01:25:00 15.4 C 11.17 g/m*3 15.4 C 0 km/h
1171 02-06-2017 01:30:00 15.3 C 11.1 g/m*3 15.3 C 0 km/h
1172 02-06-2017 01:35:00 15.3 C 11.23 g/m*3 15.3 C 0 km/h
1173 02-06-2017 01:40:00 15.2 C 11.16 g/m*3 15.2 C 0 km/h
1174 02-06-2017 01:45:00 15.2 C 11.16 g/m*3 15.2 C 0 km/h
1175 02-06-2017 01:50:00 15.1 C 11.09 g/m*3 15.1 C 0 km/h
Sensor: Nr:Datum:Temp:Abs-Feuchte:Windchill:Wind:
Aussen-T/F 1176 02-06-2017 01:55:00 15.1 C 11.09 g/m*3 15.1 C 0 km/h
1177 02-06-2017 02:00:00 15 C 11.16 g/m*3 15 C 0 km/h
1178 02-06-2017 02:05:00 14.9 C 11.09 g/m*3 14.9 C 0 km/h
1179 02-06-2017 02:10:00 14.9 C 11.09 g/m*3 14.9 C 0 km/h
1180 02-06-2017 02:15:00 14.8 C 11.02 g/m*3 14.8 C 0 km/h
1181 02-06-2017 02:20:00 14.8 C 11.15 g/m*3 14.8 C 0 km/h
1182 02-06-2017 02:25:00 14.8 C 11.15 g/m*3 14.8 C 0 km/h
1183 02-06-2017 02:30:00 14.8 C 11.02 g/m*3 14.8 C 0 km/h
1184 02-06-2017 02:35:00 14.7 C 11.08 g/m*3 14.7 C 0 km/h
1185 02-06-2017 02:40:00 14.7 C 11.08 g/m*3 14.7 C 0 km/h
1186 02-06-2017 02:45:00 14.7 C 11.08 g/m*3 14.7 C 0 km/h
1187 02-06-2017 02:50:00 14.6 C 11.01 g/m*3 14.6 C 0 km/h
1188 02-06-2017 02:55:00 14.5 C 10.94 g/m*3 14.5 C 0 km/h
1189 02-06-2017 03:00:00 14.4 C 10.88 g/m*3 14.4 C 0 km/h
1190 02-06-2017 03:05:00 14.4 C 10.88 g/m*3 14.4 C 0 km/h
1191 02-06-2017 03:10:00 14.4 C 10.88 g/m*3 14.4 C 0 km/h
1192 02-06-2017 03:15:00 14.3 C 10.81 g/m*3 14.3 C 0 km/h
1193 02-06-2017 03:20:00 14.3 C 10.81 g/m*3 14.3 C 0 km/h
1194 02-06-2017 03:25:00 14.2 C 10.75 g/m*3 14.2 C 0 km/h
1195 02-06-2017 03:30:00 14.2 C 10.87 g/m*3 14.2 C 0 km/h
1196 02-06-2017 03:35:00 14.1 C 10.8 g/m*3 14.1 C 0 km/h
1197 02-06-2017 03:40:00 14.1 C 10.92 g/m*3 14.1 C 0 km/h
1198 02-06-2017 03:45:00 14.1 C 10.92 g/m*3 14.1 C 0 km/h
1199 02-06-2017 03:50:00 14.1 C 11.04 g/m*3 14.1 C 0 km/h
1200 02-06-2017 03:55:00 14.1 C 10.92 g/m*3 14.1 C 0 km/h
Sensor: Nr:Datum:Temp:Abs-Feuchte:Windchill:Wind:
Aussen-T/F 1201 02-06-2017 04:00:00 13.9 C 10.79 g/m*3 13.9 C 0 km/h
1202 02-06-2017 04:05:00 13.9 C 10.79 g/m*3 13.9 C 0 km/h
1203 02-06-2017 04:10:00 13.9 C 10.79 g/m*3 13.9 C 0 km/h
1204 02-06-2017 04:15:00 13.9 C 10.79 g/m*3 13.9 C 0 km/h
1205 02-06-2017 04:20:00 13.8 C 10.72 g/m*3 13.8 C 0 km/h
1206 02-06-2017 04:25:00 13.8 C 10.84 g/m*3 13.8 C 0 km/h
1207 02-06-2017 04:30:00 13.8 C 10.84 g/m*3 13.8 C 0 km/h
1208 02-06-2017 04:35:00 13.9 C 10.91 g/m*3 13.9 C 0 km/h
1209 02-06-2017 04:40:00 13.9 C 11.03 g/m*3 13.9 C 0 km/h
1210 02-06-2017 04:45:00 14.1 C 11.17 g/m*3 14.1 C 0 km/h
1211 02-06-2017 04:50:00 14.2 C 11.23 g/m*3 14.2 C 0 km/h
1212 02-06-2017 04:55:00 14.3 C 11.3 g/m*3 14.3 C 0 km/h
1213 02-06-2017 05:00:00 14.5 C 11.32 g/m*3 14.5 C 1.6 km/h
1214 02-06-2017 05:05:00 14.7 C 11.46 g/m*3 14.7 C 0 km/h
1215 02-06-2017 05:10:00 14.8 C 11.4 g/m*3 14.8 C 0 km/h
1216 02-06-2017 05:15:00 14.9 C 11.47 g/m*3 14.9 C 0 km/h
1217 02-06-2017 05:20:00 15 C 11.54 g/m*3 15 C 0 km/h
1218 02-06-2017 05:25:00 15.1 C 11.61 g/m*3 15.1 C 0 km/h
1219 02-06-2017 05:30:00 15.1 C 11.61 g/m*3 15.1 C 0 km/h
1220 02-06-2017 05:35:00 15.1 C 11.61 g/m*3 15.1 C 0 km/h
1221 02-06-2017 05:40:00 15.1 C 11.61 g/m*3 15.1 C 0 km/h
1222 02-06-2017 05:45:00 15.1 C 11.61 g/m*3 15.1 C 0 km/h
1223 02-06-2017 05:50:00 15.1 C 11.61 g/m*3 15.1 C 0 km/h
1224 02-06-2017 05:55:00 15.1 C 11.61 g/m*3 15.1 C 0 km/h
1225 02-06-2017 06:00:00 15.1 C 11.61 g/m*3 15.1 C 0 km/h
Sensor: Nr:Datum:Temp:Abs-Feuchte:Windchill:Wind:
Aussen-T/F 1226 02-06-2017 06:05:00 15.1 C 11.61 g/m*3 15.1 C 0 km/h
1227 02-06-2017 06:10:00 15.2 C 11.68 g/m*3 15.2 C 0 km/h
1228 02-06-2017 06:15:00 15.2 C 11.68 g/m*3 15.2 C 0 km/h
1229 02-06-2017 06:20:00 15.2 C 11.68 g/m*3 15.2 C 0 km/h
1230 02-06-2017 06:25:00 15.2 C 11.55 g/m*3 15.2 C 0 km/h
1231 02-06-2017 06:30:00 15.1 C 11.48 g/m*3 15.1 C 0 km/h
1232 02-06-2017 06:35:00 15 C 11.41 g/m*3 15 C 0 km/h
1233 02-06-2017 06:40:00 14.9 C 11.34 g/m*3 14.9 C 0 km/h
1234 02-06-2017 06:45:00 14.8 C 11.27 g/m*3 14.8 C 0 km/h
1235 02-06-2017 06:50:00 14.8 C 11.4 g/m*3 14.8 C 0 km/h
1236 02-06-2017 06:55:00 14.8 C 11.4 g/m*3 14.8 C 0 km/h
1237 02-06-2017 07:00:00 14.8 C 11.53 g/m*3 14.8 C 0 km/h
1238 02-06-2017 07:05:00 14.8 C 11.53 g/m*3 14.8 C 0 km/h
1239 02-06-2017 07:10:00 14.8 C 11.53 g/m*3 14.8 C 0 km/h
1240 02-06-2017 07:15:00 14.8 C 11.53 g/m*3 14.8 C 0 km/h
1241 02-06-2017 07:20:00 14.9 C 11.6 g/m*3 14.9 C 0 km/h
1242 02-06-2017 07:25:00 15 C 11.8 g/m*3 15 C 0 km/h
1243 02-06-2017 07:30:00 15.1 C 11.87 g/m*3 15.1 C 0 km/h
1244 02-06-2017 07:35:00 15.2 C 11.94 g/m*3 15.2 C 0 km/h
1245 02-06-2017 07:40:00 15.3 C 12.01 g/m*3 15.3 C 0 km/h
1246 02-06-2017 07:45:00 15.4 C 11.96 g/m*3 15.4 C 3.2 km/h
1247 02-06-2017 07:50:00 15.6 C 11.97 g/m*3 15.6 C 1.6 km/h
1248 02-06-2017 07:55:00 15.8 C 12.11 g/m*3 15.8 C 0 km/h
1249 02-06-2017 08:00:00 16 C 12.26 g/m*3 16 C 0 km/h
1250 02-06-2017 08:05:00 16.2 C 12.41 g/m*3 16.2 C 0 km/h
Sensor: Nr:Datum:Temp:Abs-Feuchte:Windchill:Wind:
Aussen-T/F 1251 02-06-2017 08:10:00 16.4 C 12.42 g/m*3 16.4 C 0 km/h
1252 02-06-2017 08:15:00 16.5 C 12.36 g/m*3 16.5 C 1.6 km/h
1253 02-06-2017 08:20:00 16.7 C 12.22 g/m*3 16.7 C 3.2 km/h
1254 02-06-2017 08:25:00 17 C 12.59 g/m*3 17 C 0 km/h
1255 02-06-2017 08:30:00 17.3 C 12.96 g/m*3 17.3 C 0 km/h
1256 02-06-2017 08:35:00 17.7 C 13.13 g/m*3 17.7 C 0 km/h
1257 02-06-2017 08:40:00 17.9 C 13.13 g/m*3 17.9 C 0 km/h
1258 02-06-2017 08:45:00 18.3 C 12.98 g/m*3 18.3 C 0 km/h
1259 02-06-2017 08:50:00 18.6 C 13.05 g/m*3 18.6 C 0 km/h
1260 02-06-2017 08:55:00 18.8 C 13.05 g/m*3 18.8 C 1.6 km/h
1261 02-06-2017 09:00:00 19.1 C 12.95 g/m*3 19.1 C 1.6 km/h
1262 02-06-2017 09:05:00 19.3 C 12.94 g/m*3 19.3 C 0 km/h
1263 02-06-2017 09:10:00 19.4 C 13.35 g/m*3 19.4 C 0 km/h
1264 02-06-2017 09:15:00 19.7 C 13.25 g/m*3 19.7 C 0 km/h
1265 02-06-2017 09:20:00 19.8 C 13.32 g/m*3 19.8 C 0 km/h
1266 02-06-2017 09:25:00 20 C 13.31 g/m*3 20 C 0 km/h
1267 02-06-2017 09:30:00 20.2 C 13.99 g/m*3 20.2 C 0 km/h
1268 02-06-2017 09:35:00 20.4 C 14.15 g/m*3 20.4 C 0 km/h
1269 02-06-2017 09:40:00 20.4 C 13.44 g/m*3 20.4 C 1.6 km/h
1270 02-06-2017 09:45:00 20.5 C 13.35 g/m*3 20.5 C 1.6 km/h
1271 02-06-2017 09:50:00 20.6 C 13.6 g/m*3 20.6 C 0 km/h
1272 02-06-2017 09:55:00 20.8 C 13.76 g/m*3 20.8 C 0 km/h
1273 02-06-2017 10:00:00 20.9 C 14.21 g/m*3 20.9 C 0 km/h
1274 02-06-2017 10:05:00 21.1 C 14.19 g/m*3 21.1 C 0 km/h
1275 02-06-2017 10:10:00 21.3 C 13.98 g/m*3 21.3 C 1.6 km/h
Sensor: Nr:Datum:Temp:Abs-Feuchte:Windchill:Wind:
Aussen-T/F 1276 02-06-2017 10:15:00 21.4 C 13.87 g/m*3 21.4 C 1.6 km/h
1277 02-06-2017 10:20:00 21.5 C 13.58 g/m*3 21.5 C 1.6 km/h
1278 02-06-2017 10:25:00 21.6 C 13.85 g/m*3 21.6 C 1.6 km/h
1279 02-06-2017 10:30:00 21.7 C 13.73 g/m*3 21.7 C 3.2 km/h
1280 02-06-2017 10:35:00 21.8 C 13.62 g/m*3 21.8 C 1.6 km/h
1281 02-06-2017 10:40:00 22 C 13.97 g/m*3 22 C 1.6 km/h
1282 02-06-2017 10:45:00 22.3 C 14.02 g/m*3 22.3 C 1.6 km/h
1283 02-06-2017 10:50:00 22.5 C 13.98 g/m*3 22.5 C 3.2 km/h
1284 02-06-2017 10:55:00 22.6 C 13.86 g/m*3 22.6 C 3.2 km/h
1285 02-06-2017 11:00:00 22.8 C 14.22 g/m*3 22.8 C 3.2 km/h
1286 02-06-2017 11:05:00 22.9 C 14.31 g/m*3 22.9 C 1.6 km/h
1287 02-06-2017 11:10:00 23.1 C 14.47 g/m*3 23.1 C 1.6 km/h
1288 02-06-2017 11:15:00 23.2 C 14.55 g/m*3 23.2 C 3.2 km/h
1289 02-06-2017 11:20:00 23.3 C 14.43 g/m*3 23.3 C 1.6 km/h
1290 02-06-2017 11:25:00 23.3 C 14.64 g/m*3 23.3 C 1.6 km/h
1291 02-06-2017 11:30:00 23.3 C 14.43 g/m*3 23.3 C 3.2 km/h
1292 02-06-2017 11:35:00 23.5 C 15.44 g/m*3 23.5 C 0 km/h
1293 02-06-2017 11:40:00 23.7 C 14.97 g/m*3 23.7 C 0 km/h
1294 02-06-2017 11:45:00 23.8 C 15.06 g/m*3 23.8 C 3.2 km/h
1295 02-06-2017 11:50:00 23.9 C 15.58 g/m*3 23.9 C 1.6 km/h
1296 02-06-2017 11:55:00 23.9 C 15.14 g/m*3 23.9 C 0 km/h
1297 02-06-2017 12:00:00 23.8 C 14.63 g/m*3 23.8 C 4.8 km/h
1298 02-06-2017 12:05:00 23.9 C 14.28 g/m*3 23.9 C 4.8 km/h
1299 02-06-2017 12:10:00 23.9 C 14.49 g/m*3 23.9 C 3.2 km/h
1300 02-06-2017 12:15:00 24.1 C 14.44 g/m*3 24.1 C 4.8 km/h
Sensor: Nr:Datum:Temp:Abs-Feuchte:Windchill:Wind:
Aussen-T/F 1301 02-06-2017 12:20:00 24.2 C 14.3 g/m*3 24.2 C 1.6 km/h
1302 02-06-2017 12:25:00 24.3 C 14.38 g/m*3 24.3 C 4.8 km/h
1303 02-06-2017 12:30:00 24.5 C 13.43 g/m*3 24.5 C 3.2 km/h
1304 02-06-2017 12:35:00 24.7 C 13.13 g/m*3 24.7 C 4.8 km/h
1305 02-06-2017 12:40:00 24.9 C 13.28 g/m*3 24.9 C 3.2 km/h
1306 02-06-2017 12:45:00 25.2 C 13.04 g/m*3 25.2 C 6.4 km/h
1307 02-06-2017 12:50:00 25.5 C 12.31 g/m*3 25.5 C 11.3 km/h
1308 02-06-2017 12:55:00 25.9 C 12.59 g/m*3 25.9 C 6.4 km/h
1309 02-06-2017 13:00:00 26.3 C 12.38 g/m*3 26.3 C 9.7 km/h
1310 02-06-2017 13:05:00 26.7 C 12.66 g/m*3 26.7 C 8.1 km/h
1311 02-06-2017 13:10:00 26.9 C 12.29 g/m*3 26.9 C 11.3 km/h
1312 02-06-2017 13:15:00 27.2 C 13.27 g/m*3 27.2 C 3.2 km/h
1313 02-06-2017 13:20:00 27.3 C 13.08 g/m*3 27.3 C 4.8 km/h
1314 02-06-2017 13:25:00 27.6 C 14.9 g/m*3 27.6 C 6.4 km/h
1315 02-06-2017 13:30:00 27.7 C 13.91 g/m*3 27.7 C 1.6 km/h
1316 02-06-2017 13:35:00 27.7 C 13.91 g/m*3 27.7 C 4.8 km/h
1317 02-06-2017 13:40:00 27.7 C 13.91 g/m*3 27.7 C 4.8 km/h
1318 02-06-2017 13:45:00 27.7 C 13.64 g/m*3 27.7 C 8.1 km/h
1319 02-06-2017 13:50:00 27.6 C 12.77 g/m*3 27.6 C 6.4 km/h
1320 02-06-2017 13:55:00 27.6 C 15.16 g/m*3 27.6 C 0 km/h
1321 02-06-2017 14:00:00 27.4 C 15.26 g/m*3 27.4 C 0 km/h
1322 02-06-2017 14:05:00 27.1 C 15.79 g/m*3 27.1 C 1.6 km/h
1323 02-06-2017 14:10:00 26.8 C 15.78 g/m*3 26.8 C 0 km/h
1324 02-06-2017 14:15:00 26.4 C 15.68 g/m*3 26.4 C 0 km/h
1325 02-06-2017 14:20:00 26 C 15.09 g/m*3 26 C 0 km/h
Sensor: Nr:Datum:Temp:Abs-Feuchte:Windchill:Wind:
Aussen-T/F 1326 02-06-2017 14:25:00 25.5 C 15.15 g/m*3 25.5 C 0 km/h
1327 02-06-2017 14:30:00 25.1 C 14.82 g/m*3 25.1 C 16.1 km/h
1328 02-06-2017 14:35:00 24.6 C 13.95 g/m*3 24.6 C 22.5 km/h
1329 02-06-2017 14:40:00 24.2 C 13.64 g/m*3 24.2 C 22.5 km/h
1330 02-06-2017 14:45:00 23.7 C 14.76 g/m*3 23.7 C 14.5 km/h
1331 02-06-2017 14:50:00 23 C 15.42 g/m*3 23 C 1.6 km/h
1332 02-06-2017 14:55:00 22.4 C 15.69 g/m*3 22.4 C 1.6 km/h
1333 02-06-2017 15:00:00 21.8 C 15.54 g/m*3 21.8 C 1.6 km/h
1334 02-06-2017 15:05:00 21.4 C 15.75 g/m*3 21.4 C 1.6 km/h
1335 02-06-2017 15:10:00 21 C 15.94 g/m*3 21 C 0 km/h
1336 02-06-2017 15:15:00 20.7 C 15.66 g/m*3 20.7 C 1.6 km/h
1337 02-06-2017 15:20:00 20.4 C 15.74 g/m*3 20.4 C 1.6 km/h
1338 02-06-2017 15:25:00 20.4 C 15.92 g/m*3 20.4 C 0 km/h
1339 02-06-2017 15:30:00 20.7 C 16.56 g/m*3 20.7 C 0 km/h
1340 02-06-2017 15:35:00 20.8 C 16.66 g/m*3 20.8 C 0 km/h
1341 02-06-2017 15:40:00 20.9 C 16.76 g/m*3 20.9 C 0 km/h
1342 02-06-2017 15:45:00 21 C 16.85 g/m*3 21 C 4.8 km/h
1343 02-06-2017 15:50:00 21.2 C 17.05 g/m*3 21.2 C 3.2 km/h
1344 02-06-2017 15:55:00 21.4 C 17.25 g/m*3 21.4 C 0 km/h
1345 02-06-2017 16:00:00 21.6 C 17.64 g/m*3 21.6 C 0 km/h
1346 02-06-2017 16:05:00 21.7 C 17.55 g/m*3 21.7 C 0 km/h
1347 02-06-2017 16:10:00 21.7 C 17.55 g/m*3 21.7 C 0 km/h
1348 02-06-2017 16:15:00 21.7 C 17.55 g/m*3 21.7 C 0 km/h
1349 02-06-2017 16:20:00 21.7 C 17.36 g/m*3 21.7 C 0 km/h
1350 02-06-2017 16:25:00 21.6 C 17.07 g/m*3 21.6 C 0 km/h
Sensor: Nr:Datum:Temp:Abs-Feuchte:Windchill:Wind:
Aussen-T/F 1351 02-06-2017 16:30:00 21.5 C 16.97 g/m*3 21.5 C 0 km/h
1352 02-06-2017 16:35:00 21.4 C 16.87 g/m*3 21.4 C 0 km/h
1353 02-06-2017 16:40:00 21.3 C 16.96 g/m*3 21.3 C 0 km/h
1354 02-06-2017 16:45:00 21.2 C 16.68 g/m*3 21.2 C 0 km/h
1355 02-06-2017 16:50:00 21.1 C 16.77 g/m*3 21.1 C 0 km/h
1356 02-06-2017 16:55:00 20.9 C 16.57 g/m*3 20.9 C 3.2 km/h
1357 02-06-2017 17:00:00 20.8 C 16.48 g/m*3 20.8 C 3.2 km/h
1358 02-06-2017 17:05:00 20.7 C 16.38 g/m*3 20.7 C 1.6 km/h
1359 02-06-2017 17:10:00 20.6 C 16.11 g/m*3 20.6 C 1.6 km/h
1360 02-06-2017 17:15:00 20.5 C 16.01 g/m*3 20.5 C 1.6 km/h
1361 02-06-2017 17:20:00 20.6 C 16.29 g/m*3 20.6 C 1.6 km/h
1362 02-06-2017 17:25:00 20.6 C 16.47 g/m*3 20.6 C 1.6 km/h
1363 02-06-2017 17:30:00 20.7 C 16.56 g/m*3 20.7 C 0 km/h
1364 02-06-2017 17:35:00 20.9 C 16.76 g/m*3 20.9 C 0 km/h
1365 02-06-2017 17:40:00 20.9 C 16.76 g/m*3 20.9 C 1.6 km/h
1366 02-06-2017 17:45:00 20.8 C 16.12 g/m*3 20.8 C 1.6 km/h
1367 02-06-2017 17:50:00 20.8 C 16.12 g/m*3 20.8 C 1.6 km/h
1368 02-06-2017 17:55:00 20.9 C 16.57 g/m*3 20.9 C 1.6 km/h
1369 02-06-2017 18:00:00 20.8 C 16.12 g/m*3 20.8 C 1.6 km/h
1370 02-06-2017 18:05:00 20.8 C 16.12 g/m*3 20.8 C 0 km/h
1371 02-06-2017 18:10:00 20.8 C 15.93 g/m*3 20.8 C 1.6 km/h
1372 02-06-2017 18:15:00 20.9 C 16.03 g/m*3 20.9 C 0 km/h
1373 02-06-2017 18:20:00 20.8 C 16.12 g/m*3 20.8 C 0 km/h
1374 02-06-2017 18:25:00 20.8 C 15.93 g/m*3 20.8 C 1.6 km/h
1375 02-06-2017 18:30:00 20.7 C 15.66 g/m*3 20.7 C 1.6 km/h
Sensor: Nr:Datum:Temp:Abs-Feuchte:Windchill:Wind:
Aussen-T/F 1376 02-06-2017 18:35:00 20.4 C 15.39 g/m*3 20.4 C 1.6 km/h
1377 02-06-2017 18:40:00 20.2 C 15.21 g/m*3 20.2 C 0 km/h
1378 02-06-2017 18:45:00 20 C 15.04 g/m*3 20 C 1.6 km/h
1379 02-06-2017 18:50:00 19.8 C 14.86 g/m*3 19.8 C 1.6 km/h
1380 02-06-2017 18:55:00 19.6 C 14.86 g/m*3 19.6 C 1.6 km/h
1381 02-06-2017 19:00:00 19.4 C 14.85 g/m*3 19.4 C 0 km/h
1382 02-06-2017 19:05:00 19.3 C 14.76 g/m*3 19.3 C 1.6 km/h
1383 02-06-2017 19:10:00 19.2 C 14.84 g/m*3 19.2 C 1.6 km/h
1384 02-06-2017 19:15:00 19.2 C 14.84 g/m*3 19.2 C 0 km/h
1385 02-06-2017 19:20:00 19.2 C 15.01 g/m*3 19.2 C 1.6 km/h
1386 02-06-2017 19:25:00 19.3 C 15.26 g/m*3 19.3 C 1.6 km/h
1387 02-06-2017 19:30:00 19.4 C 15.35 g/m*3 19.4 C 0 km/h
1388 02-06-2017 19:35:00 19.6 C 15.7 g/m*3 19.6 C 1.6 km/h
1389 02-06-2017 19:40:00 19.7 C 15.62 g/m*3 19.7 C 0 km/h
1390 02-06-2017 19:45:00 19.8 C 15.71 g/m*3 19.8 C 0 km/h
1391 02-06-2017 19:50:00 20 C 15.9 g/m*3 20 C 0 km/h
1392 02-06-2017 19:55:00 20.1 C 15.99 g/m*3 20.1 C 0 km/h
1393 02-06-2017 20:00:00 20.2 C 16.09 g/m*3 20.2 C 0 km/h
1394 02-06-2017 20:05:00 20.3 C 16.18 g/m*3 20.3 C 0 km/h
1395 02-06-2017 20:10:00 20.2 C 15.91 g/m*3 20.2 C 0 km/h
1396 02-06-2017 20:15:00 20.2 C 15.91 g/m*3 20.2 C 0 km/h
1397 02-06-2017 20:20:00 20.1 C 15.82 g/m*3 20.1 C 0 km/h
1398 02-06-2017 20:25:00 20 C 15.73 g/m*3 20 C 1.6 km/h
1399 02-06-2017 20:30:00 19.9 C 15.63 g/m*3 19.9 C 0 km/h
1400 02-06-2017 20:35:00 19.8 C 15.54 g/m*3 19.8 C 0 km/h
Sensor: Nr:Datum:Temp:Abs-Feuchte:Windchill:Wind:
Aussen-T/F 1401 02-06-2017 20:40:00 19.8 C 15.54 g/m*3 19.8 C 0 km/h
1402 02-06-2017 20:45:00 19.7 C 15.45 g/m*3 19.7 C 0 km/h
1403 02-06-2017 20:50:00 19.6 C 15.36 g/m*3 19.6 C 1.6 km/h
1404 02-06-2017 20:55:00 19.5 C 15.27 g/m*3 19.5 C 0 km/h
1405 02-06-2017 21:00:00 19.4 C 15.18 g/m*3 19.4 C 0 km/h
1406 02-06-2017 21:05:00 19.3 C 15.26 g/m*3 19.3 C 0 km/h
1407 02-06-2017 21:10:00 19.3 C 15.26 g/m*3 19.3 C 0 km/h
1408 02-06-2017 21:15:00 19.2 C 15.17 g/m*3 19.2 C 1.6 km/h
1409 02-06-2017 21:20:00 19.2 C 15.17 g/m*3 19.2 C 0 km/h
1410 02-06-2017 21:25:00 19.1 C 15.08 g/m*3 19.1 C 0 km/h
1411 02-06-2017 21:30:00 19.1 C 15.08 g/m*3 19.1 C 0 km/h
1412 02-06-2017 21:35:00 18.9 C 14.9 g/m*3 18.9 C 0 km/h
1413 02-06-2017 21:40:00 18.9 C 14.9 g/m*3 18.9 C 0 km/h
1414 02-06-2017 21:45:00 18.8 C 14.82 g/m*3 18.8 C 0 km/h
1415 02-06-2017 21:50:00 18.7 C 14.73 g/m*3 18.7 C 1.6 km/h
1416 02-06-2017 21:55:00 18.7 C 14.73 g/m*3 18.7 C 0 km/h
1417 02-06-2017 22:00:00 18.6 C 14.64 g/m*3 18.6 C 0 km/h
1418 02-06-2017 22:05:00 18.5 C 14.56 g/m*3 18.5 C 0 km/h
1419 02-06-2017 22:10:00 18.4 C 14.47 g/m*3 18.4 C 1.6 km/h
1420 02-06-2017 22:15:00 18.3 C 14.38 g/m*3 18.3 C 1.6 km/h
1421 02-06-2017 22:20:00 18.3 C 14.38 g/m*3 18.3 C 0 km/h
1422 02-06-2017 22:25:00 18.3 C 14.38 g/m*3 18.3 C 0 km/h
1423 02-06-2017 22:30:00 18.2 C 14.3 g/m*3 18.2 C 0 km/h
1424 02-06-2017 22:35:00 18.1 C 14.21 g/m*3 18.1 C 0 km/h
1425 02-06-2017 22:40:00 18 C 14.13 g/m*3 18 C 0 km/h
Sensor: Nr:Datum:Temp:Abs-Feuchte:Windchill:Wind:
Aussen-T/F 1426 02-06-2017 22:45:00 17.9 C 14.05 g/m*3 17.9 C 0 km/h
1427 02-06-2017 22:50:00 17.8 C 13.96 g/m*3 17.8 C 0 km/h
1428 02-06-2017 22:55:00 17.8 C 13.96 g/m*3 17.8 C 0 km/h
1429 02-06-2017 23:00:00 17.8 C 14.12 g/m*3 17.8 C 0 km/h
1430 02-06-2017 23:05:00 17.7 C 14.03 g/m*3 17.7 C 0 km/h
1431 02-06-2017 23:10:00 17.7 C 14.03 g/m*3 17.7 C 0 km/h
1432 02-06-2017 23:15:00 17.7 C 14.03 g/m*3 17.7 C 0 km/h
1433 02-06-2017 23:20:00 17.7 C 14.03 g/m*3 17.7 C 0 km/h
1434 02-06-2017 23:25:00 17.7 C 14.03 g/m*3 17.7 C 0 km/h
1435 02-06-2017 23:30:00 17.6 C 13.95 g/m*3 17.6 C 0 km/h
1436 02-06-2017 23:35:00 17.6 C 13.95 g/m*3 17.6 C 0 km/h
1437 02-06-2017 23:40:00 17.4 C 13.78 g/m*3 17.4 C 0 km/h
1438 02-06-2017 23:45:00 17.3 C 13.7 g/m*3 17.3 C 0 km/h
1439 02-06-2017 23:50:00 17.3 C 13.7 g/m*3 17.3 C 0 km/h
1440 02-06-2017 23:55:00 17.3 C 13.7 g/m*3 17.3 C 0 km/h
1441 03-06-2017 00:00:00 17.2 C 13.77 g/m*3 17.2 C 0 km/h
1442 03-06-2017 00:05:00 17.2 C 13.77 g/m*3 17.2 C 0 km/h
1443 03-06-2017 00:10:00 17.2 C 13.77 g/m*3 17.2 C 0 km/h
1444 03-06-2017 00:15:00 17.1 C 13.68 g/m*3 17.1 C 0 km/h
1445 03-06-2017 00:20:00 16.9 C 13.52 g/m*3 16.9 C 0 km/h
1446 03-06-2017 00:25:00 16.9 C 13.52 g/m*3 16.9 C 0 km/h
1447 03-06-2017 00:30:00 16.8 C 13.44 g/m*3 16.8 C 0 km/h
1448 03-06-2017 00:35:00 16.8 C 13.44 g/m*3 16.8 C 0 km/h
1449 03-06-2017 00:40:00 16.7 C 13.36 g/m*3 16.7 C 0 km/h
1450 03-06-2017 00:45:00 16.7 C 13.36 g/m*3 16.7 C 0 km/h
Sensor: Nr:Datum:Temp:Abs-Feuchte:Windchill:Wind:
Aussen-T/F 1451 03-06-2017 00:50:00 16.6 C 13.28 g/m*3 16.6 C 0 km/h
1452 03-06-2017 00:55:00 16.6 C 13.28 g/m*3 16.6 C 0 km/h
1453 03-06-2017 01:00:00 16.6 C 13.28 g/m*3 16.6 C 0 km/h
1454 03-06-2017 01:05:00 16.6 C 13.28 g/m*3 16.6 C 0 km/h
1455 03-06-2017 01:10:00 16.6 C 13.28 g/m*3 16.6 C 0 km/h
1456 03-06-2017 01:15:00 16.6 C 13.42 g/m*3 16.6 C 0 km/h
1457 03-06-2017 01:20:00 16.5 C 13.34 g/m*3 16.5 C 0 km/h
1458 03-06-2017 01:25:00 16.4 C 13.26 g/m*3 16.4 C 0 km/h
1459 03-06-2017 01:30:00 16.4 C 13.26 g/m*3 16.4 C 0 km/h
1460 03-06-2017 01:35:00 16.3 C 13.04 g/m*3 16.3 C 0 km/h
1461 03-06-2017 01:40:00 16.2 C 13.1 g/m*3 16.2 C 0 km/h
1462 03-06-2017 01:45:00 16.2 C 13.1 g/m*3 16.2 C 0 km/h
1463 03-06-2017 01:50:00 16.2 C 13.1 g/m*3 16.2 C 0 km/h
1464 03-06-2017 01:55:00 16.2 C 13.1 g/m*3 16.2 C 0 km/h
1465 03-06-2017 02:00:00 16.2 C 13.1 g/m*3 16.2 C 0 km/h
1466 03-06-2017 02:05:00 16.2 C 13.1 g/m*3 16.2 C 0 km/h
1467 03-06-2017 02:10:00 16.2 C 13.1 g/m*3 16.2 C 0 km/h
1468 03-06-2017 02:15:00 16.1 C 13.02 g/m*3 16.1 C 0 km/h
1469 03-06-2017 02:20:00 16.1 C 13.02 g/m*3 16.1 C 0 km/h
1470 03-06-2017 02:25:00 16 C 12.94 g/m*3 16 C 0 km/h
1471 03-06-2017 02:30:00 16.1 C 13.16 g/m*3 16.1 C 0 km/h
1472 03-06-2017 02:35:00 16.2 C 13.1 g/m*3 16.2 C 0 km/h
1473 03-06-2017 02:40:00 16.1 C 13.02 g/m*3 16.1 C 0 km/h
1474 03-06-2017 02:45:00 16 C 12.94 g/m*3 16 C 0 km/h
1475 03-06-2017 02:50:00 15.9 C 12.87 g/m*3 15.9 C 0 km/h
Sensor: Nr:Datum:Temp:Abs-Feuchte:Windchill:Wind:
Aussen-T/F 1476 03-06-2017 02:55:00 15.9 C 12.87 g/m*3 15.9 C 0 km/h
1477 03-06-2017 03:00:00 15.8 C 12.79 g/m*3 15.8 C 0 km/h
1478 03-06-2017 03:05:00 15.9 C 13 g/m*3 15.9 C 0 km/h
1479 03-06-2017 03:10:00 15.9 C 13 g/m*3 15.9 C 0 km/h
1480 03-06-2017 03:15:00 16 C 13.08 g/m*3 16 C 0 km/h
1481 03-06-2017 03:20:00 16.1 C 13.16 g/m*3 16.1 C 0 km/h
1482 03-06-2017 03:25:00 16.3 C 13.32 g/m*3 16.3 C 0 km/h
1483 03-06-2017 03:30:00 16.5 C 13.48 g/m*3 16.5 C 0 km/h
1484 03-06-2017 03:35:00 16.6 C 13.56 g/m*3 16.6 C 0 km/h
1485 03-06-2017 03:40:00 16.7 C 13.64 g/m*3 16.7 C 0 km/h
1486 03-06-2017 03:45:00 16.6 C 13.56 g/m*3 16.6 C 0 km/h
1487 03-06-2017 03:50:00 16.6 C 13.56 g/m*3 16.6 C 0 km/h
1488 03-06-2017 03:55:00 16.6 C 13.56 g/m*3 16.6 C 0 km/h
1489 03-06-2017 04:00:00 16.5 C 13.48 g/m*3 16.5 C 0 km/h
1490 03-06-2017 04:05:00 16.4 C 13.4 g/m*3 16.4 C 0 km/h
1491 03-06-2017 04:10:00 16.3 C 13.32 g/m*3 16.3 C 0 km/h
1492 03-06-2017 04:15:00 16.3 C 13.32 g/m*3 16.3 C 0 km/h
1493 03-06-2017 04:20:00 16.2 C 13.24 g/m*3 16.2 C 0 km/h
1494 03-06-2017 04:25:00 16.1 C 13.02 g/m*3 16.1 C 0 km/h
1495 03-06-2017 04:30:00 16.1 C 13.16 g/m*3 16.1 C 0 km/h
1496 03-06-2017 04:35:00 16 C 13.08 g/m*3 16 C 0 km/h
1497 03-06-2017 04:40:00 16.1 C 13.16 g/m*3 16.1 C 0 km/h
1498 03-06-2017 04:45:00 16.1 C 13.16 g/m*3 16.1 C 0 km/h
1499 03-06-2017 04:50:00 16.1 C 13.16 g/m*3 16.1 C 0 km/h
1500 03-06-2017 04:55:00 16.1 C 13.16 g/m*3 16.1 C 0 km/h
Sensor: Nr:Datum:Temp:Abs-Feuchte:Windchill:Wind:
Aussen-T/F 1501 03-06-2017 05:00:00 16.2 C 13.24 g/m*3 16.2 C 0 km/h
1502 03-06-2017 05:05:00 16.2 C 13.24 g/m*3 16.2 C 3.2 km/h
1503 03-06-2017 05:10:00 16.3 C 13.32 g/m*3 16.3 C 0 km/h
1504 03-06-2017 05:15:00 16.4 C 13.4 g/m*3 16.4 C 0 km/h
1505 03-06-2017 05:20:00 16.4 C 13.4 g/m*3 16.4 C 3.2 km/h
1506 03-06-2017 05:25:00 16.5 C 13.48 g/m*3 16.5 C 1.6 km/h
1507 03-06-2017 05:30:00 16.5 C 13.48 g/m*3 16.5 C 0 km/h
1508 03-06-2017 05:35:00 16.4 C 13.4 g/m*3 16.4 C 1.6 km/h
1509 03-06-2017 05:40:00 16.4 C 13.4 g/m*3 16.4 C 1.6 km/h
1510 03-06-2017 05:45:00 16.3 C 13.32 g/m*3 16.3 C 0 km/h
1511 03-06-2017 05:50:00 16.3 C 13.32 g/m*3 16.3 C 0 km/h
1512 03-06-2017 05:55:00 16.3 C 13.32 g/m*3 16.3 C 0 km/h
1513 03-06-2017 06:00:00 16.3 C 13.32 g/m*3 16.3 C 0 km/h
1514 03-06-2017 06:05:00 16.3 C 13.32 g/m*3 16.3 C 0 km/h
1515 03-06-2017 06:10:00 16.3 C 13.32 g/m*3 16.3 C 0 km/h
1516 03-06-2017 06:15:00 16.4 C 13.4 g/m*3 16.4 C 0 km/h
1517 03-06-2017 06:20:00 16.4 C 13.4 g/m*3 16.4 C 0 km/h
1518 03-06-2017 06:25:00 16.4 C 13.4 g/m*3 16.4 C 0 km/h
1519 03-06-2017 06:30:00 16.4 C 13.4 g/m*3 16.4 C 0 km/h
1520 03-06-2017 06:35:00 16.5 C 13.48 g/m*3 16.5 C 0 km/h
1521 03-06-2017 06:40:00 16.6 C 13.7 g/m*3 16.6 C 0 km/h
1522 03-06-2017 06:45:00 16.7 C 13.79 g/m*3 16.7 C 0 km/h
1523 03-06-2017 06:50:00 16.7 C 13.79 g/m*3 16.7 C 0 km/h
1524 03-06-2017 06:55:00 16.8 C 13.87 g/m*3 16.8 C 1.6 km/h
1525 03-06-2017 07:00:00 16.9 C 13.95 g/m*3 16.9 C 1.6 km/h
Sensor: Nr:Datum:Temp:Abs-Feuchte:Windchill:Wind:
Aussen-T/F 1526 03-06-2017 07:05:00 17.1 C 14.12 g/m*3 17.1 C 0 km/h
1527 03-06-2017 07:10:00 17.2 C 14.2 g/m*3 17.2 C 0 km/h
1528 03-06-2017 07:15:00 17.2 C 14.2 g/m*3 17.2 C 0 km/h
1529 03-06-2017 07:20:00 17.3 C 14.14 g/m*3 17.3 C 0 km/h
1530 03-06-2017 07:25:00 17.3 C 14.29 g/m*3 17.3 C 0 km/h
1531 03-06-2017 07:30:00 17.4 C 14.38 g/m*3 17.4 C 1.6 km/h
1532 03-06-2017 07:35:00 17.5 C 14.31 g/m*3 17.5 C 1.6 km/h
1533 03-06-2017 07:40:00 17.5 C 14.31 g/m*3 17.5 C 0 km/h
1534 03-06-2017 07:45:00 17.4 C 14.23 g/m*3 17.4 C 0 km/h
1535 03-06-2017 07:50:00 17.4 C 14.23 g/m*3 17.4 C 1.6 km/h
1536 03-06-2017 07:55:00 17.5 C 14.31 g/m*3 17.5 C 0 km/h
1537 03-06-2017 08:00:00 17.6 C 14.4 g/m*3 17.6 C 0 km/h
1538 03-06-2017 08:05:00 17.6 C 14.4 g/m*3 17.6 C 0 km/h
1539 03-06-2017 08:10:00 17.6 C 14.4 g/m*3 17.6 C 0 km/h
1540 03-06-2017 08:15:00 17.7 C 14.48 g/m*3 17.7 C 1.6 km/h
1541 03-06-2017 08:20:00 17.7 C 14.48 g/m*3 17.7 C 0 km/h
1542 03-06-2017 08:25:00 17.7 C 14.48 g/m*3 17.7 C 0 km/h
1543 03-06-2017 08:30:00 17.7 C 14.48 g/m*3 17.7 C 0 km/h
1544 03-06-2017 08:35:00 17.8 C 14.57 g/m*3 17.8 C 1.6 km/h
1545 03-06-2017 08:40:00 17.8 C 14.42 g/m*3 17.8 C 0 km/h
1546 03-06-2017 08:45:00 17.9 C 14.5 g/m*3 17.9 C 0 km/h
1547 03-06-2017 08:50:00 18 C 14.59 g/m*3 18 C 0 km/h
1548 03-06-2017 08:55:00 18.1 C 14.68 g/m*3 18.1 C 0 km/h
1549 03-06-2017 09:00:00 18.1 C 14.68 g/m*3 18.1 C 1.6 km/h
1550 03-06-2017 09:05:00 18.2 C 14.77 g/m*3 18.2 C 0 km/h
Sensor: Nr:Datum:Temp:Abs-Feuchte:Windchill:Wind:
Aussen-T/F 1551 03-06-2017 09:10:00 18.3 C 14.85 g/m*3 18.3 C 0 km/h
1552 03-06-2017 09:15:00 18.3 C 14.85 g/m*3 18.3 C 0 km/h
1553 03-06-2017 09:20:00 18.4 C 14.78 g/m*3 18.4 C 0 km/h
1554 03-06-2017 09:25:00 18.4 C 14.78 g/m*3 18.4 C 0 km/h
1555 03-06-2017 09:30:00 18.6 C 14.96 g/m*3 18.6 C 1.6 km/h
1556 03-06-2017 09:35:00 18.7 C 15.05 g/m*3 18.7 C 0 km/h
1557 03-06-2017 09:40:00 18.7 C 15.05 g/m*3 18.7 C 0 km/h
1558 03-06-2017 09:45:00 18.8 C 15.14 g/m*3 18.8 C 0 km/h
1559 03-06-2017 09:50:00 18.9 C 15.23 g/m*3 18.9 C 0 km/h
1560 03-06-2017 09:55:00 19 C 15.16 g/m*3 19 C 0 km/h
1561 03-06-2017 10:00:00 19.1 C 15.25 g/m*3 19.1 C 1.6 km/h
1562 03-06-2017 10:05:00 19.2 C 15.34 g/m*3 19.2 C 0 km/h
1563 03-06-2017 10:10:00 19.2 C 15.34 g/m*3 19.2 C 0 km/h
1564 03-06-2017 10:15:00 19.3 C 15.43 g/m*3 19.3 C 0 km/h
1565 03-06-2017 10:20:00 19.4 C 15.52 g/m*3 19.4 C 0 km/h
1566 03-06-2017 10:25:00 19.5 C 15.61 g/m*3 19.5 C 1.6 km/h
1567 03-06-2017 10:30:00 19.6 C 15.7 g/m*3 19.6 C 0 km/h
1568 03-06-2017 10:35:00 19.6 C 15.7 g/m*3 19.6 C 0 km/h
1569 03-06-2017 10:40:00 19.7 C 15.79 g/m*3 19.7 C 0 km/h
1570 03-06-2017 10:45:00 19.8 C 15.89 g/m*3 19.8 C 0 km/h
1571 03-06-2017 10:50:00 20 C 16.07 g/m*3 20 C 1.6 km/h
1572 03-06-2017 10:55:00 20.1 C 16.17 g/m*3 20.1 C 1.6 km/h
1573 03-06-2017 11:00:00 20.2 C 16.09 g/m*3 20.2 C 0 km/h
1574 03-06-2017 11:05:00 20.3 C 16.18 g/m*3 20.3 C 0 km/h
1575 03-06-2017 11:10:00 20.5 C 16.37 g/m*3 20.5 C 1.6 km/h
Sensor: Nr:Datum:Temp:Abs-Feuchte:Windchill:Wind:
Aussen-T/F 1576 03-06-2017 11:15:00 20.7 C 16.56 g/m*3 20.7 C 1.6 km/h
1577 03-06-2017 11:20:00 20.8 C 16.48 g/m*3 20.8 C 1.6 km/h
1578 03-06-2017 11:25:00 20.9 C 16.39 g/m*3 20.9 C 1.6 km/h
1579 03-06-2017 11:30:00 21 C 16.3 g/m*3 21 C 3.2 km/h
1580 03-06-2017 11:35:00 21.1 C 16.21 g/m*3 21.1 C 0 km/h
1581 03-06-2017 11:40:00 21.2 C 16.31 g/m*3 21.2 C 1.6 km/h
1582 03-06-2017 11:45:00 21.3 C 16.4 g/m*3 21.3 C 1.6 km/h
1583 03-06-2017 11:50:00 21.5 C 16.59 g/m*3 21.5 C 0 km/h
1584 03-06-2017 11:55:00 21.7 C 16.98 g/m*3 21.7 C 0 km/h
1585 03-06-2017 12:00:00 21.7 C 16.6 g/m*3 21.7 C 3.2 km/h
1586 03-06-2017 12:05:00 21.9 C 16.98 g/m*3 21.9 C 0 km/h
1587 03-06-2017 12:10:00 22.1 C 16.59 g/m*3 22.1 C 0 km/h
1588 03-06-2017 12:15:00 22.2 C 16.3 g/m*3 22.2 C 4.8 km/h
1589 03-06-2017 12:20:00 22.4 C 16.09 g/m*3 22.4 C 8.1 km/h
1590 03-06-2017 12:25:00 22.7 C 16.57 g/m*3 22.7 C 4.8 km/h
1591 03-06-2017 12:30:00 22.8 C 16.66 g/m*3 22.8 C 4.8 km/h
1592 03-06-2017 12:35:00 23 C 16.85 g/m*3 23 C 0 km/h
1593 03-06-2017 12:40:00 23.2 C 16.84 g/m*3 23.2 C 3.2 km/h
1594 03-06-2017 12:45:00 23.3 C 16.73 g/m*3 23.3 C 4.8 km/h
1595 03-06-2017 12:50:00 23.5 C 16.5 g/m*3 23.5 C 9.7 km/h
1596 03-06-2017 12:55:00 23.7 C 16.47 g/m*3 23.7 C 8.1 km/h
1597 03-06-2017 13:00:00 23.9 C 16.23 g/m*3 23.9 C 11.3 km/h
1598 03-06-2017 13:05:00 24.1 C 16.41 g/m*3 24.1 C 9.7 km/h
1599 03-06-2017 13:10:00 24.3 C 16.82 g/m*3 24.3 C 4.8 km/h
1600 03-06-2017 13:15:00 24.2 C 16.06 g/m*3 24.2 C 6.4 km/h
Sensor: Nr:Datum:Temp:Abs-Feuchte:Windchill:Wind:
Aussen-T/F 1601 03-06-2017 13:20:00 23.9 C 15.58 g/m*3 23.9 C 22.5 km/h
1602 03-06-2017 13:25:00 21.9 C 13.89 g/m*3 21.9 C 25.7 km/h
1603 03-06-2017 13:30:00 19.4 C 13.35 g/m*3 19.4 C 17.7 km/h
1604 03-06-2017 13:35:00 18.4 C 13.53 g/m*3 18.4 C 8.1 km/h
1605 03-06-2017 13:40:00 18.2 C 13.83 g/m*3 18.2 C 0 km/h
1606 03-06-2017 13:45:00 18.3 C 14.38 g/m*3 18.3 C 1.6 km/h
1607 03-06-2017 13:50:00 18.5 C 14.71 g/m*3 18.5 C 1.6 km/h
1608 03-06-2017 13:55:00 18.6 C 14.8 g/m*3 18.6 C 0 km/h
1609 03-06-2017 14:00:00 18.7 C 14.89 g/m*3 18.7 C 1.6 km/h
1610 03-06-2017 14:05:00 18.8 C 14.98 g/m*3 18.8 C 0 km/h
1611 03-06-2017 14:10:00 19.1 C 15.41 g/m*3 19.1 C 3.2 km/h
1612 03-06-2017 14:15:00 19.2 C 15.5 g/m*3 19.2 C 1.6 km/h
1613 03-06-2017 14:20:00 19.2 C 15.34 g/m*3 19.2 C 0 km/h
1614 03-06-2017 14:25:00 19.2 C 15.5 g/m*3 19.2 C 0 km/h
1615 03-06-2017 14:30:00 19.1 C 15.41 g/m*3 19.1 C 3.2 km/h
1616 03-06-2017 14:35:00 19 C 15.32 g/m*3 19 C 0 km/h
1617 03-06-2017 14:40:00 18.9 C 15.23 g/m*3 18.9 C 0 km/h
1618 03-06-2017 14:45:00 19.2 C 15.66 g/m*3 19.2 C 0 km/h
1619 03-06-2017 14:50:00 19.5 C 15.94 g/m*3 19.5 C 1.6 km/h
1620 03-06-2017 14:55:00 19.9 C 16.49 g/m*3 19.9 C 0 km/h
1621 03-06-2017 15:00:00 20.6 C 17.36 g/m*3 20.6 C 3.2 km/h
1622 03-06-2017 15:05:00 20.6 C 17.18 g/m*3 20.6 C 0 km/h
1623 03-06-2017 15:10:00 20.6 C 17 g/m*3 20.6 C 1.6 km/h
1624 03-06-2017 15:15:00 20.6 C 17 g/m*3 20.6 C 1.6 km/h
1625 03-06-2017 15:20:00 20.7 C 17.1 g/m*3 20.7 C 1.6 km/h
Sensor: Nr:Datum:Temp:Abs-Feuchte:Windchill:Wind:
Aussen-T/F 1626 03-06-2017 15:25:00 20.8 C 17.02 g/m*3 20.8 C 1.6 km/h
1627 03-06-2017 15:30:00 20.9 C 17.3 g/m*3 20.9 C 0 km/h
1628 03-06-2017 15:35:00 21.2 C 17.61 g/m*3 21.2 C 0 km/h
1629 03-06-2017 15:40:00 21.7 C 18.31 g/m*3 21.7 C 0 km/h
1630 03-06-2017 15:45:00 21.8 C 18.23 g/m*3 21.8 C 0 km/h
1631 03-06-2017 15:50:00 21.8 C 18.23 g/m*3 21.8 C 0 km/h
1632 03-06-2017 15:55:00 22.1 C 18.54 g/m*3 22.1 C 0 km/h
1633 03-06-2017 16:00:00 22.1 C 18.54 g/m*3 22.1 C 0 km/h
1634 03-06-2017 16:05:00 22.1 C 18.35 g/m*3 22.1 C 0 km/h
1635 03-06-2017 16:10:00 21.9 C 18.14 g/m*3 21.9 C 0 km/h
1636 03-06-2017 16:15:00 21.7 C 17.74 g/m*3 21.7 C 0 km/h
1637 03-06-2017 16:20:00 21.6 C 17.64 g/m*3 21.6 C 0 km/h
1638 03-06-2017 16:25:00 21.6 C 17.83 g/m*3 21.6 C 0 km/h
1639 03-06-2017 16:30:00 21.7 C 17.93 g/m*3 21.7 C 0 km/h
1640 03-06-2017 16:35:00 21.7 C 17.93 g/m*3 21.7 C 0 km/h
1641 03-06-2017 16:40:00 21.7 C 17.93 g/m*3 21.7 C 0 km/h
1642 03-06-2017 16:45:00 21.8 C 18.03 g/m*3 21.8 C 0 km/h
1643 03-06-2017 16:50:00 22.1 C 18.35 g/m*3 22.1 C 0 km/h
1644 03-06-2017 16:55:00 22.2 C 18.45 g/m*3 22.2 C 0 km/h
1645 03-06-2017 17:00:00 22.3 C 18.56 g/m*3 22.3 C 0 km/h
1646 03-06-2017 17:05:00 22.3 C 18.56 g/m*3 22.3 C 0 km/h
1647 03-06-2017 17:10:00 22.2 C 18.45 g/m*3 22.2 C 0 km/h
1648 03-06-2017 17:15:00 22.2 C 18.45 g/m*3 22.2 C 0 km/h
1649 03-06-2017 17:20:00 22.2 C 18.45 g/m*3 22.2 C 0 km/h
1650 03-06-2017 17:25:00 22.2 C 18.45 g/m*3 22.2 C 0 km/h
Sensor: Nr:Datum:Temp:Abs-Feuchte:Windchill:Wind:
Aussen-T/F 1651 03-06-2017 17:30:00 22.3 C 18.56 g/m*3 22.3 C 0 km/h
1652 03-06-2017 17:35:00 22.4 C 18.67 g/m*3 22.4 C 0 km/h
1653 03-06-2017 17:40:00 22.4 C 18.67 g/m*3 22.4 C 0 km/h
1654 03-06-2017 17:45:00 22.4 C 18.67 g/m*3 22.4 C 0 km/h
1655 03-06-2017 17:50:00 22.5 C 18.78 g/m*3 22.5 C 0 km/h
1656 03-06-2017 17:55:00 22.6 C 18.68 g/m*3 22.6 C 0 km/h
1657 03-06-2017 18:00:00 22.7 C 18.99 g/m*3 22.7 C 0 km/h
1658 03-06-2017 18:05:00 22.7 C 18.79 g/m*3 22.7 C 0 km/h
1659 03-06-2017 18:10:00 22.6 C 18.48 g/m*3 22.6 C 0 km/h
1660 03-06-2017 18:15:00 22.6 C 18.48 g/m*3 22.6 C 0 km/h
1661 03-06-2017 18:20:00 22.5 C 18.38 g/m*3 22.5 C 0 km/h
1662 03-06-2017 18:25:00 22.5 C 18.38 g/m*3 22.5 C 1.6 km/h
1663 03-06-2017 18:30:00 22.5 C 18.38 g/m*3 22.5 C 0 km/h
1664 03-06-2017 18:35:00 22.4 C 18.27 g/m*3 22.4 C 0 km/h
1665 03-06-2017 18:40:00 22.4 C 18.27 g/m*3 22.4 C 1.6 km/h
1666 03-06-2017 18:45:00 22.2 C 17.87 g/m*3 22.2 C 0 km/h
1667 03-06-2017 18:50:00 22.1 C 17.76 g/m*3 22.1 C 0 km/h
1668 03-06-2017 18:55:00 21.9 C 17.56 g/m*3 21.9 C 0 km/h
1669 03-06-2017 19:00:00 21.8 C 17.46 g/m*3 21.8 C 0 km/h
1670 03-06-2017 19:05:00 21.7 C 17.36 g/m*3 21.7 C 0 km/h
1671 03-06-2017 19:10:00 21.5 C 17.35 g/m*3 21.5 C 0 km/h
1672 03-06-2017 19:15:00 21.3 C 17.15 g/m*3 21.3 C 0 km/h
1673 03-06-2017 19:20:00 21.2 C 17.05 g/m*3 21.2 C 0 km/h
1674 03-06-2017 19:25:00 21.2 C 17.23 g/m*3 21.2 C 1.6 km/h
1675 03-06-2017 19:30:00 21.1 C 17.14 g/m*3 21.1 C 0 km/h
Sensor: Nr:Datum:Temp:Abs-Feuchte:Windchill:Wind:
Aussen-T/F 1676 03-06-2017 19:35:00 20.9 C 16.94 g/m*3 20.9 C 0 km/h
1677 03-06-2017 19:40:00 20.9 C 16.94 g/m*3 20.9 C 0 km/h
1678 03-06-2017 19:45:00 20.8 C 16.84 g/m*3 20.8 C 0 km/h
1679 03-06-2017 19:50:00 20.7 C 16.74 g/m*3 20.7 C 0 km/h
1680 03-06-2017 19:55:00 20.6 C 16.64 g/m*3 20.6 C 1.6 km/h
1681 03-06-2017 20:00:00 20.4 C 16.45 g/m*3 20.4 C 0 km/h
1682 03-06-2017 20:05:00 20.3 C 16.36 g/m*3 20.3 C 1.6 km/h
1683 03-06-2017 20:10:00 20.2 C 16.26 g/m*3 20.2 C 1.6 km/h
1684 03-06-2017 20:15:00 19.9 C 16.15 g/m*3 19.9 C 0 km/h
1685 03-06-2017 20:20:00 19.8 C 16.06 g/m*3 19.8 C 0 km/h
1686 03-06-2017 20:25:00 19.7 C 15.96 g/m*3 19.7 C 0 km/h
1687 03-06-2017 20:30:00 19.6 C 15.87 g/m*3 19.6 C 0 km/h
1688 03-06-2017 20:35:00 19.4 C 15.68 g/m*3 19.4 C 0 km/h
1689 03-06-2017 20:40:00 19.3 C 15.59 g/m*3 19.3 C 0 km/h
1690 03-06-2017 20:45:00 19.2 C 15.5 g/m*3 19.2 C 1.6 km/h
1691 03-06-2017 20:50:00 19.1 C 15.41 g/m*3 19.1 C 0 km/h
1692 03-06-2017 20:55:00 19.1 C 15.41 g/m*3 19.1 C 0 km/h
1693 03-06-2017 21:00:00 18.9 C 15.23 g/m*3 18.9 C 0 km/h
1694 03-06-2017 21:05:00 18.9 C 15.23 g/m*3 18.9 C 0 km/h
1695 03-06-2017 21:10:00 18.8 C 15.14 g/m*3 18.8 C 0 km/h
1696 03-06-2017 21:15:00 18.8 C 15.3 g/m*3 18.8 C 1.6 km/h
1697 03-06-2017 21:20:00 18.7 C 15.21 g/m*3 18.7 C 0 km/h
1698 03-06-2017 21:25:00 18.6 C 15.12 g/m*3 18.6 C 3.2 km/h
1699 03-06-2017 21:30:00 18.6 C 15.12 g/m*3 18.6 C 0 km/h
1700 03-06-2017 21:35:00 18.5 C 15.03 g/m*3 18.5 C 1.6 km/h
Sensor: Nr:Datum:Temp:Abs-Feuchte:Windchill:Wind:
Aussen-T/F 1701 03-06-2017 21:40:00 18.4 C 14.94 g/m*3 18.4 C 1.6 km/h
1702 03-06-2017 21:45:00 18.2 C 14.77 g/m*3 18.2 C 1.6 km/h
1703 03-06-2017 21:50:00 18.1 C 14.52 g/m*3 18.1 C 0 km/h
1704 03-06-2017 21:55:00 17.9 C 14.5 g/m*3 17.9 C 1.6 km/h
1705 03-06-2017 22:00:00 17.8 C 14.42 g/m*3 17.8 C 0 km/h
1706 03-06-2017 22:05:00 17.7 C 14.33 g/m*3 17.7 C 0 km/h
1707 03-06-2017 22:10:00 17.6 C 14.25 g/m*3 17.6 C 0 km/h
1708 03-06-2017 22:15:00 17.6 C 14.25 g/m*3 17.6 C 0 km/h
1709 03-06-2017 22:20:00 17.5 C 14.16 g/m*3 17.5 C 0 km/h
1710 03-06-2017 22:25:00 17.4 C 14.08 g/m*3 17.4 C 0 km/h
1711 03-06-2017 22:30:00 17.4 C 14.08 g/m*3 17.4 C 0 km/h
1712 03-06-2017 22:35:00 17.4 C 14.08 g/m*3 17.4 C 1.6 km/h
1713 03-06-2017 22:40:00 17.3 C 14 g/m*3 17.3 C 0 km/h
1714 03-06-2017 22:45:00 17.3 C 14 g/m*3 17.3 C 0 km/h
1715 03-06-2017 22:50:00 17.3 C 14.14 g/m*3 17.3 C 0 km/h
1716 03-06-2017 22:55:00 17.3 C 14.14 g/m*3 17.3 C 0 km/h
1717 03-06-2017 23:00:00 17.3 C 14.14 g/m*3 17.3 C 0 km/h
1718 03-06-2017 23:05:00 17.2 C 14.06 g/m*3 17.2 C 0 km/h
1719 03-06-2017 23:10:00 17.2 C 14.06 g/m*3 17.2 C 0 km/h
1720 03-06-2017 23:15:00 17.2 C 14.06 g/m*3 17.2 C 0 km/h
1721 03-06-2017 23:20:00 17.2 C 14.06 g/m*3 17.2 C 0 km/h
1722 03-06-2017 23:25:00 17.1 C 13.97 g/m*3 17.1 C 0 km/h
1723 03-06-2017 23:30:00 17.1 C 13.97 g/m*3 17.1 C 1.6 km/h
1724 03-06-2017 23:35:00 17.1 C 13.97 g/m*3 17.1 C 0 km/h
1725 03-06-2017 23:40:00 17 C 13.89 g/m*3 17 C 0 km/h
Sensor: Nr:Datum:Temp:Abs-Feuchte:Windchill:Wind:
Aussen-T/F 1726 03-06-2017 23:45:00 17 C 13.89 g/m*3 17 C 0 km/h
1727 03-06-2017 23:50:00 16.9 C 13.81 g/m*3 16.9 C 0 km/h
1728 03-06-2017 23:55:00 16.9 C 13.81 g/m*3 16.9 C 0 km/h
1729 04-06-2017 00:00:00 16.9 C 13.81 g/m*3 16.9 C 0 km/h
1730 04-06-2017 00:05:00 17 C 13.89 g/m*3 17 C 0 km/h
1731 04-06-2017 00:10:00 17 C 13.89 g/m*3 17 C 0 km/h
1732 04-06-2017 00:15:00 17 C 13.89 g/m*3 17 C 0 km/h
1733 04-06-2017 00:20:00 17 C 13.89 g/m*3 17 C 0 km/h
1734 04-06-2017 00:25:00 17.1 C 13.97 g/m*3 17.1 C 0 km/h
1735 04-06-2017 00:30:00 17.1 C 13.97 g/m*3 17.1 C 1.6 km/h
1736 04-06-2017 00:35:00 17.1 C 13.97 g/m*3 17.1 C 4.8 km/h
1737 04-06-2017 00:40:00 17 C 13.89 g/m*3 17 C 6.4 km/h
1738 04-06-2017 00:45:00 16.7 C 13.5 g/m*3 16.7 C 8.1 km/h
1739 04-06-2017 00:50:00 16.5 C 13.34 g/m*3 16.5 C 8.1 km/h
1740 04-06-2017 00:55:00 16.4 C 13.4 g/m*3 16.4 C 8.1 km/h
1741 04-06-2017 01:00:00 16.4 C 13.26 g/m*3 16.4 C 3.2 km/h
1742 04-06-2017 01:05:00 16.4 C 13.4 g/m*3 16.4 C 3.2 km/h
1743 04-06-2017 01:10:00 16.4 C 13.4 g/m*3 16.4 C 0 km/h
1744 04-06-2017 01:15:00 16.4 C 13.4 g/m*3 16.4 C 1.6 km/h
1745 04-06-2017 01:20:00 16.4 C 13.4 g/m*3 16.4 C 4.8 km/h
1746 04-06-2017 01:25:00 16.4 C 13.4 g/m*3 16.4 C 1.6 km/h
1747 04-06-2017 01:30:00 16.3 C 13.32 g/m*3 16.3 C 3.2 km/h
1748 04-06-2017 01:35:00 16.3 C 13.32 g/m*3 16.3 C 0 km/h
1749 04-06-2017 01:40:00 16.3 C 13.32 g/m*3 16.3 C 3.2 km/h
1750 04-06-2017 01:45:00 16.3 C 13.32 g/m*3 16.3 C 1.6 km/h
Sensor: Nr:Datum:Temp:Abs-Feuchte:Windchill:Wind:
Aussen-T/F 1751 04-06-2017 01:50:00 16.3 C 13.32 g/m*3 16.3 C 0 km/h
1752 04-06-2017 01:55:00 16.3 C 13.32 g/m*3 16.3 C 3.2 km/h
1753 04-06-2017 02:00:00 16.3 C 13.32 g/m*3 16.3 C 4.8 km/h
1754 04-06-2017 02:05:00 16.2 C 13.24 g/m*3 16.2 C 9.7 km/h
1755 04-06-2017 02:10:00 15.9 C 12.87 g/m*3 15.9 C 11.3 km/h
1756 04-06-2017 02:15:00 15.8 C 12.79 g/m*3 15.8 C 4.8 km/h
1757 04-06-2017 02:20:00 15.7 C 12.71 g/m*3 15.7 C 9.7 km/h
1758 04-06-2017 02:25:00 15.6 C 12.63 g/m*3 15.6 C 11.3 km/h
1759 04-06-2017 02:30:00 15.5 C 12.56 g/m*3 15.5 C 6.4 km/h
1760 04-06-2017 02:35:00 15.4 C 12.48 g/m*3 15.4 C 11.3 km/h
1761 04-06-2017 02:40:00 15.4 C 12.48 g/m*3 15.4 C 12.9 km/h
1762 04-06-2017 02:45:00 15.4 C 12.48 g/m*3 15.4 C 8.1 km/h
1763 04-06-2017 02:50:00 15.3 C 12.41 g/m*3 15.3 C 9.7 km/h
1764 04-06-2017 02:55:00 15.3 C 12.41 g/m*3 15.3 C 9.7 km/h
1765 04-06-2017 03:00:00 15.1 C 12.13 g/m*3 15.1 C 16.1 km/h
1766 04-06-2017 03:05:00 14.9 C 11.98 g/m*3 14.9 C 16.1 km/h
1767 04-06-2017 03:10:00 14.8 C 11.91 g/m*3 14.8 C 12.9 km/h
1768 04-06-2017 03:15:00 14.7 C 11.83 g/m*3 14.7 C 14.5 km/h
1769 04-06-2017 03:20:00 14.7 C 11.83 g/m*3 14.7 C 6.4 km/h
1770 04-06-2017 03:25:00 14.7 C 11.83 g/m*3 14.7 C 6.4 km/h
1771 04-06-2017 03:30:00 14.7 C 11.96 g/m*3 14.7 C 4.8 km/h
1772 04-06-2017 03:35:00 14.6 C 11.89 g/m*3 14.6 C 4.8 km/h
1773 04-06-2017 03:40:00 14.7 C 11.96 g/m*3 14.7 C 6.4 km/h
1774 04-06-2017 03:45:00 14.7 C 11.96 g/m*3 14.7 C 8.1 km/h
1775 04-06-2017 03:50:00 14.7 C 11.96 g/m*3 14.7 C 8.1 km/h
Sensor: Nr:Datum:Temp:Abs-Feuchte:Windchill:Wind:
Aussen-T/F 1776 04-06-2017 03:55:00 14.6 C 11.89 g/m*3 14.6 C 9.7 km/h
1777 04-06-2017 04:00:00 14.6 C 11.89 g/m*3 14.6 C 8.1 km/h
1778 04-06-2017 04:05:00 14.6 C 11.89 g/m*3 14.6 C 6.4 km/h
1779 04-06-2017 04:10:00 14.6 C 11.89 g/m*3 14.6 C 6.4 km/h
1780 04-06-2017 04:15:00 14.6 C 11.89 g/m*3 14.6 C 8.1 km/h
1781 04-06-2017 04:20:00 14.6 C 11.89 g/m*3 14.6 C 3.2 km/h
1782 04-06-2017 04:25:00 14.6 C 11.89 g/m*3 14.6 C 4.8 km/h
1783 04-06-2017 04:30:00 14.6 C 11.89 g/m*3 14.6 C 4.8 km/h
1784 04-06-2017 04:35:00 14.6 C 11.89 g/m*3 14.6 C 4.8 km/h
1785 04-06-2017 04:40:00 14.6 C 11.89 g/m*3 14.6 C 0 km/h
1786 04-06-2017 04:45:00 14.6 C 11.89 g/m*3 14.6 C 0 km/h
1787 04-06-2017 04:50:00 14.5 C 11.82 g/m*3 14.5 C 6.4 km/h
1788 04-06-2017 04:55:00 14.4 C 11.74 g/m*3 14.4 C 8.1 km/h
1789 04-06-2017 05:00:00 14.4 C 11.74 g/m*3 14.4 C 9.7 km/h
1790 04-06-2017 05:05:00 14.3 C 11.67 g/m*3 14.3 C 1.6 km/h
1791 04-06-2017 05:10:00 14.3 C 11.79 g/m*3 14.3 C 6.4 km/h
1792 04-06-2017 05:15:00 14.3 C 11.67 g/m*3 14.3 C 3.2 km/h
1793 04-06-2017 05:20:00 14.3 C 11.67 g/m*3 14.3 C 1.6 km/h
1794 04-06-2017 05:25:00 14.3 C 11.67 g/m*3 14.3 C 0 km/h
1795 04-06-2017 05:30:00 14.3 C 11.79 g/m*3 14.3 C 4.8 km/h
1796 04-06-2017 05:35:00 14.3 C 11.79 g/m*3 14.3 C 6.4 km/h
1797 04-06-2017 05:40:00 14.2 C 11.72 g/m*3 14.2 C 3.2 km/h
1798 04-06-2017 05:45:00 14.2 C 11.72 g/m*3 14.2 C 0 km/h
1799 04-06-2017 05:50:00 14.1 C 11.65 g/m*3 14.1 C 8.1 km/h
1800 04-06-2017 05:55:00 14.1 C 11.65 g/m*3 14.1 C 3.2 km/h
Sensor: Nr:Datum:Temp:Abs-Feuchte:Windchill:Wind:
Aussen-T/F 1801 04-06-2017 06:00:00 14 C 11.58 g/m*3 14 C 0 km/h
1802 04-06-2017 06:05:00 14 C 11.58 g/m*3 14 C 0 km/h
1803 04-06-2017 06:10:00 13.9 C 11.51 g/m*3 13.9 C 0 km/h
1804 04-06-2017 06:15:00 13.9 C 11.51 g/m*3 13.9 C 0 km/h
1805 04-06-2017 06:20:00 13.8 C 11.44 g/m*3 13.8 C 0 km/h
1806 04-06-2017 06:25:00 13.9 C 11.51 g/m*3 13.9 C 0 km/h
1807 04-06-2017 06:30:00 13.9 C 11.51 g/m*3 13.9 C 1.6 km/h
1808 04-06-2017 06:35:00 13.9 C 11.51 g/m*3 13.9 C 0 km/h
1809 04-06-2017 06:40:00 13.9 C 11.51 g/m*3 13.9 C 0 km/h
1810 04-06-2017 06:45:00 14 C 11.58 g/m*3 14 C 0 km/h
1811 04-06-2017 06:50:00 14.1 C 11.65 g/m*3 14.1 C 0 km/h
1812 04-06-2017 06:55:00 14.1 C 11.65 g/m*3 14.1 C 0 km/h
1813 04-06-2017 07:00:00 14.1 C 11.65 g/m*3 14.1 C 0 km/h
1814 04-06-2017 07:05:00 14.1 C 11.65 g/m*3 14.1 C 0 km/h
1815 04-06-2017 07:10:00 14.2 C 11.72 g/m*3 14.2 C 1.6 km/h
1816 04-06-2017 07:15:00 14.3 C 11.79 g/m*3 14.3 C 0 km/h
1817 04-06-2017 07:20:00 14.4 C 11.87 g/m*3 14.4 C 0 km/h
1818 04-06-2017 07:25:00 14.4 C 11.87 g/m*3 14.4 C 4.8 km/h
1819 04-06-2017 07:30:00 14.4 C 11.87 g/m*3 14.4 C 1.6 km/h
1820 04-06-2017 07:35:00 14.4 C 11.99 g/m*3 14.4 C 1.6 km/h
1821 04-06-2017 07:40:00 14.5 C 12.06 g/m*3 14.5 C 0 km/h
1822 04-06-2017 07:45:00 14.5 C 12.06 g/m*3 14.5 C 1.6 km/h
1823 04-06-2017 07:50:00 14.6 C 12.14 g/m*3 14.6 C 1.6 km/h
1824 04-06-2017 07:55:00 14.6 C 12.14 g/m*3 14.6 C 1.6 km/h
1825 04-06-2017 08:00:00 14.6 C 12.14 g/m*3 14.6 C 0 km/h
Sensor: Nr:Datum:Temp:Abs-Feuchte:Windchill:Wind:
Aussen-T/F 1826 04-06-2017 08:05:00 14.7 C 12.09 g/m*3 14.7 C 0 km/h
1827 04-06-2017 08:10:00 14.8 C 12.29 g/m*3 14.8 C 4.8 km/h
1828 04-06-2017 08:15:00 14.8 C 12.16 g/m*3 14.8 C 3.2 km/h
1829 04-06-2017 08:20:00 14.8 C 12.16 g/m*3 14.8 C 0 km/h
1830 04-06-2017 08:25:00 14.7 C 12.09 g/m*3 14.7 C 1.6 km/h
1831 04-06-2017 08:30:00 14.7 C 12.09 g/m*3 14.7 C 1.6 km/h
1832 04-06-2017 08:35:00 14.7 C 12.09 g/m*3 14.7 C 0 km/h
1833 04-06-2017 08:40:00 14.7 C 12.09 g/m*3 14.7 C 1.6 km/h
1834 04-06-2017 08:45:00 14.7 C 12.09 g/m*3 14.7 C 0 km/h
1835 04-06-2017 08:50:00 14.8 C 12.16 g/m*3 14.8 C 3.2 km/h
1836 04-06-2017 08:55:00 15 C 12.44 g/m*3 15 C 1.6 km/h
1837 04-06-2017 09:00:00 15.2 C 12.59 g/m*3 15.2 C 1.6 km/h
1838 04-06-2017 09:05:00 15.1 C 12.51 g/m*3 15.1 C 4.8 km/h
1839 04-06-2017 09:10:00 15.1 C 12.39 g/m*3 15.1 C 4.8 km/h
1840 04-06-2017 09:15:00 15.2 C 12.59 g/m*3 15.2 C 3.2 km/h
1841 04-06-2017 09:20:00 15.1 C 12.39 g/m*3 15.1 C 6.4 km/h
1842 04-06-2017 09:25:00 15 C 12.31 g/m*3 15 C 6.4 km/h
1843 04-06-2017 09:30:00 14.9 C 12.11 g/m*3 14.9 C 6.4 km/h
1844 04-06-2017 09:35:00 14.9 C 12.11 g/m*3 14.9 C 8.1 km/h
1845 04-06-2017 09:40:00 15.1 C 12.39 g/m*3 15.1 C 3.2 km/h
1846 04-06-2017 09:45:00 15.2 C 12.33 g/m*3 15.2 C 6.4 km/h
1847 04-06-2017 09:50:00 15.4 C 12.61 g/m*3 15.4 C 1.6 km/h
1848 04-06-2017 09:55:00 15.4 C 12.48 g/m*3 15.4 C 4.8 km/h
1849 04-06-2017 10:00:00 15.5 C 12.56 g/m*3 15.5 C 1.6 km/h
1850 04-06-2017 10:05:00 15.6 C 12.5 g/m*3 15.6 C 8.1 km/h
Sensor: Nr:Datum:Temp:Abs-Feuchte:Windchill:Wind:
Aussen-T/F 1851 04-06-2017 10:10:00 15.7 C 12.71 g/m*3 15.7 C 0 km/h
1852 04-06-2017 10:15:00 15.9 C 12.87 g/m*3 15.9 C 1.6 km/h
1853 04-06-2017 10:20:00 16.1 C 12.88 g/m*3 16.1 C 4.8 km/h
1854 04-06-2017 10:25:00 16.1 C 12.61 g/m*3 16.1 C 6.4 km/h
1855 04-06-2017 10:30:00 16 C 12.26 g/m*3 16 C 8.1 km/h
1856 04-06-2017 10:35:00 16.1 C 12.34 g/m*3 16.1 C 9.7 km/h
1857 04-06-2017 10:40:00 16.2 C 12.41 g/m*3 16.2 C 11.3 km/h
1858 04-06-2017 10:45:00 16.3 C 12.35 g/m*3 16.3 C 12.9 km/h
1859 04-06-2017 10:50:00 16.4 C 12.28 g/m*3 16.4 C 6.4 km/h
1860 04-06-2017 10:55:00 16.4 C 12.14 g/m*3 16.4 C 4.8 km/h
1861 04-06-2017 11:00:00 16.5 C 12.22 g/m*3 16.5 C 3.2 km/h
1862 04-06-2017 11:05:00 16.6 C 12.43 g/m*3 16.6 C 0 km/h
1863 04-06-2017 11:10:00 16.8 C 12.87 g/m*3 16.8 C 3.2 km/h
1864 04-06-2017 11:15:00 16.7 C 12.22 g/m*3 16.7 C 8.1 km/h
1865 04-06-2017 11:20:00 16.9 C 11.94 g/m*3 16.9 C 8.1 km/h
1866 04-06-2017 11:25:00 17 C 12.01 g/m*3 17 C 6.4 km/h
1867 04-06-2017 11:30:00 17.2 C 11.72 g/m*3 17.2 C 11.3 km/h
1868 04-06-2017 11:35:00 17.4 C 12.15 g/m*3 17.4 C 8.1 km/h
1869 04-06-2017 11:40:00 17.6 C 12.15 g/m*3 17.6 C 8.1 km/h
1870 04-06-2017 11:45:00 17.6 C 12 g/m*3 17.6 C 12.9 km/h
1871 04-06-2017 11:50:00 17.6 C 12.15 g/m*3 17.6 C 11.3 km/h
1872 04-06-2017 11:55:00 17.7 C 11.47 g/m*3 17.7 C 8.1 km/h
1873 04-06-2017 12:00:00 17.8 C 11.54 g/m*3 17.8 C 3.2 km/h
1874 04-06-2017 12:05:00 18 C 11.98 g/m*3 18 C 8.1 km/h
1875 04-06-2017 12:10:00 18.1 C 12.67 g/m*3 18.1 C 4.8 km/h
Sensor: Nr:Datum:Temp:Abs-Feuchte:Windchill:Wind:
Aussen-T/F 1876 04-06-2017 12:15:00 18.2 C 12.28 g/m*3 18.2 C 3.2 km/h
1877 04-06-2017 12:20:00 18.2 C 11.97 g/m*3 18.2 C 9.7 km/h
1878 04-06-2017 12:25:00 18.2 C 11.81 g/m*3 18.2 C 12.9 km/h
1879 04-06-2017 12:30:00 18 C 11.67 g/m*3 18 C 8.1 km/h
1880 04-06-2017 12:35:00 17.8 C 11.69 g/m*3 17.8 C 6.4 km/h
1881 04-06-2017 12:40:00 17.7 C 12.07 g/m*3 17.7 C 8.1 km/h
1882 04-06-2017 12:45:00 17.5 C 12.08 g/m*3 17.5 C 4.8 km/h
1883 04-06-2017 12:50:00 17.5 C 12.37 g/m*3 17.5 C 1.6 km/h
1884 04-06-2017 12:55:00 17.4 C 12.6 g/m*3 17.4 C 1.6 km/h
1885 04-06-2017 13:00:00 17.4 C 12.45 g/m*3 17.4 C 0 km/h
1886 04-06-2017 13:05:00 17.4 C 11.26 g/m*3 17.4 C 4.8 km/h
1887 04-06-2017 13:10:00 17.7 C 11.47 g/m*3 17.7 C 6.4 km/h
1888 04-06-2017 13:15:00 17.9 C 11.3 g/m*3 17.9 C 8.1 km/h
1889 04-06-2017 13:20:00 18.1 C 11.28 g/m*3 18.1 C 6.4 km/h
1890 04-06-2017 13:25:00 18.2 C 11.5 g/m*3 18.2 C 6.4 km/h
1891 04-06-2017 13:30:00 18.2 C 11.81 g/m*3 18.2 C 6.4 km/h
1892 04-06-2017 13:35:00 18.4 C 12.74 g/m*3 18.4 C 4.8 km/h
1893 04-06-2017 13:40:00 18.5 C 10.76 g/m*3 18.5 C 11.3 km/h
1894 04-06-2017 13:45:00 18.7 C 10.57 g/m*3 18.7 C 8.1 km/h
1895 04-06-2017 13:50:00 18.9 C 11.18 g/m*3 18.9 C 16.1 km/h
1896 04-06-2017 13:55:00 19.1 C 10.49 g/m*3 19.1 C 12.9 km/h
1897 04-06-2017 14:00:00 19.1 C 11.64 g/m*3 19.1 C 9.7 km/h
1898 04-06-2017 14:05:00 18.9 C 10.37 g/m*3 18.9 C 9.7 km/h
1899 04-06-2017 14:10:00 18.9 C 10.85 g/m*3 18.9 C 8.1 km/h
1900 04-06-2017 14:15:00 19.1 C 10.33 g/m*3 19.1 C 12.9 km/h
Sensor: Nr:Datum:Temp:Abs-Feuchte:Windchill:Wind:
Aussen-T/F 1901 04-06-2017 14:20:00 19.2 C 10.06 g/m*3 19.2 C 17.7 km/h
1902 04-06-2017 14:25:00 19.2 C 10.22 g/m*3 19.2 C 17.7 km/h
1903 04-06-2017 14:30:00 19.3 C 10.12 g/m*3 19.3 C 9.7 km/h
1904 04-06-2017 14:35:00 19.3 C 9.79 g/m*3 19.3 C 17.7 km/h
1905 04-06-2017 14:40:00 19.3 C 9.79 g/m*3 19.3 C 14.5 km/h
1906 04-06-2017 14:45:00 19.2 C 10.22 g/m*3 19.2 C 11.3 km/h
1907 04-06-2017 14:50:00 19.4 C 9.84 g/m*3 19.4 C 16.1 km/h
1908 04-06-2017 14:55:00 19.5 C 9.9 g/m*3 19.5 C 12.9 km/h
1909 04-06-2017 15:00:00 19.6 C 9.62 g/m*3 19.6 C 8.1 km/h
1910 04-06-2017 15:05:00 19.6 C 10.47 g/m*3 19.6 C 11.3 km/h
1911 04-06-2017 15:10:00 19.7 C 12.4 g/m*3 19.7 C 1.6 km/h
1912 04-06-2017 15:15:00 19.6 C 11.48 g/m*3 19.6 C 6.4 km/h
1913 04-06-2017 15:20:00 19.7 C 10.19 g/m*3 19.7 C 8.1 km/h
1914 04-06-2017 15:25:00 19.8 C 11.44 g/m*3 19.8 C 3.2 km/h
1915 04-06-2017 15:30:00 19.8 C 11.79 g/m*3 19.8 C 6.4 km/h
1916 04-06-2017 15:35:00 19.8 C 10.59 g/m*3 19.8 C 8.1 km/h
1917 04-06-2017 15:40:00 19.9 C 10.31 g/m*3 19.9 C 6.4 km/h
1918 04-06-2017 15:45:00 20.1 C 10.78 g/m*3 20.1 C 8.1 km/h
1919 04-06-2017 15:50:00 20.3 C 10.55 g/m*3 20.3 C 11.3 km/h
1920 04-06-2017 15:55:00 20.6 C 12.35 g/m*3 20.6 C 6.4 km/h
1921 04-06-2017 16:00:00 21.1 C 10.69 g/m*3 21.1 C 9.7 km/h
1922 04-06-2017 16:05:00 21.2 C 10.19 g/m*3 21.2 C 4.8 km/h
1923 04-06-2017 16:10:00 21.2 C 10.38 g/m*3 21.2 C 6.4 km/h
1924 04-06-2017 16:15:00 21.2 C 11.68 g/m*3 21.2 C 6.4 km/h
1925 04-06-2017 16:20:00 21.7 C 13.54 g/m*3 21.7 C 8.1 km/h
Sensor: Nr:Datum:Temp:Abs-Feuchte:Windchill:Wind:
Aussen-T/F 1926 04-06-2017 16:25:00 22.2 C 11.58 g/m*3 22.2 C 11.3 km/h
1927 04-06-2017 16:30:00 22.7 C 11.52 g/m*3 22.7 C 11.3 km/h
1928 04-06-2017 16:35:00 22.7 C 12.32 g/m*3 22.7 C 4.8 km/h
1929 04-06-2017 16:40:00 22.3 C 9.87 g/m*3 22.3 C 14.5 km/h
1930 04-06-2017 16:45:00 21.9 C 11.96 g/m*3 21.9 C 4.8 km/h
1931 04-06-2017 16:50:00 21.7 C 12.97 g/m*3 21.7 C 3.2 km/h
1932 04-06-2017 16:55:00 21.7 C 12.02 g/m*3 21.7 C 9.7 km/h
1933 04-06-2017 17:00:00 22.1 C 11.32 g/m*3 22.1 C 11.3 km/h
1934 04-06-2017 17:05:00 22.6 C 10.85 g/m*3 22.6 C 9.7 km/h
1935 04-06-2017 17:10:00 23 C 11.92 g/m*3 23 C 9.7 km/h
1936 04-06-2017 17:15:00 23.3 C 10.87 g/m*3 23.3 C 6.4 km/h
1937 04-06-2017 17:20:00 23.1 C 11.37 g/m*3 23.1 C 8.1 km/h
1938 04-06-2017 17:25:00 22.7 C 11.52 g/m*3 22.7 C 3.2 km/h
1939 04-06-2017 17:30:00 22.6 C 13.66 g/m*3 22.6 C 1.6 km/h
1940 04-06-2017 17:35:00 22.6 C 13.06 g/m*3 22.6 C 8.1 km/h
1941 04-06-2017 17:40:00 22.5 C 12.58 g/m*3 22.5 C 0 km/h
1942 04-06-2017 17:45:00 22.3 C 10.27 g/m*3 22.3 C 4.8 km/h
1943 04-06-2017 17:50:00 22.2 C 9.82 g/m*3 22.2 C 3.2 km/h
1944 04-06-2017 17:55:00 21.9 C 9.46 g/m*3 21.9 C 11.3 km/h
1945 04-06-2017 18:00:00 21.4 C 10.5 g/m*3 21.4 C 14.5 km/h
1946 04-06-2017 18:05:00 20.7 C 10.98 g/m*3 20.7 C 14.5 km/h
1947 04-06-2017 18:10:00 19.9 C 10.82 g/m*3 19.9 C 14.5 km/h
1948 04-06-2017 18:15:00 19.4 C 10.51 g/m*3 19.4 C 16.1 km/h
1949 04-06-2017 18:20:00 19.2 C 10.72 g/m*3 19.2 C 11.3 km/h
1950 04-06-2017 18:25:00 19.1 C 10.98 g/m*3 19.1 C 11.3 km/h
Sensor: Nr:Datum:Temp:Abs-Feuchte:Windchill:Wind:
Aussen-T/F 1951 04-06-2017 18:30:00 19.2 C 10.55 g/m*3 19.2 C 12.9 km/h
1952 04-06-2017 18:35:00 19.2 C 10.39 g/m*3 19.2 C 11.3 km/h
1953 04-06-2017 18:40:00 19.1 C 10.33 g/m*3 19.1 C 11.3 km/h
1954 04-06-2017 18:45:00 18.9 C 10.21 g/m*3 18.9 C 8.1 km/h
1955 04-06-2017 18:50:00 18.7 C 10.09 g/m*3 18.7 C 4.8 km/h
1956 04-06-2017 18:55:00 18.6 C 10.19 g/m*3 18.6 C 4.8 km/h
1957 04-06-2017 19:00:00 18.4 C 9.91 g/m*3 18.4 C 12.9 km/h
1958 04-06-2017 19:05:00 18.2 C 10.1 g/m*3 18.2 C 8.1 km/h
1959 04-06-2017 19:10:00 18.1 C 10.04 g/m*3 18.1 C 8.1 km/h
1960 04-06-2017 19:15:00 18.1 C 10.04 g/m*3 18.1 C 4.8 km/h
1961 04-06-2017 19:20:00 17.9 C 9.92 g/m*3 17.9 C 6.4 km/h
1962 04-06-2017 19:25:00 17.8 C 10.17 g/m*3 17.8 C 4.8 km/h
1963 04-06-2017 19:30:00 17.7 C 10.11 g/m*3 17.7 C 6.4 km/h
1964 04-06-2017 19:35:00 17.7 C 10.86 g/m*3 17.7 C 3.2 km/h
1965 04-06-2017 19:40:00 17.6 C 11.4 g/m*3 17.6 C 0 km/h
1966 04-06-2017 19:45:00 17.4 C 11.41 g/m*3 17.4 C 0 km/h
1967 04-06-2017 19:50:00 17.2 C 11.72 g/m*3 17.2 C 0 km/h
1968 04-06-2017 19:55:00 16.8 C 11.72 g/m*3 16.8 C 0 km/h
1969 04-06-2017 20:00:00 16.3 C 11.65 g/m*3 16.3 C 1.6 km/h
1970 04-06-2017 20:05:00 15.9 C 11.51 g/m*3 15.9 C 0 km/h
1971 04-06-2017 20:10:00 15.6 C 11.44 g/m*3 15.6 C 0 km/h
1972 04-06-2017 20:15:00 15.3 C 11.36 g/m*3 15.3 C 1.6 km/h
1973 04-06-2017 20:20:00 14.9 C 11.09 g/m*3 14.9 C 1.6 km/h
1974 04-06-2017 20:25:00 14.7 C 11.08 g/m*3 14.7 C 1.6 km/h
1975 04-06-2017 20:30:00 14.6 C 11.14 g/m*3 14.6 C 1.6 km/h
Sensor: Nr:Datum:Temp:Abs-Feuchte:Windchill:Wind:
Aussen-T/F 1976 04-06-2017 20:35:00 14.4 C 11.13 g/m*3 14.4 C 0 km/h
1977 04-06-2017 20:40:00 14.3 C 11.06 g/m*3 14.3 C 1.6 km/h
1978 04-06-2017 20:45:00 14.2 C 11.11 g/m*3 14.2 C 1.6 km/h
1979 04-06-2017 20:50:00 14.1 C 11.04 g/m*3 14.1 C 1.6 km/h
1980 04-06-2017 20:55:00 14 C 11.1 g/m*3 14 C 1.6 km/h
1981 04-06-2017 21:00:00 13.9 C 11.03 g/m*3 13.9 C 0 km/h
1982 04-06-2017 21:05:00 13.9 C 11.03 g/m*3 13.9 C 0 km/h
1983 04-06-2017 21:10:00 13.8 C 10.96 g/m*3 13.8 C 0 km/h
1984 04-06-2017 21:15:00 13.8 C 10.96 g/m*3 13.8 C 0 km/h
1985 04-06-2017 21:20:00 13.8 C 11.08 g/m*3 13.8 C 0 km/h
1986 04-06-2017 21:25:00 13.8 C 11.08 g/m*3 13.8 C 0 km/h
1987 04-06-2017 21:30:00 13.7 C 11.01 g/m*3 13.7 C 0 km/h
1988 04-06-2017 21:35:00 13.7 C 11.01 g/m*3 13.7 C 0 km/h
1989 04-06-2017 21:40:00 13.6 C 10.95 g/m*3 13.6 C 0 km/h
1990 04-06-2017 21:45:00 13.6 C 10.95 g/m*3 13.6 C 0 km/h
1991 04-06-2017 21:50:00 13.5 C 10.88 g/m*3 13.5 C 0 km/h
1992 04-06-2017 21:55:00 13.4 C 10.81 g/m*3 13.4 C 0 km/h
1993 04-06-2017 22:00:00 13.3 C 10.74 g/m*3 13.3 C 0 km/h
1994 04-06-2017 22:05:00 13.2 C 10.68 g/m*3 13.2 C 0 km/h
1995 04-06-2017 22:10:00 13.1 C 10.61 g/m*3 13.1 C 0 km/h
1996 04-06-2017 22:15:00 13 C 10.55 g/m*3 13 C 0 km/h
1997 04-06-2017 22:20:00 12.9 C 10.48 g/m*3 12.9 C 0 km/h
1998 04-06-2017 22:25:00 12.8 C 10.42 g/m*3 12.8 C 1.6 km/h
1999 04-06-2017 22:30:00 12.8 C 10.53 g/m*3 12.8 C 0 km/h
2000 04-06-2017 22:35:00 12.8 C 10.53 g/m*3 12.8 C 0 km/h
Sensor: Nr:Datum:Temp:Abs-Feuchte:Windchill:Wind:
Aussen-T/F 2001 04-06-2017 22:40:00 12.8 C 10.53 g/m*3 12.8 C 0 km/h
2002 04-06-2017 22:45:00 12.8 C 10.53 g/m*3 12.8 C 0 km/h
2003 04-06-2017 22:50:00 12.8 C 10.53 g/m*3 12.8 C 0 km/h
2004 04-06-2017 22:55:00 12.8 C 10.53 g/m*3 12.8 C 0 km/h
2005 04-06-2017 23:00:00 12.8 C 10.53 g/m*3 12.8 C 0 km/h
2006 04-06-2017 23:05:00 12.8 C 10.64 g/m*3 12.8 C 0 km/h
2007 04-06-2017 23:10:00 12.8 C 10.64 g/m*3 12.8 C 0 km/h
2008 04-06-2017 23:15:00 12.8 C 10.64 g/m*3 12.8 C 0 km/h
2009 04-06-2017 23:20:00 12.7 C 10.46 g/m*3 12.7 C 0 km/h
2010 04-06-2017 23:25:00 12.6 C 10.4 g/m*3 12.6 C 0 km/h
2011 04-06-2017 23:30:00 12.6 C 10.4 g/m*3 12.6 C 0 km/h
2012 04-06-2017 23:35:00 12.5 C 10.44 g/m*3 12.5 C 0 km/h
2013 04-06-2017 23:40:00 12.4 C 10.38 g/m*3 12.4 C 0 km/h
2014 04-06-2017 23:45:00 12.4 C 10.27 g/m*3 12.4 C 0 km/h
2015 04-06-2017 23:50:00 12.3 C 10.21 g/m*3 12.3 C 0 km/h
2016 04-06-2017 23:55:00 12.3 C 10.21 g/m*3 12.3 C 0 km/h

Legende:
   Min
   Max


Maximal/Minimal-Werte vom 29.05.2017 - 04.06.2017

Sensor Min Max Avg
Temp
(Aussen-T/F)
11.7 °C
01-06-2017  05:25:00
35.6 °C
29-05-2017  17:30:00
19.65 °C
Abs-Feuchte
(Aussen-T/F)
9.46 g/m*3
04-06-2017  17:55:00
19.3 g/m*3
29-05-2017  11:30:00
13.09 g/m*3
Windchill
(Aussen-T/F)
11.7 C
01-06-2017  05:25:00
35.6 C
29-05-2017  17:30:00
19.64 C

Die Daten stammen von einer Davis Vantage Pro 2 Wetter-Station und werden unter Linux mit der Software wview2wettercgi und aufbereitet. Alle Angaben erfolgen ohne Gewähr für ihre Vollständigkeit oder Richtigkeit.
Kontakt: Rainer Krienke krienke@uni-koblenz.de . Meine Webseiten an der Uni Koblenz oder privat.
Version: $Revision: 0.78 $